<?xml version="1.0" encoding="UTF-8" standalone="no" ?>
<gpx xmlns="http://www.topografix.com/GPX/1/1" xmlns:xsi="http://www.w3.org/2001/XMLSchema-instance" xsi:schemaLocation="http://www.topografix.com/GPX/1/1 http://www.topografix.com/GPX/1/1/gpx.xsd" version="1.1" creator="VisuGPX - https://www.visugpx.com">
  <metadata>
    <name>83-D-La Chartreuse de la Verne</name>
    <desc><![CDATA[83-D-La Chartreuse de la Verne : les Crêtes]]></desc>
  </metadata>
  <trk>
    <name><![CDATA[2019-03-24-D-chartreuse de la verne]]></name>
    <trkseg>
      <trkpt lat="43.23783" lon="6.39633">
        <ele>429.3</ele>
        <time>2019-03-24T08:27:18Z</time>
      </trkpt>
      <trkpt lat="43.23783" lon="6.39633">
        <ele>429.2</ele>
        <time>2019-03-24T08:27:19Z</time>
      </trkpt>
      <trkpt lat="43.23782" lon="6.39646">
        <ele>428.1</ele>
        <time>2019-03-24T08:29:39Z</time>
      </trkpt>
      <trkpt lat="43.23782" lon="6.39658">
        <ele>428.1</ele>
        <time>2019-03-24T08:29:51Z</time>
      </trkpt>
      <trkpt lat="43.2378" lon="6.39671">
        <ele>428.3</ele>
        <time>2019-03-24T08:30:03Z</time>
      </trkpt>
      <trkpt lat="43.23775" lon="6.39682">
        <ele>428.7</ele>
        <time>2019-03-24T08:30:11Z</time>
      </trkpt>
      <trkpt lat="43.23784" lon="6.39676">
        <ele>430.3</ele>
        <time>2019-03-24T08:30:47Z</time>
      </trkpt>
      <trkpt lat="43.23786" lon="6.39663">
        <ele>430.6</ele>
        <time>2019-03-24T08:31:00Z</time>
      </trkpt>
      <trkpt lat="43.23784" lon="6.39651">
        <ele>430.2</ele>
        <time>2019-03-24T08:32:55Z</time>
      </trkpt>
      <trkpt lat="43.23787" lon="6.39639">
        <ele>429.7</ele>
        <time>2019-03-24T08:33:07Z</time>
      </trkpt>
      <trkpt lat="43.2378" lon="6.39646">
        <ele>429.5</ele>
        <time>2019-03-24T08:36:29Z</time>
      </trkpt>
      <trkpt lat="43.23781" lon="6.39659">
        <ele>429.2</ele>
        <time>2019-03-24T08:37:43Z</time>
      </trkpt>
      <trkpt lat="43.23779" lon="6.39672">
        <ele>428</ele>
        <time>2019-03-24T08:37:57Z</time>
      </trkpt>
      <trkpt lat="43.23777" lon="6.39684">
        <ele>429.3</ele>
        <time>2019-03-24T08:38:06Z</time>
      </trkpt>
      <trkpt lat="43.23769" lon="6.39692">
        <ele>429.2</ele>
        <time>2019-03-24T08:38:15Z</time>
      </trkpt>
      <trkpt lat="43.2376" lon="6.39686">
        <ele>428.9</ele>
        <time>2019-03-24T08:38:25Z</time>
      </trkpt>
      <trkpt lat="43.2375" lon="6.39685">
        <ele>428.8</ele>
        <time>2019-03-24T08:38:34Z</time>
      </trkpt>
      <trkpt lat="43.23742" lon="6.39691">
        <ele>428.8</ele>
        <time>2019-03-24T08:38:44Z</time>
      </trkpt>
      <trkpt lat="43.23733" lon="6.39697">
        <ele>428.7</ele>
        <time>2019-03-24T08:38:54Z</time>
      </trkpt>
      <trkpt lat="43.23725" lon="6.39704">
        <ele>428.5</ele>
        <time>2019-03-24T08:39:02Z</time>
      </trkpt>
      <trkpt lat="43.23717" lon="6.39712">
        <ele>428.2</ele>
        <time>2019-03-24T08:39:12Z</time>
      </trkpt>
      <trkpt lat="43.23713" lon="6.39723">
        <ele>428.5</ele>
        <time>2019-03-24T08:39:21Z</time>
      </trkpt>
      <trkpt lat="43.23708" lon="6.39735">
        <ele>428</ele>
        <time>2019-03-24T08:39:31Z</time>
      </trkpt>
      <trkpt lat="43.23701" lon="6.39745">
        <ele>427.9</ele>
        <time>2019-03-24T08:39:42Z</time>
      </trkpt>
      <trkpt lat="43.23696" lon="6.39757">
        <ele>426.8</ele>
        <time>2019-03-24T08:39:52Z</time>
      </trkpt>
      <trkpt lat="43.2369" lon="6.39766">
        <ele>425.1</ele>
        <time>2019-03-24T08:40:17Z</time>
      </trkpt>
      <trkpt lat="43.2368" lon="6.39769">
        <ele>423.7</ele>
        <time>2019-03-24T08:41:05Z</time>
      </trkpt>
      <trkpt lat="43.23672" lon="6.39777">
        <ele>423.5</ele>
        <time>2019-03-24T08:41:15Z</time>
      </trkpt>
      <trkpt lat="43.23663" lon="6.39782">
        <ele>423.3</ele>
        <time>2019-03-24T08:41:21Z</time>
      </trkpt>
      <trkpt lat="43.23654" lon="6.39787">
        <ele>422.9</ele>
        <time>2019-03-24T08:41:29Z</time>
      </trkpt>
      <trkpt lat="43.23645" lon="6.39792">
        <ele>422.3</ele>
        <time>2019-03-24T08:41:39Z</time>
      </trkpt>
      <trkpt lat="43.23637" lon="6.39801">
        <ele>421.6</ele>
        <time>2019-03-24T08:41:48Z</time>
      </trkpt>
      <trkpt lat="43.2363" lon="6.39809">
        <ele>421</ele>
        <time>2019-03-24T08:41:57Z</time>
      </trkpt>
      <trkpt lat="43.23623" lon="6.39818">
        <ele>420.4</ele>
        <time>2019-03-24T08:42:04Z</time>
      </trkpt>
      <trkpt lat="43.23618" lon="6.3983">
        <ele>420</ele>
        <time>2019-03-24T08:42:11Z</time>
      </trkpt>
      <trkpt lat="43.23611" lon="6.39839">
        <ele>419.7</ele>
        <time>2019-03-24T08:42:16Z</time>
      </trkpt>
      <trkpt lat="43.23603" lon="6.39848">
        <ele>418.7</ele>
        <time>2019-03-24T08:42:28Z</time>
      </trkpt>
      <trkpt lat="43.23595" lon="6.39856">
        <ele>418.2</ele>
        <time>2019-03-24T08:42:37Z</time>
      </trkpt>
      <trkpt lat="43.23587" lon="6.39865">
        <ele>418</ele>
        <time>2019-03-24T08:42:44Z</time>
      </trkpt>
      <trkpt lat="43.23578" lon="6.39864">
        <ele>417.6</ele>
        <time>2019-03-24T08:42:51Z</time>
      </trkpt>
      <trkpt lat="43.23571" lon="6.39856">
        <ele>416.7</ele>
        <time>2019-03-24T08:43:02Z</time>
      </trkpt>
      <trkpt lat="43.23562" lon="6.39849">
        <ele>415.8</ele>
        <time>2019-03-24T08:43:13Z</time>
      </trkpt>
      <trkpt lat="43.23555" lon="6.39841">
        <ele>415.3</ele>
        <time>2019-03-24T08:43:23Z</time>
      </trkpt>
      <trkpt lat="43.23547" lon="6.39836">
        <ele>414.8</ele>
        <time>2019-03-24T08:43:30Z</time>
      </trkpt>
      <trkpt lat="43.23538" lon="6.39833">
        <ele>414.6</ele>
        <time>2019-03-24T08:43:37Z</time>
      </trkpt>
      <trkpt lat="43.23528" lon="6.39829">
        <ele>414.4</ele>
        <time>2019-03-24T08:43:45Z</time>
      </trkpt>
      <trkpt lat="43.23518" lon="6.39821">
        <ele>414</ele>
        <time>2019-03-24T08:43:53Z</time>
      </trkpt>
      <trkpt lat="43.23511" lon="6.39811">
        <ele>414.1</ele>
        <time>2019-03-24T08:44:02Z</time>
      </trkpt>
      <trkpt lat="43.23506" lon="6.39801">
        <ele>413.3</ele>
        <time>2019-03-24T08:44:09Z</time>
      </trkpt>
      <trkpt lat="43.23499" lon="6.39791">
        <ele>412.7</ele>
        <time>2019-03-24T08:44:15Z</time>
      </trkpt>
      <trkpt lat="43.2349" lon="6.39787">
        <ele>412.1</ele>
        <time>2019-03-24T08:44:23Z</time>
      </trkpt>
      <trkpt lat="43.23482" lon="6.3978">
        <ele>412.1</ele>
        <time>2019-03-24T08:44:33Z</time>
      </trkpt>
      <trkpt lat="43.23476" lon="6.39793">
        <ele>412.3</ele>
        <time>2019-03-24T08:44:45Z</time>
      </trkpt>
      <trkpt lat="43.23475" lon="6.39806">
        <ele>412.5</ele>
        <time>2019-03-24T08:44:53Z</time>
      </trkpt>
      <trkpt lat="43.23473" lon="6.39818">
        <ele>412.7</ele>
        <time>2019-03-24T08:45:01Z</time>
      </trkpt>
      <trkpt lat="43.23471" lon="6.3983">
        <ele>413.6</ele>
        <time>2019-03-24T08:45:11Z</time>
      </trkpt>
      <trkpt lat="43.23471" lon="6.39843">
        <ele>414.8</ele>
        <time>2019-03-24T08:45:19Z</time>
      </trkpt>
      <trkpt lat="43.23474" lon="6.39856">
        <ele>416.3</ele>
        <time>2019-03-24T08:45:28Z</time>
      </trkpt>
      <trkpt lat="43.23472" lon="6.39868">
        <ele>417.7</ele>
        <time>2019-03-24T08:45:40Z</time>
      </trkpt>
      <trkpt lat="43.23465" lon="6.39877">
        <ele>418.2</ele>
        <time>2019-03-24T08:45:49Z</time>
      </trkpt>
      <trkpt lat="43.23458" lon="6.39885">
        <ele>418.9</ele>
        <time>2019-03-24T08:46:00Z</time>
      </trkpt>
      <trkpt lat="43.23451" lon="6.39896">
        <ele>419.8</ele>
        <time>2019-03-24T08:46:10Z</time>
      </trkpt>
      <trkpt lat="43.23445" lon="6.39907">
        <ele>420.5</ele>
        <time>2019-03-24T08:46:18Z</time>
      </trkpt>
      <trkpt lat="43.23439" lon="6.39916">
        <ele>421.3</ele>
        <time>2019-03-24T08:46:26Z</time>
      </trkpt>
      <trkpt lat="43.23436" lon="6.39929">
        <ele>421.9</ele>
        <time>2019-03-24T08:46:35Z</time>
      </trkpt>
      <trkpt lat="43.23441" lon="6.3994">
        <ele>422.8</ele>
        <time>2019-03-24T08:46:43Z</time>
      </trkpt>
      <trkpt lat="43.23449" lon="6.39946">
        <ele>423.5</ele>
        <time>2019-03-24T08:46:50Z</time>
      </trkpt>
      <trkpt lat="43.23453" lon="6.39958">
        <ele>424.1</ele>
        <time>2019-03-24T08:46:59Z</time>
      </trkpt>
      <trkpt lat="43.23459" lon="6.39968">
        <ele>424.9</ele>
        <time>2019-03-24T08:47:08Z</time>
      </trkpt>
      <trkpt lat="43.23462" lon="6.3998">
        <ele>425.6</ele>
        <time>2019-03-24T08:47:16Z</time>
      </trkpt>
      <trkpt lat="43.23461" lon="6.39993">
        <ele>427.1</ele>
        <time>2019-03-24T08:48:07Z</time>
      </trkpt>
      <trkpt lat="43.23457" lon="6.39981">
        <ele>428.8</ele>
        <time>2019-03-24T08:51:28Z</time>
      </trkpt>
      <trkpt lat="43.2346" lon="6.39969">
        <ele>429.9</ele>
        <time>2019-03-24T08:51:40Z</time>
      </trkpt>
      <trkpt lat="43.23453" lon="6.39961">
        <ele>430.4</ele>
        <time>2019-03-24T08:51:50Z</time>
      </trkpt>
      <trkpt lat="43.23444" lon="6.39952">
        <ele>431.3</ele>
        <time>2019-03-24T08:52:03Z</time>
      </trkpt>
      <trkpt lat="43.23434" lon="6.39947">
        <ele>432.8</ele>
        <time>2019-03-24T08:52:16Z</time>
      </trkpt>
      <trkpt lat="43.23426" lon="6.3994">
        <ele>433.5</ele>
        <time>2019-03-24T08:52:24Z</time>
      </trkpt>
      <trkpt lat="43.23429" lon="6.39928">
        <ele>434</ele>
        <time>2019-03-24T08:52:45Z</time>
      </trkpt>
      <trkpt lat="43.23436" lon="6.39918">
        <ele>433.9</ele>
        <time>2019-03-24T08:53:02Z</time>
      </trkpt>
      <trkpt lat="43.2344" lon="6.39906">
        <ele>433.3</ele>
        <time>2019-03-24T08:53:15Z</time>
      </trkpt>
      <trkpt lat="43.23447" lon="6.39898">
        <ele>433.3</ele>
        <time>2019-03-24T08:53:24Z</time>
      </trkpt>
      <trkpt lat="43.23439" lon="6.39894">
        <ele>433.2</ele>
        <time>2019-03-24T08:53:35Z</time>
      </trkpt>
      <trkpt lat="43.23448" lon="6.39897">
        <ele>432.8</ele>
        <time>2019-03-24T08:53:55Z</time>
      </trkpt>
      <trkpt lat="43.23451" lon="6.39885">
        <ele>432.8</ele>
        <time>2019-03-24T08:54:15Z</time>
      </trkpt>
      <trkpt lat="43.23459" lon="6.39876">
        <ele>433.3</ele>
        <time>2019-03-24T08:54:35Z</time>
      </trkpt>
      <trkpt lat="43.2346" lon="6.39863">
        <ele>433.5</ele>
        <time>2019-03-24T08:54:45Z</time>
      </trkpt>
      <trkpt lat="43.23454" lon="6.39855">
        <ele>434.1</ele>
        <time>2019-03-24T08:54:54Z</time>
      </trkpt>
      <trkpt lat="43.23452" lon="6.39841">
        <ele>434.6</ele>
        <time>2019-03-24T08:55:01Z</time>
      </trkpt>
      <trkpt lat="43.23449" lon="6.39829">
        <ele>435</ele>
        <time>2019-03-24T08:55:10Z</time>
      </trkpt>
      <trkpt lat="43.23448" lon="6.39815">
        <ele>435.8</ele>
        <time>2019-03-24T08:55:19Z</time>
      </trkpt>
      <trkpt lat="43.23444" lon="6.39804">
        <ele>436.2</ele>
        <time>2019-03-24T08:55:28Z</time>
      </trkpt>
      <trkpt lat="43.23441" lon="6.39792">
        <ele>437.5</ele>
        <time>2019-03-24T08:55:41Z</time>
      </trkpt>
      <trkpt lat="43.23441" lon="6.3978">
        <ele>438.3</ele>
        <time>2019-03-24T08:55:50Z</time>
      </trkpt>
      <trkpt lat="43.23442" lon="6.39767">
        <ele>439</ele>
        <time>2019-03-24T08:55:58Z</time>
      </trkpt>
      <trkpt lat="43.23436" lon="6.39757">
        <ele>439.9</ele>
        <time>2019-03-24T08:56:06Z</time>
      </trkpt>
      <trkpt lat="43.23431" lon="6.39745">
        <ele>440.7</ele>
        <time>2019-03-24T08:56:16Z</time>
      </trkpt>
      <trkpt lat="43.23423" lon="6.3974">
        <ele>441.4</ele>
        <time>2019-03-24T08:56:22Z</time>
      </trkpt>
      <trkpt lat="43.23415" lon="6.39735">
        <ele>442.4</ele>
        <time>2019-03-24T08:56:29Z</time>
      </trkpt>
      <trkpt lat="43.23408" lon="6.39725">
        <ele>443</ele>
        <time>2019-03-24T08:56:41Z</time>
      </trkpt>
      <trkpt lat="43.234" lon="6.3972">
        <ele>443.5</ele>
        <time>2019-03-24T08:56:48Z</time>
      </trkpt>
      <trkpt lat="43.23397" lon="6.39708">
        <ele>445.2</ele>
        <time>2019-03-24T08:58:17Z</time>
      </trkpt>
      <trkpt lat="43.23402" lon="6.39719">
        <ele>444.6</ele>
        <time>2019-03-24T08:59:02Z</time>
      </trkpt>
      <trkpt lat="43.23401" lon="6.39706">
        <ele>447.5</ele>
        <time>2019-03-24T09:01:03Z</time>
      </trkpt>
      <trkpt lat="43.23399" lon="6.39694">
        <ele>448.3</ele>
        <time>2019-03-24T09:01:17Z</time>
      </trkpt>
      <trkpt lat="43.23396" lon="6.39681">
        <ele>449.7</ele>
        <time>2019-03-24T09:01:26Z</time>
      </trkpt>
      <trkpt lat="43.2339" lon="6.39671">
        <ele>450.6</ele>
        <time>2019-03-24T09:01:33Z</time>
      </trkpt>
      <trkpt lat="43.23388" lon="6.39658">
        <ele>451.8</ele>
        <time>2019-03-24T09:01:44Z</time>
      </trkpt>
      <trkpt lat="43.23385" lon="6.39647">
        <ele>452.5</ele>
        <time>2019-03-24T09:01:54Z</time>
      </trkpt>
      <trkpt lat="43.2338" lon="6.39635">
        <ele>453.7</ele>
        <time>2019-03-24T09:02:05Z</time>
      </trkpt>
      <trkpt lat="43.23385" lon="6.39623">
        <ele>455</ele>
        <time>2019-03-24T09:02:18Z</time>
      </trkpt>
      <trkpt lat="43.23379" lon="6.39613">
        <ele>456.1</ele>
        <time>2019-03-24T09:02:29Z</time>
      </trkpt>
      <trkpt lat="43.23374" lon="6.39603">
        <ele>457</ele>
        <time>2019-03-24T09:02:38Z</time>
      </trkpt>
      <trkpt lat="43.23374" lon="6.3959">
        <ele>458.2</ele>
        <time>2019-03-24T09:02:47Z</time>
      </trkpt>
      <trkpt lat="43.23374" lon="6.39578">
        <ele>459.6</ele>
        <time>2019-03-24T09:02:59Z</time>
      </trkpt>
      <trkpt lat="43.2337" lon="6.39566">
        <ele>461.2</ele>
        <time>2019-03-24T09:03:10Z</time>
      </trkpt>
      <trkpt lat="43.23362" lon="6.39559">
        <ele>462.2</ele>
        <time>2019-03-24T09:03:17Z</time>
      </trkpt>
      <trkpt lat="43.23355" lon="6.39548">
        <ele>463.1</ele>
        <time>2019-03-24T09:03:25Z</time>
      </trkpt>
      <trkpt lat="43.23349" lon="6.39538">
        <ele>464.4</ele>
        <time>2019-03-24T09:03:35Z</time>
      </trkpt>
      <trkpt lat="43.23341" lon="6.39529">
        <ele>465.3</ele>
        <time>2019-03-24T09:03:42Z</time>
      </trkpt>
      <trkpt lat="43.23335" lon="6.39519">
        <ele>466.7</ele>
        <time>2019-03-24T09:03:51Z</time>
      </trkpt>
      <trkpt lat="43.23327" lon="6.39514">
        <ele>467.4</ele>
        <time>2019-03-24T09:03:57Z</time>
      </trkpt>
      <trkpt lat="43.23318" lon="6.39508">
        <ele>467.9</ele>
        <time>2019-03-24T09:04:05Z</time>
      </trkpt>
      <trkpt lat="43.23309" lon="6.39504">
        <ele>468.5</ele>
        <time>2019-03-24T09:04:20Z</time>
      </trkpt>
      <trkpt lat="43.23304" lon="6.39494">
        <ele>470.9</ele>
        <time>2019-03-24T09:04:52Z</time>
      </trkpt>
      <trkpt lat="43.23296" lon="6.39485">
        <ele>472</ele>
        <time>2019-03-24T09:05:04Z</time>
      </trkpt>
      <trkpt lat="43.23289" lon="6.39477">
        <ele>473</ele>
        <time>2019-03-24T09:05:18Z</time>
      </trkpt>
      <trkpt lat="43.23282" lon="6.39469">
        <ele>474.9</ele>
        <time>2019-03-24T09:05:59Z</time>
      </trkpt>
      <trkpt lat="43.23276" lon="6.39457">
        <ele>475.8</ele>
        <time>2019-03-24T09:06:11Z</time>
      </trkpt>
      <trkpt lat="43.23269" lon="6.39449">
        <ele>476.6</ele>
        <time>2019-03-24T09:06:18Z</time>
      </trkpt>
      <trkpt lat="43.23261" lon="6.39443">
        <ele>477.9</ele>
        <time>2019-03-24T09:06:27Z</time>
      </trkpt>
      <trkpt lat="43.23252" lon="6.39438">
        <ele>478.7</ele>
        <time>2019-03-24T09:06:34Z</time>
      </trkpt>
      <trkpt lat="43.23243" lon="6.39438">
        <ele>479.7</ele>
        <time>2019-03-24T09:06:44Z</time>
      </trkpt>
      <trkpt lat="43.23232" lon="6.39435">
        <ele>480.7</ele>
        <time>2019-03-24T09:06:54Z</time>
      </trkpt>
      <trkpt lat="43.23224" lon="6.39432">
        <ele>481.3</ele>
        <time>2019-03-24T09:07:00Z</time>
      </trkpt>
      <trkpt lat="43.23225" lon="6.39419">
        <ele>483</ele>
        <time>2019-03-24T09:07:28Z</time>
      </trkpt>
      <trkpt lat="43.23223" lon="6.39407">
        <ele>483.9</ele>
        <time>2019-03-24T09:07:39Z</time>
      </trkpt>
      <trkpt lat="43.23218" lon="6.39397">
        <ele>485.5</ele>
        <time>2019-03-24T09:07:52Z</time>
      </trkpt>
      <trkpt lat="43.2321" lon="6.39389">
        <ele>486.3</ele>
        <time>2019-03-24T09:08:01Z</time>
      </trkpt>
      <trkpt lat="43.23202" lon="6.39381">
        <ele>487</ele>
        <time>2019-03-24T09:08:09Z</time>
      </trkpt>
      <trkpt lat="43.23193" lon="6.39375">
        <ele>487.9</ele>
        <time>2019-03-24T09:08:18Z</time>
      </trkpt>
      <trkpt lat="43.23185" lon="6.39368">
        <ele>488.9</ele>
        <time>2019-03-24T09:08:27Z</time>
      </trkpt>
      <trkpt lat="43.23179" lon="6.39358">
        <ele>489.6</ele>
        <time>2019-03-24T09:08:42Z</time>
      </trkpt>
      <trkpt lat="43.23177" lon="6.39345">
        <ele>490.1</ele>
        <time>2019-03-24T09:08:56Z</time>
      </trkpt>
      <trkpt lat="43.23175" lon="6.39333">
        <ele>490.8</ele>
        <time>2019-03-24T09:09:03Z</time>
      </trkpt>
      <trkpt lat="43.23167" lon="6.39325">
        <ele>492</ele>
        <time>2019-03-24T09:09:15Z</time>
      </trkpt>
      <trkpt lat="43.23157" lon="6.39322">
        <ele>493</ele>
        <time>2019-03-24T09:09:22Z</time>
      </trkpt>
      <trkpt lat="43.23148" lon="6.3932">
        <ele>493.6</ele>
        <time>2019-03-24T09:09:27Z</time>
      </trkpt>
      <trkpt lat="43.2315" lon="6.39307">
        <ele>496.5</ele>
        <time>2019-03-24T09:09:48Z</time>
      </trkpt>
      <trkpt lat="43.23144" lon="6.39297">
        <ele>498.5</ele>
        <time>2019-03-24T09:10:04Z</time>
      </trkpt>
      <trkpt lat="43.2314" lon="6.39285">
        <ele>499.6</ele>
        <time>2019-03-24T09:10:14Z</time>
      </trkpt>
      <trkpt lat="43.23138" lon="6.39273">
        <ele>500.2</ele>
        <time>2019-03-24T09:10:22Z</time>
      </trkpt>
      <trkpt lat="43.23134" lon="6.39259">
        <ele>501.1</ele>
        <time>2019-03-24T09:10:33Z</time>
      </trkpt>
      <trkpt lat="43.23128" lon="6.3925">
        <ele>501.7</ele>
        <time>2019-03-24T09:10:41Z</time>
      </trkpt>
      <trkpt lat="43.2312" lon="6.39243">
        <ele>502.6</ele>
        <time>2019-03-24T09:10:49Z</time>
      </trkpt>
      <trkpt lat="43.23119" lon="6.39231">
        <ele>503.3</ele>
        <time>2019-03-24T09:10:57Z</time>
      </trkpt>
      <trkpt lat="43.23113" lon="6.39221">
        <ele>504.4</ele>
        <time>2019-03-24T09:11:07Z</time>
      </trkpt>
      <trkpt lat="43.23115" lon="6.39207">
        <ele>505.6</ele>
        <time>2019-03-24T09:11:17Z</time>
      </trkpt>
      <trkpt lat="43.23116" lon="6.39195">
        <ele>506.7</ele>
        <time>2019-03-24T09:11:28Z</time>
      </trkpt>
      <trkpt lat="43.23112" lon="6.39184">
        <ele>507.6</ele>
        <time>2019-03-24T09:11:37Z</time>
      </trkpt>
      <trkpt lat="43.23107" lon="6.39173">
        <ele>508.7</ele>
        <time>2019-03-24T09:11:46Z</time>
      </trkpt>
      <trkpt lat="43.231" lon="6.39164">
        <ele>509.7</ele>
        <time>2019-03-24T09:11:54Z</time>
      </trkpt>
      <trkpt lat="43.23091" lon="6.39159">
        <ele>510.7</ele>
        <time>2019-03-24T09:12:01Z</time>
      </trkpt>
      <trkpt lat="43.23083" lon="6.39164">
        <ele>511.6</ele>
        <time>2019-03-24T09:12:16Z</time>
      </trkpt>
      <trkpt lat="43.23089" lon="6.39154">
        <ele>512.4</ele>
        <time>2019-03-24T09:13:24Z</time>
      </trkpt>
      <trkpt lat="43.23091" lon="6.39167">
        <ele>513.3</ele>
        <time>2019-03-24T09:15:44Z</time>
      </trkpt>
      <trkpt lat="43.23088" lon="6.39155">
        <ele>512.9</ele>
        <time>2019-03-24T09:16:37Z</time>
      </trkpt>
      <trkpt lat="43.23085" lon="6.39143">
        <ele>513.1</ele>
        <time>2019-03-24T09:17:03Z</time>
      </trkpt>
      <trkpt lat="43.23094" lon="6.39147">
        <ele>512.8</ele>
        <time>2019-03-24T09:18:06Z</time>
      </trkpt>
      <trkpt lat="43.23087" lon="6.39138">
        <ele>512.5</ele>
        <time>2019-03-24T09:18:20Z</time>
      </trkpt>
      <trkpt lat="43.2308" lon="6.39146">
        <ele>512.5</ele>
        <time>2019-03-24T09:18:32Z</time>
      </trkpt>
      <trkpt lat="43.2307" lon="6.39149">
        <ele>513.5</ele>
        <time>2019-03-24T09:19:15Z</time>
      </trkpt>
      <trkpt lat="43.2306" lon="6.39152">
        <ele>513.5</ele>
        <time>2019-03-24T09:19:23Z</time>
      </trkpt>
      <trkpt lat="43.2305" lon="6.39152">
        <ele>513.8</ele>
        <time>2019-03-24T09:19:31Z</time>
      </trkpt>
      <trkpt lat="43.23041" lon="6.39151">
        <ele>514</ele>
        <time>2019-03-24T09:19:43Z</time>
      </trkpt>
      <trkpt lat="43.23031" lon="6.3915">
        <ele>513.9</ele>
        <time>2019-03-24T09:19:51Z</time>
      </trkpt>
      <trkpt lat="43.23021" lon="6.39152">
        <ele>514.1</ele>
        <time>2019-03-24T09:20:00Z</time>
      </trkpt>
      <trkpt lat="43.23012" lon="6.39151">
        <ele>514.5</ele>
        <time>2019-03-24T09:20:07Z</time>
      </trkpt>
      <trkpt lat="43.23002" lon="6.39149">
        <ele>514.5</ele>
        <time>2019-03-24T09:20:14Z</time>
      </trkpt>
      <trkpt lat="43.22993" lon="6.39148">
        <ele>514.7</ele>
        <time>2019-03-24T09:20:23Z</time>
      </trkpt>
      <trkpt lat="43.22985" lon="6.39143">
        <ele>515.1</ele>
        <time>2019-03-24T09:20:34Z</time>
      </trkpt>
      <trkpt lat="43.22975" lon="6.39141">
        <ele>515.6</ele>
        <time>2019-03-24T09:20:44Z</time>
      </trkpt>
      <trkpt lat="43.22965" lon="6.39137">
        <ele>516.1</ele>
        <time>2019-03-24T09:20:53Z</time>
      </trkpt>
      <trkpt lat="43.22956" lon="6.39136">
        <ele>516.5</ele>
        <time>2019-03-24T09:21:05Z</time>
      </trkpt>
      <trkpt lat="43.22947" lon="6.39133">
        <ele>516.5</ele>
        <time>2019-03-24T09:21:14Z</time>
      </trkpt>
      <trkpt lat="43.22938" lon="6.3913">
        <ele>516.9</ele>
        <time>2019-03-24T09:21:22Z</time>
      </trkpt>
      <trkpt lat="43.22928" lon="6.3913">
        <ele>516.8</ele>
        <time>2019-03-24T09:21:30Z</time>
      </trkpt>
      <trkpt lat="43.22918" lon="6.39127">
        <ele>516.7</ele>
        <time>2019-03-24T09:21:42Z</time>
      </trkpt>
      <trkpt lat="43.22909" lon="6.39124">
        <ele>516.7</ele>
        <time>2019-03-24T09:21:50Z</time>
      </trkpt>
      <trkpt lat="43.22902" lon="6.39115">
        <ele>517.1</ele>
        <time>2019-03-24T09:22:00Z</time>
      </trkpt>
      <trkpt lat="43.22896" lon="6.39104">
        <ele>517.5</ele>
        <time>2019-03-24T09:22:10Z</time>
      </trkpt>
      <trkpt lat="43.22887" lon="6.39101">
        <ele>517.7</ele>
        <time>2019-03-24T09:22:19Z</time>
      </trkpt>
      <trkpt lat="43.22877" lon="6.39097">
        <ele>517.8</ele>
        <time>2019-03-24T09:22:26Z</time>
      </trkpt>
      <trkpt lat="43.2287" lon="6.3909">
        <ele>517.6</ele>
        <time>2019-03-24T09:22:35Z</time>
      </trkpt>
      <trkpt lat="43.22861" lon="6.39085">
        <ele>517.4</ele>
        <time>2019-03-24T09:22:43Z</time>
      </trkpt>
      <trkpt lat="43.22852" lon="6.39083">
        <ele>517.3</ele>
        <time>2019-03-24T09:22:50Z</time>
      </trkpt>
      <trkpt lat="43.22842" lon="6.39086">
        <ele>517.1</ele>
        <time>2019-03-24T09:22:56Z</time>
      </trkpt>
      <trkpt lat="43.22832" lon="6.39087">
        <ele>517</ele>
        <time>2019-03-24T09:23:05Z</time>
      </trkpt>
      <trkpt lat="43.22824" lon="6.39094">
        <ele>516.9</ele>
        <time>2019-03-24T09:23:12Z</time>
      </trkpt>
      <trkpt lat="43.22815" lon="6.39096">
        <ele>517</ele>
        <time>2019-03-24T09:23:22Z</time>
      </trkpt>
      <trkpt lat="43.22806" lon="6.39096">
        <ele>517.3</ele>
        <time>2019-03-24T09:23:31Z</time>
      </trkpt>
      <trkpt lat="43.22795" lon="6.39095">
        <ele>517.4</ele>
        <time>2019-03-24T09:23:40Z</time>
      </trkpt>
      <trkpt lat="43.22786" lon="6.39098">
        <ele>517.4</ele>
        <time>2019-03-24T09:23:49Z</time>
      </trkpt>
      <trkpt lat="43.22777" lon="6.39102">
        <ele>517.2</ele>
        <time>2019-03-24T09:23:57Z</time>
      </trkpt>
      <trkpt lat="43.22768" lon="6.39102">
        <ele>517.1</ele>
        <time>2019-03-24T09:24:04Z</time>
      </trkpt>
      <trkpt lat="43.22759" lon="6.39103">
        <ele>517</ele>
        <time>2019-03-24T09:24:11Z</time>
      </trkpt>
      <trkpt lat="43.22749" lon="6.39103">
        <ele>517</ele>
        <time>2019-03-24T09:24:19Z</time>
      </trkpt>
      <trkpt lat="43.22739" lon="6.39105">
        <ele>517.1</ele>
        <time>2019-03-24T09:24:26Z</time>
      </trkpt>
      <trkpt lat="43.22729" lon="6.39105">
        <ele>517.2</ele>
        <time>2019-03-24T09:24:39Z</time>
      </trkpt>
      <trkpt lat="43.22721" lon="6.391">
        <ele>517.2</ele>
        <time>2019-03-24T09:24:50Z</time>
      </trkpt>
      <trkpt lat="43.22712" lon="6.39098">
        <ele>516.9</ele>
        <time>2019-03-24T09:25:00Z</time>
      </trkpt>
      <trkpt lat="43.22702" lon="6.39097">
        <ele>517.2</ele>
        <time>2019-03-24T09:25:11Z</time>
      </trkpt>
      <trkpt lat="43.22692" lon="6.39091">
        <ele>517.3</ele>
        <time>2019-03-24T09:25:18Z</time>
      </trkpt>
      <trkpt lat="43.22683" lon="6.39084">
        <ele>517.3</ele>
        <time>2019-03-24T09:25:23Z</time>
      </trkpt>
      <trkpt lat="43.22674" lon="6.3908">
        <ele>517.2</ele>
        <time>2019-03-24T09:25:28Z</time>
      </trkpt>
      <trkpt lat="43.22665" lon="6.39075">
        <ele>517.2</ele>
        <time>2019-03-24T09:25:35Z</time>
      </trkpt>
      <trkpt lat="43.22656" lon="6.39076">
        <ele>517.1</ele>
        <time>2019-03-24T09:25:43Z</time>
      </trkpt>
      <trkpt lat="43.22649" lon="6.39086">
        <ele>517.1</ele>
        <time>2019-03-24T09:25:51Z</time>
      </trkpt>
      <trkpt lat="43.22644" lon="6.39097">
        <ele>517.1</ele>
        <time>2019-03-24T09:26:00Z</time>
      </trkpt>
      <trkpt lat="43.22636" lon="6.39105">
        <ele>517.2</ele>
        <time>2019-03-24T09:26:06Z</time>
      </trkpt>
      <trkpt lat="43.22631" lon="6.39116">
        <ele>517.5</ele>
        <time>2019-03-24T09:26:21Z</time>
      </trkpt>
      <trkpt lat="43.22621" lon="6.39114">
        <ele>517.9</ele>
        <time>2019-03-24T09:26:31Z</time>
      </trkpt>
      <trkpt lat="43.22616" lon="6.39102">
        <ele>518.2</ele>
        <time>2019-03-24T09:26:36Z</time>
      </trkpt>
      <trkpt lat="43.22611" lon="6.39092">
        <ele>518.6</ele>
        <time>2019-03-24T09:26:45Z</time>
      </trkpt>
      <trkpt lat="43.22609" lon="6.39078">
        <ele>518.8</ele>
        <time>2019-03-24T09:26:56Z</time>
      </trkpt>
      <trkpt lat="43.2261" lon="6.39066">
        <ele>518.9</ele>
        <time>2019-03-24T09:27:08Z</time>
      </trkpt>
      <trkpt lat="43.22612" lon="6.39053">
        <ele>519</ele>
        <time>2019-03-24T09:27:17Z</time>
      </trkpt>
      <trkpt lat="43.22606" lon="6.39043">
        <ele>519.2</ele>
        <time>2019-03-24T09:27:26Z</time>
      </trkpt>
      <trkpt lat="43.226" lon="6.39032">
        <ele>519.3</ele>
        <time>2019-03-24T09:27:35Z</time>
      </trkpt>
      <trkpt lat="43.22595" lon="6.39021">
        <ele>519.4</ele>
        <time>2019-03-24T09:27:44Z</time>
      </trkpt>
      <trkpt lat="43.22587" lon="6.39012">
        <ele>519.7</ele>
        <time>2019-03-24T09:28:08Z</time>
      </trkpt>
      <trkpt lat="43.22585" lon="6.39">
        <ele>519.8</ele>
        <time>2019-03-24T09:28:18Z</time>
      </trkpt>
      <trkpt lat="43.22578" lon="6.38991">
        <ele>519.9</ele>
        <time>2019-03-24T09:28:26Z</time>
      </trkpt>
      <trkpt lat="43.22571" lon="6.38984">
        <ele>520</ele>
        <time>2019-03-24T09:28:34Z</time>
      </trkpt>
      <trkpt lat="43.22564" lon="6.38974">
        <ele>520.2</ele>
        <time>2019-03-24T09:28:42Z</time>
      </trkpt>
      <trkpt lat="43.22558" lon="6.38965">
        <ele>520.5</ele>
        <time>2019-03-24T09:28:49Z</time>
      </trkpt>
      <trkpt lat="43.2255" lon="6.38957">
        <ele>520.6</ele>
        <time>2019-03-24T09:28:55Z</time>
      </trkpt>
      <trkpt lat="43.22541" lon="6.3895">
        <ele>520.8</ele>
        <time>2019-03-24T09:29:02Z</time>
      </trkpt>
      <trkpt lat="43.22532" lon="6.38945">
        <ele>520.8</ele>
        <time>2019-03-24T09:29:09Z</time>
      </trkpt>
      <trkpt lat="43.22523" lon="6.38946">
        <ele>520.9</ele>
        <time>2019-03-24T09:29:16Z</time>
      </trkpt>
      <trkpt lat="43.22515" lon="6.38938">
        <ele>520.9</ele>
        <time>2019-03-24T09:29:25Z</time>
      </trkpt>
      <trkpt lat="43.22507" lon="6.3893">
        <ele>521.6</ele>
        <time>2019-03-24T09:29:52Z</time>
      </trkpt>
      <trkpt lat="43.22498" lon="6.38928">
        <ele>521.6</ele>
        <time>2019-03-24T09:30:00Z</time>
      </trkpt>
      <trkpt lat="43.2249" lon="6.38924">
        <ele>521.7</ele>
        <time>2019-03-24T09:30:08Z</time>
      </trkpt>
      <trkpt lat="43.22481" lon="6.38918">
        <ele>521.7</ele>
        <time>2019-03-24T09:30:16Z</time>
      </trkpt>
      <trkpt lat="43.22472" lon="6.38913">
        <ele>521.8</ele>
        <time>2019-03-24T09:30:26Z</time>
      </trkpt>
      <trkpt lat="43.22463" lon="6.3891">
        <ele>521.9</ele>
        <time>2019-03-24T09:30:36Z</time>
      </trkpt>
      <trkpt lat="43.22453" lon="6.38909">
        <ele>521.9</ele>
        <time>2019-03-24T09:30:44Z</time>
      </trkpt>
      <trkpt lat="43.22443" lon="6.3891">
        <ele>521.8</ele>
        <time>2019-03-24T09:30:52Z</time>
      </trkpt>
      <trkpt lat="43.22433" lon="6.38908">
        <ele>521.6</ele>
        <time>2019-03-24T09:30:58Z</time>
      </trkpt>
      <trkpt lat="43.22424" lon="6.38911">
        <ele>521.4</ele>
        <time>2019-03-24T09:31:07Z</time>
      </trkpt>
      <trkpt lat="43.22414" lon="6.38914">
        <ele>520.9</ele>
        <time>2019-03-24T09:31:15Z</time>
      </trkpt>
      <trkpt lat="43.22405" lon="6.38919">
        <ele>520.6</ele>
        <time>2019-03-24T09:31:24Z</time>
      </trkpt>
      <trkpt lat="43.22398" lon="6.38928">
        <ele>520.4</ele>
        <time>2019-03-24T09:31:34Z</time>
      </trkpt>
      <trkpt lat="43.22391" lon="6.38936">
        <ele>520.3</ele>
        <time>2019-03-24T09:31:41Z</time>
      </trkpt>
      <trkpt lat="43.22385" lon="6.38947">
        <ele>520.1</ele>
        <time>2019-03-24T09:31:48Z</time>
      </trkpt>
      <trkpt lat="43.22379" lon="6.38957">
        <ele>520.1</ele>
        <time>2019-03-24T09:31:55Z</time>
      </trkpt>
      <trkpt lat="43.22372" lon="6.38966">
        <ele>520</ele>
        <time>2019-03-24T09:32:02Z</time>
      </trkpt>
      <trkpt lat="43.22368" lon="6.38977">
        <ele>520</ele>
        <time>2019-03-24T09:32:10Z</time>
      </trkpt>
      <trkpt lat="43.22363" lon="6.38987">
        <ele>520</ele>
        <time>2019-03-24T09:32:17Z</time>
      </trkpt>
      <trkpt lat="43.22361" lon="6.39">
        <ele>520</ele>
        <time>2019-03-24T09:32:25Z</time>
      </trkpt>
      <trkpt lat="43.22362" lon="6.39014">
        <ele>520.4</ele>
        <time>2019-03-24T09:32:33Z</time>
      </trkpt>
      <trkpt lat="43.2236" lon="6.39026">
        <ele>520.7</ele>
        <time>2019-03-24T09:32:41Z</time>
      </trkpt>
      <trkpt lat="43.2236" lon="6.39039">
        <ele>521.2</ele>
        <time>2019-03-24T09:32:50Z</time>
      </trkpt>
      <trkpt lat="43.2236" lon="6.39051">
        <ele>521.5</ele>
        <time>2019-03-24T09:32:57Z</time>
      </trkpt>
      <trkpt lat="43.22356" lon="6.39063">
        <ele>521.8</ele>
        <time>2019-03-24T09:33:05Z</time>
      </trkpt>
      <trkpt lat="43.22353" lon="6.39076">
        <ele>521.9</ele>
        <time>2019-03-24T09:33:15Z</time>
      </trkpt>
      <trkpt lat="43.22348" lon="6.39087">
        <ele>522</ele>
        <time>2019-03-24T09:33:22Z</time>
      </trkpt>
      <trkpt lat="43.22345" lon="6.39099">
        <ele>522.2</ele>
        <time>2019-03-24T09:33:32Z</time>
      </trkpt>
      <trkpt lat="43.22341" lon="6.39111">
        <ele>522.7</ele>
        <time>2019-03-24T09:33:45Z</time>
      </trkpt>
      <trkpt lat="43.22337" lon="6.39125">
        <ele>523.1</ele>
        <time>2019-03-24T09:33:53Z</time>
      </trkpt>
      <trkpt lat="43.22336" lon="6.39137">
        <ele>523.3</ele>
        <time>2019-03-24T09:34:03Z</time>
      </trkpt>
      <trkpt lat="43.22331" lon="6.3915">
        <ele>523.4</ele>
        <time>2019-03-24T09:34:12Z</time>
      </trkpt>
      <trkpt lat="43.22325" lon="6.3916">
        <ele>523.6</ele>
        <time>2019-03-24T09:34:18Z</time>
      </trkpt>
      <trkpt lat="43.22318" lon="6.39168">
        <ele>524.1</ele>
        <time>2019-03-24T09:34:25Z</time>
      </trkpt>
      <trkpt lat="43.22309" lon="6.39172">
        <ele>524.7</ele>
        <time>2019-03-24T09:34:36Z</time>
      </trkpt>
      <trkpt lat="43.22299" lon="6.39171">
        <ele>525</ele>
        <time>2019-03-24T09:34:45Z</time>
      </trkpt>
      <trkpt lat="43.2229" lon="6.39175">
        <ele>525.3</ele>
        <time>2019-03-24T09:34:54Z</time>
      </trkpt>
      <trkpt lat="43.22284" lon="6.39184">
        <ele>525.5</ele>
        <time>2019-03-24T09:35:05Z</time>
      </trkpt>
      <trkpt lat="43.22275" lon="6.39192">
        <ele>525.5</ele>
        <time>2019-03-24T09:35:14Z</time>
      </trkpt>
      <trkpt lat="43.22268" lon="6.39201">
        <ele>525.5</ele>
        <time>2019-03-24T09:35:22Z</time>
      </trkpt>
      <trkpt lat="43.22262" lon="6.39211">
        <ele>525.4</ele>
        <time>2019-03-24T09:35:29Z</time>
      </trkpt>
      <trkpt lat="43.22252" lon="6.39216">
        <ele>525.7</ele>
        <time>2019-03-24T09:35:38Z</time>
      </trkpt>
      <trkpt lat="43.22243" lon="6.39222">
        <ele>525.9</ele>
        <time>2019-03-24T09:35:46Z</time>
      </trkpt>
      <trkpt lat="43.22234" lon="6.39228">
        <ele>526</ele>
        <time>2019-03-24T09:35:53Z</time>
      </trkpt>
      <trkpt lat="43.22225" lon="6.39232">
        <ele>525.6</ele>
        <time>2019-03-24T09:36:21Z</time>
      </trkpt>
      <trkpt lat="43.22217" lon="6.39236">
        <ele>523.2</ele>
        <time>2019-03-24T09:38:54Z</time>
      </trkpt>
      <trkpt lat="43.22209" lon="6.39243">
        <ele>523.3</ele>
        <time>2019-03-24T09:41:23Z</time>
      </trkpt>
      <trkpt lat="43.222" lon="6.39244">
        <ele>523.7</ele>
        <time>2019-03-24T09:41:36Z</time>
      </trkpt>
      <trkpt lat="43.22191" lon="6.39246">
        <ele>523.8</ele>
        <time>2019-03-24T09:41:45Z</time>
      </trkpt>
      <trkpt lat="43.22181" lon="6.39248">
        <ele>524.3</ele>
        <time>2019-03-24T09:41:56Z</time>
      </trkpt>
      <trkpt lat="43.22172" lon="6.39249">
        <ele>525.3</ele>
        <time>2019-03-24T09:42:08Z</time>
      </trkpt>
      <trkpt lat="43.22162" lon="6.39252">
        <ele>526</ele>
        <time>2019-03-24T09:42:18Z</time>
      </trkpt>
      <trkpt lat="43.22154" lon="6.39255">
        <ele>526.8</ele>
        <time>2019-03-24T09:42:29Z</time>
      </trkpt>
      <trkpt lat="43.22144" lon="6.39256">
        <ele>527.5</ele>
        <time>2019-03-24T09:42:40Z</time>
      </trkpt>
      <trkpt lat="43.22135" lon="6.39256">
        <ele>529.1</ele>
        <time>2019-03-24T09:42:51Z</time>
      </trkpt>
      <trkpt lat="43.22125" lon="6.39255">
        <ele>529.7</ele>
        <time>2019-03-24T09:43:00Z</time>
      </trkpt>
      <trkpt lat="43.22116" lon="6.39256">
        <ele>530.5</ele>
        <time>2019-03-24T09:43:10Z</time>
      </trkpt>
      <trkpt lat="43.22107" lon="6.39255">
        <ele>530.7</ele>
        <time>2019-03-24T09:43:21Z</time>
      </trkpt>
      <trkpt lat="43.22097" lon="6.39251">
        <ele>531.3</ele>
        <time>2019-03-24T09:43:35Z</time>
      </trkpt>
      <trkpt lat="43.22093" lon="6.39239">
        <ele>532.1</ele>
        <time>2019-03-24T09:43:47Z</time>
      </trkpt>
      <trkpt lat="43.22085" lon="6.39232">
        <ele>532.6</ele>
        <time>2019-03-24T09:43:58Z</time>
      </trkpt>
      <trkpt lat="43.22077" lon="6.39226">
        <ele>533</ele>
        <time>2019-03-24T09:44:08Z</time>
      </trkpt>
      <trkpt lat="43.22069" lon="6.3922">
        <ele>533.7</ele>
        <time>2019-03-24T09:44:17Z</time>
      </trkpt>
      <trkpt lat="43.22062" lon="6.39211">
        <ele>534.3</ele>
        <time>2019-03-24T09:44:27Z</time>
      </trkpt>
      <trkpt lat="43.22056" lon="6.39201">
        <ele>534.8</ele>
        <time>2019-03-24T09:44:38Z</time>
      </trkpt>
      <trkpt lat="43.22047" lon="6.39192">
        <ele>535.6</ele>
        <time>2019-03-24T09:44:46Z</time>
      </trkpt>
      <trkpt lat="43.22038" lon="6.39185">
        <ele>535.7</ele>
        <time>2019-03-24T09:44:54Z</time>
      </trkpt>
      <trkpt lat="43.22033" lon="6.39174">
        <ele>535.5</ele>
        <time>2019-03-24T09:45:06Z</time>
      </trkpt>
      <trkpt lat="43.22031" lon="6.39161">
        <ele>535.2</ele>
        <time>2019-03-24T09:45:15Z</time>
      </trkpt>
      <trkpt lat="43.22028" lon="6.3915">
        <ele>534.9</ele>
        <time>2019-03-24T09:45:27Z</time>
      </trkpt>
      <trkpt lat="43.22022" lon="6.39139">
        <ele>533.8</ele>
        <time>2019-03-24T09:45:37Z</time>
      </trkpt>
      <trkpt lat="43.22016" lon="6.3913">
        <ele>532.7</ele>
        <time>2019-03-24T09:45:47Z</time>
      </trkpt>
      <trkpt lat="43.22008" lon="6.39123">
        <ele>531.9</ele>
        <time>2019-03-24T09:45:57Z</time>
      </trkpt>
      <trkpt lat="43.22001" lon="6.39114">
        <ele>531</ele>
        <time>2019-03-24T09:46:08Z</time>
      </trkpt>
      <trkpt lat="43.21994" lon="6.39104">
        <ele>530.7</ele>
        <time>2019-03-24T09:46:18Z</time>
      </trkpt>
      <trkpt lat="43.21989" lon="6.39093">
        <ele>530.3</ele>
        <time>2019-03-24T09:46:30Z</time>
      </trkpt>
      <trkpt lat="43.21981" lon="6.39085">
        <ele>529.9</ele>
        <time>2019-03-24T09:46:38Z</time>
      </trkpt>
      <trkpt lat="43.21975" lon="6.39073">
        <ele>529.8</ele>
        <time>2019-03-24T09:46:47Z</time>
      </trkpt>
      <trkpt lat="43.21968" lon="6.39064">
        <ele>529.8</ele>
        <time>2019-03-24T09:46:56Z</time>
      </trkpt>
      <trkpt lat="43.21961" lon="6.39055">
        <ele>529.7</ele>
        <time>2019-03-24T09:47:06Z</time>
      </trkpt>
      <trkpt lat="43.21952" lon="6.3905">
        <ele>529.3</ele>
        <time>2019-03-24T09:47:16Z</time>
      </trkpt>
      <trkpt lat="43.21944" lon="6.39043">
        <ele>529</ele>
        <time>2019-03-24T09:47:26Z</time>
      </trkpt>
      <trkpt lat="43.21935" lon="6.39037">
        <ele>528</ele>
        <time>2019-03-24T09:47:41Z</time>
      </trkpt>
      <trkpt lat="43.21926" lon="6.39036">
        <ele>526</ele>
        <time>2019-03-24T09:47:54Z</time>
      </trkpt>
      <trkpt lat="43.21917" lon="6.39034">
        <ele>524.5</ele>
        <time>2019-03-24T09:48:05Z</time>
      </trkpt>
      <trkpt lat="43.21908" lon="6.39031">
        <ele>523.9</ele>
        <time>2019-03-24T09:48:12Z</time>
      </trkpt>
      <trkpt lat="43.21898" lon="6.39031">
        <ele>523.1</ele>
        <time>2019-03-24T09:48:27Z</time>
      </trkpt>
      <trkpt lat="43.21891" lon="6.39039">
        <ele>521.7</ele>
        <time>2019-03-24T09:48:41Z</time>
      </trkpt>
      <trkpt lat="43.21882" lon="6.39041">
        <ele>520.3</ele>
        <time>2019-03-24T09:48:53Z</time>
      </trkpt>
      <trkpt lat="43.21877" lon="6.39051">
        <ele>516.6</ele>
        <time>2019-03-24T09:49:40Z</time>
      </trkpt>
      <trkpt lat="43.21867" lon="6.39055">
        <ele>515.4</ele>
        <time>2019-03-24T09:49:57Z</time>
      </trkpt>
      <trkpt lat="43.21862" lon="6.39065">
        <ele>513.3</ele>
        <time>2019-03-24T09:50:14Z</time>
      </trkpt>
      <trkpt lat="43.21855" lon="6.39074">
        <ele>511.5</ele>
        <time>2019-03-24T09:50:37Z</time>
      </trkpt>
      <trkpt lat="43.21849" lon="6.39084">
        <ele>509.5</ele>
        <time>2019-03-24T09:50:54Z</time>
      </trkpt>
      <trkpt lat="43.21849" lon="6.39097">
        <ele>507</ele>
        <time>2019-03-24T09:51:58Z</time>
      </trkpt>
      <trkpt lat="43.21842" lon="6.39104">
        <ele>504.8</ele>
        <time>2019-03-24T09:52:15Z</time>
      </trkpt>
      <trkpt lat="43.21836" lon="6.39114">
        <ele>501.6</ele>
        <time>2019-03-24T09:52:37Z</time>
      </trkpt>
      <trkpt lat="43.2183" lon="6.39124">
        <ele>498.7</ele>
        <time>2019-03-24T09:52:53Z</time>
      </trkpt>
      <trkpt lat="43.21821" lon="6.39129">
        <ele>496.2</ele>
        <time>2019-03-24T09:53:06Z</time>
      </trkpt>
      <trkpt lat="43.21813" lon="6.39135">
        <ele>494.3</ele>
        <time>2019-03-24T09:53:18Z</time>
      </trkpt>
      <trkpt lat="43.21804" lon="6.39138">
        <ele>492.3</ele>
        <time>2019-03-24T09:53:28Z</time>
      </trkpt>
      <trkpt lat="43.21796" lon="6.3914">
        <ele>489.9</ele>
        <time>2019-03-24T09:53:47Z</time>
      </trkpt>
      <trkpt lat="43.21786" lon="6.39138">
        <ele>489.2</ele>
        <time>2019-03-24T09:53:56Z</time>
      </trkpt>
      <trkpt lat="43.21778" lon="6.39133">
        <ele>486.8</ele>
        <time>2019-03-24T09:54:39Z</time>
      </trkpt>
      <trkpt lat="43.21769" lon="6.39127">
        <ele>485.9</ele>
        <time>2019-03-24T09:54:50Z</time>
      </trkpt>
      <trkpt lat="43.21764" lon="6.39117">
        <ele>484.9</ele>
        <time>2019-03-24T09:55:10Z</time>
      </trkpt>
      <trkpt lat="43.21759" lon="6.39106">
        <ele>484.8</ele>
        <time>2019-03-24T09:55:20Z</time>
      </trkpt>
      <trkpt lat="43.21752" lon="6.39097">
        <ele>483.1</ele>
        <time>2019-03-24T09:55:36Z</time>
      </trkpt>
      <trkpt lat="43.21746" lon="6.39086">
        <ele>482.1</ele>
        <time>2019-03-24T09:55:45Z</time>
      </trkpt>
      <trkpt lat="43.21736" lon="6.39085">
        <ele>481.2</ele>
        <time>2019-03-24T09:55:56Z</time>
      </trkpt>
      <trkpt lat="43.21727" lon="6.3908">
        <ele>480.1</ele>
        <time>2019-03-24T09:56:10Z</time>
      </trkpt>
      <trkpt lat="43.21718" lon="6.39078">
        <ele>479</ele>
        <time>2019-03-24T09:56:18Z</time>
      </trkpt>
      <trkpt lat="43.21709" lon="6.39072">
        <ele>477.9</ele>
        <time>2019-03-24T09:56:28Z</time>
      </trkpt>
      <trkpt lat="43.21703" lon="6.39062">
        <ele>474.7</ele>
        <time>2019-03-24T09:56:47Z</time>
      </trkpt>
      <trkpt lat="43.21694" lon="6.39059">
        <ele>472.6</ele>
        <time>2019-03-24T09:57:03Z</time>
      </trkpt>
      <trkpt lat="43.21686" lon="6.39053">
        <ele>470.1</ele>
        <time>2019-03-24T09:57:21Z</time>
      </trkpt>
      <trkpt lat="43.21677" lon="6.39052">
        <ele>468</ele>
        <time>2019-03-24T09:57:38Z</time>
      </trkpt>
      <trkpt lat="43.21667" lon="6.39052">
        <ele>465.3</ele>
        <time>2019-03-24T09:57:55Z</time>
      </trkpt>
      <trkpt lat="43.21658" lon="6.39051">
        <ele>461.4</ele>
        <time>2019-03-24T09:58:33Z</time>
      </trkpt>
      <trkpt lat="43.21649" lon="6.3905">
        <ele>459.7</ele>
        <time>2019-03-24T09:58:51Z</time>
      </trkpt>
      <trkpt lat="43.2164" lon="6.39054">
        <ele>457.4</ele>
        <time>2019-03-24T09:59:37Z</time>
      </trkpt>
      <trkpt lat="43.2163" lon="6.39053">
        <ele>456.3</ele>
        <time>2019-03-24T09:59:44Z</time>
      </trkpt>
      <trkpt lat="43.21621" lon="6.39051">
        <ele>455.1</ele>
        <time>2019-03-24T09:59:53Z</time>
      </trkpt>
      <trkpt lat="43.21612" lon="6.39049">
        <ele>453.8</ele>
        <time>2019-03-24T10:00:03Z</time>
      </trkpt>
      <trkpt lat="43.21603" lon="6.39048">
        <ele>451.8</ele>
        <time>2019-03-24T10:00:14Z</time>
      </trkpt>
      <trkpt lat="43.21593" lon="6.39048">
        <ele>449.7</ele>
        <time>2019-03-24T10:00:28Z</time>
      </trkpt>
      <trkpt lat="43.21583" lon="6.3905">
        <ele>448</ele>
        <time>2019-03-24T10:00:38Z</time>
      </trkpt>
      <trkpt lat="43.21574" lon="6.39049">
        <ele>445.7</ele>
        <time>2019-03-24T10:00:51Z</time>
      </trkpt>
      <trkpt lat="43.21565" lon="6.39049">
        <ele>442.7</ele>
        <time>2019-03-24T10:01:05Z</time>
      </trkpt>
      <trkpt lat="43.21556" lon="6.39052">
        <ele>440.3</ele>
        <time>2019-03-24T10:01:16Z</time>
      </trkpt>
      <trkpt lat="43.21548" lon="6.39059">
        <ele>438.3</ele>
        <time>2019-03-24T10:01:26Z</time>
      </trkpt>
      <trkpt lat="43.21541" lon="6.39067">
        <ele>436.3</ele>
        <time>2019-03-24T10:01:36Z</time>
      </trkpt>
      <trkpt lat="43.21536" lon="6.39078">
        <ele>434.3</ele>
        <time>2019-03-24T10:01:48Z</time>
      </trkpt>
      <trkpt lat="43.21528" lon="6.39085">
        <ele>432.8</ele>
        <time>2019-03-24T10:02:00Z</time>
      </trkpt>
      <trkpt lat="43.21521" lon="6.39095">
        <ele>431.6</ele>
        <time>2019-03-24T10:02:09Z</time>
      </trkpt>
      <trkpt lat="43.21514" lon="6.39104">
        <ele>429.8</ele>
        <time>2019-03-24T10:02:20Z</time>
      </trkpt>
      <trkpt lat="43.21505" lon="6.3911">
        <ele>428.5</ele>
        <time>2019-03-24T10:02:29Z</time>
      </trkpt>
      <trkpt lat="43.21497" lon="6.39116">
        <ele>427</ele>
        <time>2019-03-24T10:02:38Z</time>
      </trkpt>
      <trkpt lat="43.21488" lon="6.39118">
        <ele>425.3</ele>
        <time>2019-03-24T10:02:57Z</time>
      </trkpt>
      <trkpt lat="43.21478" lon="6.39118">
        <ele>424.1</ele>
        <time>2019-03-24T10:03:08Z</time>
      </trkpt>
      <trkpt lat="43.21468" lon="6.39118">
        <ele>423.5</ele>
        <time>2019-03-24T10:03:15Z</time>
      </trkpt>
      <trkpt lat="43.21459" lon="6.39115">
        <ele>422.7</ele>
        <time>2019-03-24T10:03:24Z</time>
      </trkpt>
      <trkpt lat="43.2145" lon="6.39112">
        <ele>421.3</ele>
        <time>2019-03-24T10:03:33Z</time>
      </trkpt>
      <trkpt lat="43.21441" lon="6.39105">
        <ele>419.4</ele>
        <time>2019-03-24T10:03:43Z</time>
      </trkpt>
      <trkpt lat="43.21433" lon="6.39098">
        <ele>417.8</ele>
        <time>2019-03-24T10:03:53Z</time>
      </trkpt>
      <trkpt lat="43.21425" lon="6.3909">
        <ele>415.4</ele>
        <time>2019-03-24T10:04:07Z</time>
      </trkpt>
      <trkpt lat="43.21418" lon="6.3908">
        <ele>413.1</ele>
        <time>2019-03-24T10:04:18Z</time>
      </trkpt>
      <trkpt lat="43.21411" lon="6.3907">
        <ele>411.2</ele>
        <time>2019-03-24T10:04:28Z</time>
      </trkpt>
      <trkpt lat="43.21411" lon="6.39057">
        <ele>409</ele>
        <time>2019-03-24T10:04:39Z</time>
      </trkpt>
      <trkpt lat="43.21403" lon="6.39049">
        <ele>407.2</ele>
        <time>2019-03-24T10:04:48Z</time>
      </trkpt>
      <trkpt lat="43.21398" lon="6.39039">
        <ele>405.3</ele>
        <time>2019-03-24T10:04:59Z</time>
      </trkpt>
      <trkpt lat="43.21391" lon="6.3903">
        <ele>403.9</ele>
        <time>2019-03-24T10:05:08Z</time>
      </trkpt>
      <trkpt lat="43.21382" lon="6.3902">
        <ele>402.2</ele>
        <time>2019-03-24T10:05:18Z</time>
      </trkpt>
      <trkpt lat="43.2138" lon="6.39007">
        <ele>400.8</ele>
        <time>2019-03-24T10:05:28Z</time>
      </trkpt>
      <trkpt lat="43.21374" lon="6.38997">
        <ele>399.2</ele>
        <time>2019-03-24T10:05:38Z</time>
      </trkpt>
      <trkpt lat="43.21372" lon="6.38985">
        <ele>398.2</ele>
        <time>2019-03-24T10:05:47Z</time>
      </trkpt>
      <trkpt lat="43.21365" lon="6.38973">
        <ele>396.6</ele>
        <time>2019-03-24T10:05:59Z</time>
      </trkpt>
      <trkpt lat="43.21358" lon="6.38964">
        <ele>395.2</ele>
        <time>2019-03-24T10:06:08Z</time>
      </trkpt>
      <trkpt lat="43.21353" lon="6.38952">
        <ele>393.6</ele>
        <time>2019-03-24T10:06:21Z</time>
      </trkpt>
      <trkpt lat="43.21349" lon="6.3894">
        <ele>391.8</ele>
        <time>2019-03-24T10:06:33Z</time>
      </trkpt>
      <trkpt lat="43.21342" lon="6.38932">
        <ele>390.5</ele>
        <time>2019-03-24T10:06:42Z</time>
      </trkpt>
      <trkpt lat="43.21334" lon="6.38923">
        <ele>389</ele>
        <time>2019-03-24T10:06:50Z</time>
      </trkpt>
      <trkpt lat="43.21331" lon="6.38912">
        <ele>387.8</ele>
        <time>2019-03-24T10:06:59Z</time>
      </trkpt>
      <trkpt lat="43.21327" lon="6.389">
        <ele>386.4</ele>
        <time>2019-03-24T10:07:10Z</time>
      </trkpt>
      <trkpt lat="43.21326" lon="6.38888">
        <ele>385.1</ele>
        <time>2019-03-24T10:07:19Z</time>
      </trkpt>
      <trkpt lat="43.2132" lon="6.38878">
        <ele>383.9</ele>
        <time>2019-03-24T10:07:28Z</time>
      </trkpt>
      <trkpt lat="43.21317" lon="6.38865">
        <ele>383</ele>
        <time>2019-03-24T10:07:35Z</time>
      </trkpt>
      <trkpt lat="43.21316" lon="6.38851">
        <ele>381.6</ele>
        <time>2019-03-24T10:07:45Z</time>
      </trkpt>
      <trkpt lat="43.2131" lon="6.38841">
        <ele>380.5</ele>
        <time>2019-03-24T10:07:54Z</time>
      </trkpt>
      <trkpt lat="43.21304" lon="6.38829">
        <ele>379</ele>
        <time>2019-03-24T10:08:08Z</time>
      </trkpt>
      <trkpt lat="43.21301" lon="6.38817">
        <ele>377.7</ele>
        <time>2019-03-24T10:08:21Z</time>
      </trkpt>
      <trkpt lat="43.21295" lon="6.38807">
        <ele>376.1</ele>
        <time>2019-03-24T10:08:31Z</time>
      </trkpt>
      <trkpt lat="43.2129" lon="6.38796">
        <ele>374.6</ele>
        <time>2019-03-24T10:08:41Z</time>
      </trkpt>
      <trkpt lat="43.21286" lon="6.38785">
        <ele>373.1</ele>
        <time>2019-03-24T10:08:52Z</time>
      </trkpt>
      <trkpt lat="43.21279" lon="6.38773">
        <ele>371.6</ele>
        <time>2019-03-24T10:09:01Z</time>
      </trkpt>
      <trkpt lat="43.21278" lon="6.38761">
        <ele>369.8</ele>
        <time>2019-03-24T10:09:12Z</time>
      </trkpt>
      <trkpt lat="43.21276" lon="6.38748">
        <ele>368</ele>
        <time>2019-03-24T10:09:22Z</time>
      </trkpt>
      <trkpt lat="43.21272" lon="6.38737">
        <ele>366.6</ele>
        <time>2019-03-24T10:09:31Z</time>
      </trkpt>
      <trkpt lat="43.21274" lon="6.38725">
        <ele>364.9</ele>
        <time>2019-03-24T10:09:40Z</time>
      </trkpt>
      <trkpt lat="43.21278" lon="6.38713">
        <ele>363.2</ele>
        <time>2019-03-24T10:09:51Z</time>
      </trkpt>
      <trkpt lat="43.21274" lon="6.387">
        <ele>362.3</ele>
        <time>2019-03-24T10:09:59Z</time>
      </trkpt>
      <trkpt lat="43.21275" lon="6.38687">
        <ele>361.9</ele>
        <time>2019-03-24T10:10:10Z</time>
      </trkpt>
      <trkpt lat="43.21279" lon="6.38675">
        <ele>362</ele>
        <time>2019-03-24T10:10:22Z</time>
      </trkpt>
      <trkpt lat="43.21287" lon="6.3867">
        <ele>362.5</ele>
        <time>2019-03-24T10:10:29Z</time>
      </trkpt>
      <trkpt lat="43.21285" lon="6.38657">
        <ele>361.8</ele>
        <time>2019-03-24T10:11:21Z</time>
      </trkpt>
      <trkpt lat="43.21288" lon="6.38645">
        <ele>360.4</ele>
        <time>2019-03-24T10:11:33Z</time>
      </trkpt>
      <trkpt lat="43.2129" lon="6.38633">
        <ele>358.8</ele>
        <time>2019-03-24T10:11:48Z</time>
      </trkpt>
      <trkpt lat="43.21297" lon="6.38623">
        <ele>358.2</ele>
        <time>2019-03-24T10:12:01Z</time>
      </trkpt>
      <trkpt lat="43.21293" lon="6.3861">
        <ele>357.3</ele>
        <time>2019-03-24T10:12:10Z</time>
      </trkpt>
      <trkpt lat="43.21299" lon="6.38599">
        <ele>357.1</ele>
        <time>2019-03-24T10:12:18Z</time>
      </trkpt>
      <trkpt lat="43.213" lon="6.38585">
        <ele>356.6</ele>
        <time>2019-03-24T10:12:28Z</time>
      </trkpt>
      <trkpt lat="43.21296" lon="6.38574">
        <ele>355.5</ele>
        <time>2019-03-24T10:12:40Z</time>
      </trkpt>
      <trkpt lat="43.21295" lon="6.38561">
        <ele>353.6</ele>
        <time>2019-03-24T10:12:51Z</time>
      </trkpt>
      <trkpt lat="43.2129" lon="6.38548">
        <ele>352.1</ele>
        <time>2019-03-24T10:13:01Z</time>
      </trkpt>
      <trkpt lat="43.21285" lon="6.38537">
        <ele>351.2</ele>
        <time>2019-03-24T10:13:10Z</time>
      </trkpt>
      <trkpt lat="43.21279" lon="6.38525">
        <ele>350.1</ele>
        <time>2019-03-24T10:13:19Z</time>
      </trkpt>
      <trkpt lat="43.21274" lon="6.38513">
        <ele>348.2</ele>
        <time>2019-03-24T10:13:30Z</time>
      </trkpt>
      <trkpt lat="43.21267" lon="6.38503">
        <ele>347</ele>
        <time>2019-03-24T10:13:38Z</time>
      </trkpt>
      <trkpt lat="43.21263" lon="6.38491">
        <ele>345.3</ele>
        <time>2019-03-24T10:13:48Z</time>
      </trkpt>
      <trkpt lat="43.21259" lon="6.38479">
        <ele>343.7</ele>
        <time>2019-03-24T10:13:59Z</time>
      </trkpt>
      <trkpt lat="43.21253" lon="6.38469">
        <ele>341.9</ele>
        <time>2019-03-24T10:14:10Z</time>
      </trkpt>
      <trkpt lat="43.21248" lon="6.38459">
        <ele>340.3</ele>
        <time>2019-03-24T10:14:22Z</time>
      </trkpt>
      <trkpt lat="43.21238" lon="6.38456">
        <ele>338.8</ele>
        <time>2019-03-24T10:14:29Z</time>
      </trkpt>
      <trkpt lat="43.21229" lon="6.38452">
        <ele>336.3</ele>
        <time>2019-03-24T10:14:43Z</time>
      </trkpt>
      <trkpt lat="43.21221" lon="6.38444">
        <ele>334.4</ele>
        <time>2019-03-24T10:14:54Z</time>
      </trkpt>
      <trkpt lat="43.21219" lon="6.38432">
        <ele>331.6</ele>
        <time>2019-03-24T10:15:10Z</time>
      </trkpt>
      <trkpt lat="43.2122" lon="6.38419">
        <ele>329.3</ele>
        <time>2019-03-24T10:15:28Z</time>
      </trkpt>
      <trkpt lat="43.21212" lon="6.38409">
        <ele>328.2</ele>
        <time>2019-03-24T10:15:39Z</time>
      </trkpt>
      <trkpt lat="43.21204" lon="6.38403">
        <ele>328</ele>
        <time>2019-03-24T10:15:48Z</time>
      </trkpt>
      <trkpt lat="43.21199" lon="6.38393">
        <ele>328.3</ele>
        <time>2019-03-24T10:16:01Z</time>
      </trkpt>
      <trkpt lat="43.21189" lon="6.38387">
        <ele>328.5</ele>
        <time>2019-03-24T10:16:08Z</time>
      </trkpt>
      <trkpt lat="43.2118" lon="6.38382">
        <ele>328.6</ele>
        <time>2019-03-24T10:16:16Z</time>
      </trkpt>
      <trkpt lat="43.21172" lon="6.38377">
        <ele>328.4</ele>
        <time>2019-03-24T10:16:26Z</time>
      </trkpt>
      <trkpt lat="43.21163" lon="6.38371">
        <ele>327.7</ele>
        <time>2019-03-24T10:16:35Z</time>
      </trkpt>
      <trkpt lat="43.21156" lon="6.38364">
        <ele>326.3</ele>
        <time>2019-03-24T10:16:49Z</time>
      </trkpt>
      <trkpt lat="43.21147" lon="6.38359">
        <ele>325.3</ele>
        <time>2019-03-24T10:17:03Z</time>
      </trkpt>
      <trkpt lat="43.21138" lon="6.38356">
        <ele>324.9</ele>
        <time>2019-03-24T10:17:10Z</time>
      </trkpt>
      <trkpt lat="43.21126" lon="6.38357">
        <ele>324.3</ele>
        <time>2019-03-24T10:17:17Z</time>
      </trkpt>
      <trkpt lat="43.21116" lon="6.3836">
        <ele>324.2</ele>
        <time>2019-03-24T10:17:25Z</time>
      </trkpt>
      <trkpt lat="43.21107" lon="6.3836">
        <ele>324</ele>
        <time>2019-03-24T10:17:32Z</time>
      </trkpt>
      <trkpt lat="43.21098" lon="6.3836">
        <ele>323.3</ele>
        <time>2019-03-24T10:17:46Z</time>
      </trkpt>
      <trkpt lat="43.21089" lon="6.38353">
        <ele>322.7</ele>
        <time>2019-03-24T10:17:56Z</time>
      </trkpt>
      <trkpt lat="43.2108" lon="6.38349">
        <ele>321.9</ele>
        <time>2019-03-24T10:18:07Z</time>
      </trkpt>
      <trkpt lat="43.2107" lon="6.38349">
        <ele>321.1</ele>
        <time>2019-03-24T10:18:17Z</time>
      </trkpt>
      <trkpt lat="43.2106" lon="6.38347">
        <ele>319.8</ele>
        <time>2019-03-24T10:18:27Z</time>
      </trkpt>
      <trkpt lat="43.21051" lon="6.38346">
        <ele>318.9</ele>
        <time>2019-03-24T10:18:35Z</time>
      </trkpt>
      <trkpt lat="43.21042" lon="6.38344">
        <ele>317.9</ele>
        <time>2019-03-24T10:18:43Z</time>
      </trkpt>
      <trkpt lat="43.21032" lon="6.38344">
        <ele>317.1</ele>
        <time>2019-03-24T10:18:51Z</time>
      </trkpt>
      <trkpt lat="43.21023" lon="6.38342">
        <ele>316.5</ele>
        <time>2019-03-24T10:18:58Z</time>
      </trkpt>
      <trkpt lat="43.2103" lon="6.38332">
        <ele>310.8</ele>
        <time>2019-03-24T10:27:06Z</time>
      </trkpt>
      <trkpt lat="43.21037" lon="6.38322">
        <ele>310.5</ele>
        <time>2019-03-24T10:27:18Z</time>
      </trkpt>
      <trkpt lat="43.21044" lon="6.38314">
        <ele>309.2</ele>
        <time>2019-03-24T10:27:29Z</time>
      </trkpt>
      <trkpt lat="43.21049" lon="6.38304">
        <ele>308.2</ele>
        <time>2019-03-24T10:27:39Z</time>
      </trkpt>
      <trkpt lat="43.21053" lon="6.38292">
        <ele>307.5</ele>
        <time>2019-03-24T10:27:49Z</time>
      </trkpt>
      <trkpt lat="43.2106" lon="6.38284">
        <ele>306.8</ele>
        <time>2019-03-24T10:28:02Z</time>
      </trkpt>
      <trkpt lat="43.21061" lon="6.38271">
        <ele>306.6</ele>
        <time>2019-03-24T10:28:12Z</time>
      </trkpt>
      <trkpt lat="43.21056" lon="6.3826">
        <ele>306.9</ele>
        <time>2019-03-24T10:28:22Z</time>
      </trkpt>
      <trkpt lat="43.21049" lon="6.3825">
        <ele>307.8</ele>
        <time>2019-03-24T10:28:33Z</time>
      </trkpt>
      <trkpt lat="43.21045" lon="6.38238">
        <ele>308.7</ele>
        <time>2019-03-24T10:28:42Z</time>
      </trkpt>
      <trkpt lat="43.21041" lon="6.38227">
        <ele>310.5</ele>
        <time>2019-03-24T10:28:54Z</time>
      </trkpt>
      <trkpt lat="43.21039" lon="6.38213">
        <ele>311</ele>
        <time>2019-03-24T10:29:05Z</time>
      </trkpt>
      <trkpt lat="43.21039" lon="6.382">
        <ele>311.4</ele>
        <time>2019-03-24T10:29:15Z</time>
      </trkpt>
      <trkpt lat="43.21034" lon="6.38189">
        <ele>311.3</ele>
        <time>2019-03-24T10:29:24Z</time>
      </trkpt>
      <trkpt lat="43.21034" lon="6.38176">
        <ele>311.2</ele>
        <time>2019-03-24T10:29:33Z</time>
      </trkpt>
      <trkpt lat="43.21034" lon="6.38163">
        <ele>311.2</ele>
        <time>2019-03-24T10:29:41Z</time>
      </trkpt>
      <trkpt lat="43.21035" lon="6.3815">
        <ele>311.3</ele>
        <time>2019-03-24T10:29:50Z</time>
      </trkpt>
      <trkpt lat="43.21035" lon="6.38137">
        <ele>311.2</ele>
        <time>2019-03-24T10:29:57Z</time>
      </trkpt>
      <trkpt lat="43.21038" lon="6.38124">
        <ele>310.7</ele>
        <time>2019-03-24T10:30:06Z</time>
      </trkpt>
      <trkpt lat="43.21042" lon="6.38112">
        <ele>310.1</ele>
        <time>2019-03-24T10:30:14Z</time>
      </trkpt>
      <trkpt lat="43.21039" lon="6.38099">
        <ele>309.4</ele>
        <time>2019-03-24T10:30:22Z</time>
      </trkpt>
      <trkpt lat="43.21042" lon="6.38087">
        <ele>308.6</ele>
        <time>2019-03-24T10:30:30Z</time>
      </trkpt>
      <trkpt lat="43.21039" lon="6.38075">
        <ele>307.9</ele>
        <time>2019-03-24T10:30:36Z</time>
      </trkpt>
      <trkpt lat="43.21037" lon="6.38062">
        <ele>306.8</ele>
        <time>2019-03-24T10:30:45Z</time>
      </trkpt>
      <trkpt lat="43.21032" lon="6.38052">
        <ele>306</ele>
        <time>2019-03-24T10:31:03Z</time>
      </trkpt>
      <trkpt lat="43.21025" lon="6.38042">
        <ele>305.6</ele>
        <time>2019-03-24T10:31:17Z</time>
      </trkpt>
      <trkpt lat="43.21018" lon="6.38034">
        <ele>305.5</ele>
        <time>2019-03-24T10:31:25Z</time>
      </trkpt>
      <trkpt lat="43.21011" lon="6.38025">
        <ele>305.2</ele>
        <time>2019-03-24T10:31:33Z</time>
      </trkpt>
      <trkpt lat="43.21004" lon="6.38016">
        <ele>304.8</ele>
        <time>2019-03-24T10:31:41Z</time>
      </trkpt>
      <trkpt lat="43.20997" lon="6.38008">
        <ele>304.5</ele>
        <time>2019-03-24T10:31:46Z</time>
      </trkpt>
      <trkpt lat="43.2099" lon="6.37997">
        <ele>304.3</ele>
        <time>2019-03-24T10:31:54Z</time>
      </trkpt>
      <trkpt lat="43.2099" lon="6.37985">
        <ele>303.8</ele>
        <time>2019-03-24T10:32:03Z</time>
      </trkpt>
      <trkpt lat="43.20987" lon="6.37971">
        <ele>303.5</ele>
        <time>2019-03-24T10:32:11Z</time>
      </trkpt>
      <trkpt lat="43.20987" lon="6.37959">
        <ele>303.5</ele>
        <time>2019-03-24T10:32:19Z</time>
      </trkpt>
      <trkpt lat="43.20983" lon="6.37947">
        <ele>303.5</ele>
        <time>2019-03-24T10:32:25Z</time>
      </trkpt>
      <trkpt lat="43.20979" lon="6.37935">
        <ele>302.9</ele>
        <time>2019-03-24T10:32:36Z</time>
      </trkpt>
      <trkpt lat="43.20973" lon="6.37924">
        <ele>302.5</ele>
        <time>2019-03-24T10:32:42Z</time>
      </trkpt>
      <trkpt lat="43.20971" lon="6.37912">
        <ele>302</ele>
        <time>2019-03-24T10:32:50Z</time>
      </trkpt>
      <trkpt lat="43.20971" lon="6.37899">
        <ele>301.4</ele>
        <time>2019-03-24T10:32:59Z</time>
      </trkpt>
      <trkpt lat="43.20968" lon="6.37886">
        <ele>300.9</ele>
        <time>2019-03-24T10:33:09Z</time>
      </trkpt>
      <trkpt lat="43.2097" lon="6.37873">
        <ele>300.5</ele>
        <time>2019-03-24T10:33:19Z</time>
      </trkpt>
      <trkpt lat="43.20967" lon="6.37861">
        <ele>299.6</ele>
        <time>2019-03-24T10:33:29Z</time>
      </trkpt>
      <trkpt lat="43.20963" lon="6.3785">
        <ele>298.6</ele>
        <time>2019-03-24T10:33:38Z</time>
      </trkpt>
      <trkpt lat="43.2096" lon="6.37838">
        <ele>297.6</ele>
        <time>2019-03-24T10:33:47Z</time>
      </trkpt>
      <trkpt lat="43.2096" lon="6.37826">
        <ele>296.9</ele>
        <time>2019-03-24T10:33:55Z</time>
      </trkpt>
      <trkpt lat="43.20957" lon="6.37813">
        <ele>295.3</ele>
        <time>2019-03-24T10:34:42Z</time>
      </trkpt>
      <trkpt lat="43.20963" lon="6.37804">
        <ele>295.3</ele>
        <time>2019-03-24T10:34:51Z</time>
      </trkpt>
      <trkpt lat="43.20969" lon="6.37794">
        <ele>296.2</ele>
        <time>2019-03-24T10:35:31Z</time>
      </trkpt>
      <trkpt lat="43.20965" lon="6.37782">
        <ele>295.9</ele>
        <time>2019-03-24T10:36:00Z</time>
      </trkpt>
      <trkpt lat="43.20963" lon="6.37795">
        <ele>294.6</ele>
        <time>2019-03-24T10:37:21Z</time>
      </trkpt>
      <trkpt lat="43.20957" lon="6.37806">
        <ele>295.1</ele>
        <time>2019-03-24T10:37:31Z</time>
      </trkpt>
      <trkpt lat="43.20954" lon="6.37818">
        <ele>295.2</ele>
        <time>2019-03-24T10:37:45Z</time>
      </trkpt>
      <trkpt lat="43.20954" lon="6.3783">
        <ele>296.3</ele>
        <time>2019-03-24T10:39:19Z</time>
      </trkpt>
      <trkpt lat="43.20947" lon="6.37822">
        <ele>295.1</ele>
        <time>2019-03-24T10:39:50Z</time>
      </trkpt>
      <trkpt lat="43.20938" lon="6.37819">
        <ele>292.4</ele>
        <time>2019-03-24T10:40:13Z</time>
      </trkpt>
      <trkpt lat="43.20928" lon="6.37821">
        <ele>291.8</ele>
        <time>2019-03-24T10:40:21Z</time>
      </trkpt>
      <trkpt lat="43.20919" lon="6.37825">
        <ele>290.7</ele>
        <time>2019-03-24T10:40:40Z</time>
      </trkpt>
      <trkpt lat="43.2091" lon="6.37825">
        <ele>288.8</ele>
        <time>2019-03-24T10:40:54Z</time>
      </trkpt>
      <trkpt lat="43.20903" lon="6.37833">
        <ele>287.5</ele>
        <time>2019-03-24T10:41:06Z</time>
      </trkpt>
      <trkpt lat="43.20896" lon="6.37844">
        <ele>286.5</ele>
        <time>2019-03-24T10:41:17Z</time>
      </trkpt>
      <trkpt lat="43.20889" lon="6.37853">
        <ele>285.7</ele>
        <time>2019-03-24T10:41:25Z</time>
      </trkpt>
      <trkpt lat="43.20882" lon="6.37863">
        <ele>285.1</ele>
        <time>2019-03-24T10:41:33Z</time>
      </trkpt>
      <trkpt lat="43.20876" lon="6.37872">
        <ele>284.5</ele>
        <time>2019-03-24T10:41:40Z</time>
      </trkpt>
      <trkpt lat="43.20867" lon="6.37877">
        <ele>283.9</ele>
        <time>2019-03-24T10:41:51Z</time>
      </trkpt>
      <trkpt lat="43.20858" lon="6.37882">
        <ele>283.2</ele>
        <time>2019-03-24T10:42:02Z</time>
      </trkpt>
      <trkpt lat="43.20849" lon="6.3789">
        <ele>282.1</ele>
        <time>2019-03-24T10:42:16Z</time>
      </trkpt>
      <trkpt lat="43.20839" lon="6.37896">
        <ele>281</ele>
        <time>2019-03-24T10:42:28Z</time>
      </trkpt>
      <trkpt lat="43.20831" lon="6.379">
        <ele>280.1</ele>
        <time>2019-03-24T10:42:38Z</time>
      </trkpt>
      <trkpt lat="43.20821" lon="6.37903">
        <ele>279.6</ele>
        <time>2019-03-24T10:42:44Z</time>
      </trkpt>
      <trkpt lat="43.20812" lon="6.37905">
        <ele>278.5</ele>
        <time>2019-03-24T10:42:57Z</time>
      </trkpt>
      <trkpt lat="43.20803" lon="6.37909">
        <ele>277.3</ele>
        <time>2019-03-24T10:43:08Z</time>
      </trkpt>
      <trkpt lat="43.20795" lon="6.37914">
        <ele>277</ele>
        <time>2019-03-24T10:43:14Z</time>
      </trkpt>
      <trkpt lat="43.20785" lon="6.37919">
        <ele>276.7</ele>
        <time>2019-03-24T10:43:22Z</time>
      </trkpt>
      <trkpt lat="43.20774" lon="6.37921">
        <ele>276.3</ele>
        <time>2019-03-24T10:43:31Z</time>
      </trkpt>
      <trkpt lat="43.20765" lon="6.3792">
        <ele>276.1</ele>
        <time>2019-03-24T10:43:41Z</time>
      </trkpt>
      <trkpt lat="43.20756" lon="6.3792">
        <ele>275.6</ele>
        <time>2019-03-24T10:43:50Z</time>
      </trkpt>
      <trkpt lat="43.20746" lon="6.37919">
        <ele>274.7</ele>
        <time>2019-03-24T10:43:59Z</time>
      </trkpt>
      <trkpt lat="43.20737" lon="6.37917">
        <ele>273.5</ele>
        <time>2019-03-24T10:44:09Z</time>
      </trkpt>
      <trkpt lat="43.20728" lon="6.37923">
        <ele>272.4</ele>
        <time>2019-03-24T10:44:21Z</time>
      </trkpt>
      <trkpt lat="43.2072" lon="6.37932">
        <ele>271.5</ele>
        <time>2019-03-24T10:44:29Z</time>
      </trkpt>
      <trkpt lat="43.20713" lon="6.3794">
        <ele>270.5</ele>
        <time>2019-03-24T10:44:37Z</time>
      </trkpt>
      <trkpt lat="43.20712" lon="6.37953">
        <ele>269.8</ele>
        <time>2019-03-24T10:44:45Z</time>
      </trkpt>
      <trkpt lat="43.20709" lon="6.37965">
        <ele>268.6</ele>
        <time>2019-03-24T10:44:57Z</time>
      </trkpt>
      <trkpt lat="43.20707" lon="6.37978">
        <ele>267.2</ele>
        <time>2019-03-24T10:45:08Z</time>
      </trkpt>
      <trkpt lat="43.20703" lon="6.37991">
        <ele>266.1</ele>
        <time>2019-03-24T10:45:18Z</time>
      </trkpt>
      <trkpt lat="43.20695" lon="6.37997">
        <ele>263.3</ele>
        <time>2019-03-24T10:45:39Z</time>
      </trkpt>
      <trkpt lat="43.20687" lon="6.3799">
        <ele>260.4</ele>
        <time>2019-03-24T10:45:59Z</time>
      </trkpt>
      <trkpt lat="43.20682" lon="6.37979">
        <ele>259.1</ele>
        <time>2019-03-24T10:46:11Z</time>
      </trkpt>
      <trkpt lat="43.20675" lon="6.37971">
        <ele>257.9</ele>
        <time>2019-03-24T10:46:19Z</time>
      </trkpt>
      <trkpt lat="43.20666" lon="6.37973">
        <ele>255.1</ele>
        <time>2019-03-24T10:46:41Z</time>
      </trkpt>
      <trkpt lat="43.20663" lon="6.37986">
        <ele>254.6</ele>
        <time>2019-03-24T10:46:49Z</time>
      </trkpt>
      <trkpt lat="43.2066" lon="6.37998">
        <ele>254.1</ele>
        <time>2019-03-24T10:47:00Z</time>
      </trkpt>
      <trkpt lat="43.20661" lon="6.37984">
        <ele>253.3</ele>
        <time>2019-03-24T10:47:40Z</time>
      </trkpt>
      <trkpt lat="43.20658" lon="6.37971">
        <ele>253.8</ele>
        <time>2019-03-24T10:47:51Z</time>
      </trkpt>
      <trkpt lat="43.2065" lon="6.37964">
        <ele>253.7</ele>
        <time>2019-03-24T10:47:57Z</time>
      </trkpt>
      <trkpt lat="43.20642" lon="6.37956">
        <ele>253.7</ele>
        <time>2019-03-24T10:48:05Z</time>
      </trkpt>
      <trkpt lat="43.20633" lon="6.37951">
        <ele>253.8</ele>
        <time>2019-03-24T10:48:14Z</time>
      </trkpt>
      <trkpt lat="43.20626" lon="6.37942">
        <ele>254</ele>
        <time>2019-03-24T10:48:21Z</time>
      </trkpt>
      <trkpt lat="43.20619" lon="6.37933">
        <ele>254.1</ele>
        <time>2019-03-24T10:48:34Z</time>
      </trkpt>
      <trkpt lat="43.20611" lon="6.37926">
        <ele>254.5</ele>
        <time>2019-03-24T10:48:45Z</time>
      </trkpt>
      <trkpt lat="43.20603" lon="6.3792">
        <ele>254.9</ele>
        <time>2019-03-24T10:48:51Z</time>
      </trkpt>
      <trkpt lat="43.20595" lon="6.37912">
        <ele>255.7</ele>
        <time>2019-03-24T10:49:03Z</time>
      </trkpt>
      <trkpt lat="43.20586" lon="6.37908">
        <ele>256.3</ele>
        <time>2019-03-24T10:49:14Z</time>
      </trkpt>
      <trkpt lat="43.20578" lon="6.37899">
        <ele>256.1</ele>
        <time>2019-03-24T10:49:21Z</time>
      </trkpt>
      <trkpt lat="43.2057" lon="6.3789">
        <ele>256.5</ele>
        <time>2019-03-24T10:49:29Z</time>
      </trkpt>
      <trkpt lat="43.20566" lon="6.37878">
        <ele>256.6</ele>
        <time>2019-03-24T10:49:39Z</time>
      </trkpt>
      <trkpt lat="43.20563" lon="6.37864">
        <ele>256.5</ele>
        <time>2019-03-24T10:49:52Z</time>
      </trkpt>
      <trkpt lat="43.20557" lon="6.37855">
        <ele>256.2</ele>
        <time>2019-03-24T10:49:59Z</time>
      </trkpt>
      <trkpt lat="43.20549" lon="6.37848">
        <ele>255.7</ele>
        <time>2019-03-24T10:50:09Z</time>
      </trkpt>
      <trkpt lat="43.20545" lon="6.37837">
        <ele>255.6</ele>
        <time>2019-03-24T10:50:18Z</time>
      </trkpt>
      <trkpt lat="43.20543" lon="6.37824">
        <ele>255.9</ele>
        <time>2019-03-24T10:50:27Z</time>
      </trkpt>
      <trkpt lat="43.2054" lon="6.37812">
        <ele>256.1</ele>
        <time>2019-03-24T10:50:35Z</time>
      </trkpt>
      <trkpt lat="43.20536" lon="6.378">
        <ele>256.1</ele>
        <time>2019-03-24T10:50:45Z</time>
      </trkpt>
      <trkpt lat="43.20535" lon="6.37788">
        <ele>257.7</ele>
        <time>2019-03-24T10:51:20Z</time>
      </trkpt>
      <trkpt lat="43.20526" lon="6.37786">
        <ele>258.1</ele>
        <time>2019-03-24T10:52:09Z</time>
      </trkpt>
      <trkpt lat="43.20531" lon="6.37776">
        <ele>258.3</ele>
        <time>2019-03-24T10:53:38Z</time>
      </trkpt>
      <trkpt lat="43.20534" lon="6.37765">
        <ele>257.8</ele>
        <time>2019-03-24T10:53:49Z</time>
      </trkpt>
      <trkpt lat="43.20539" lon="6.37753">
        <ele>256.8</ele>
        <time>2019-03-24T10:53:59Z</time>
      </trkpt>
      <trkpt lat="43.20542" lon="6.37741">
        <ele>256.2</ele>
        <time>2019-03-24T10:54:13Z</time>
      </trkpt>
      <trkpt lat="43.20548" lon="6.37731">
        <ele>255.4</ele>
        <time>2019-03-24T10:54:25Z</time>
      </trkpt>
      <trkpt lat="43.20549" lon="6.37717">
        <ele>254.8</ele>
        <time>2019-03-24T10:54:34Z</time>
      </trkpt>
      <trkpt lat="43.20546" lon="6.37705">
        <ele>254.3</ele>
        <time>2019-03-24T10:54:42Z</time>
      </trkpt>
      <trkpt lat="43.20541" lon="6.37694">
        <ele>253.6</ele>
        <time>2019-03-24T10:54:52Z</time>
      </trkpt>
      <trkpt lat="43.20533" lon="6.37687">
        <ele>252.6</ele>
        <time>2019-03-24T10:55:02Z</time>
      </trkpt>
      <trkpt lat="43.20524" lon="6.3768">
        <ele>252</ele>
        <time>2019-03-24T10:55:09Z</time>
      </trkpt>
      <trkpt lat="43.20516" lon="6.37677">
        <ele>251.2</ele>
        <time>2019-03-24T10:55:17Z</time>
      </trkpt>
      <trkpt lat="43.20507" lon="6.37674">
        <ele>250.4</ele>
        <time>2019-03-24T10:55:26Z</time>
      </trkpt>
      <trkpt lat="43.20498" lon="6.37669">
        <ele>249.3</ele>
        <time>2019-03-24T10:55:35Z</time>
      </trkpt>
      <trkpt lat="43.20489" lon="6.37663">
        <ele>248</ele>
        <time>2019-03-24T10:55:44Z</time>
      </trkpt>
      <trkpt lat="43.20481" lon="6.37658">
        <ele>246.9</ele>
        <time>2019-03-24T10:55:53Z</time>
      </trkpt>
      <trkpt lat="43.20471" lon="6.37655">
        <ele>246</ele>
        <time>2019-03-24T10:56:03Z</time>
      </trkpt>
      <trkpt lat="43.20463" lon="6.37648">
        <ele>245.3</ele>
        <time>2019-03-24T10:56:12Z</time>
      </trkpt>
      <trkpt lat="43.20469" lon="6.37638">
        <ele>244.7</ele>
        <time>2019-03-24T10:56:24Z</time>
      </trkpt>
      <trkpt lat="43.20477" lon="6.37644">
        <ele>244.2</ele>
        <time>2019-03-24T10:56:35Z</time>
      </trkpt>
      <trkpt lat="43.20486" lon="6.37648">
        <ele>243.6</ele>
        <time>2019-03-24T10:56:45Z</time>
      </trkpt>
      <trkpt lat="43.20495" lon="6.37647">
        <ele>242.5</ele>
        <time>2019-03-24T10:57:03Z</time>
      </trkpt>
      <trkpt lat="43.20504" lon="6.37649">
        <ele>241.8</ele>
        <time>2019-03-24T10:57:14Z</time>
      </trkpt>
      <trkpt lat="43.20497" lon="6.37638">
        <ele>240.4</ele>
        <time>2019-03-24T10:57:36Z</time>
      </trkpt>
      <trkpt lat="43.20489" lon="6.37632">
        <ele>238.7</ele>
        <time>2019-03-24T10:57:48Z</time>
      </trkpt>
      <trkpt lat="43.20487" lon="6.37619">
        <ele>237.4</ele>
        <time>2019-03-24T10:58:04Z</time>
      </trkpt>
      <trkpt lat="43.20488" lon="6.37606">
        <ele>237.6</ele>
        <time>2019-03-24T10:58:20Z</time>
      </trkpt>
      <trkpt lat="43.20491" lon="6.37594">
        <ele>235.5</ele>
        <time>2019-03-24T10:59:22Z</time>
      </trkpt>
      <trkpt lat="43.20493" lon="6.37582">
        <ele>234.2</ele>
        <time>2019-03-24T10:59:49Z</time>
      </trkpt>
      <trkpt lat="43.20494" lon="6.3757">
        <ele>234</ele>
        <time>2019-03-24T11:00:03Z</time>
      </trkpt>
      <trkpt lat="43.20487" lon="6.37561">
        <ele>234.2</ele>
        <time>2019-03-24T11:00:16Z</time>
      </trkpt>
      <trkpt lat="43.20479" lon="6.37554">
        <ele>233.8</ele>
        <time>2019-03-24T11:00:25Z</time>
      </trkpt>
      <trkpt lat="43.20472" lon="6.37547">
        <ele>233.4</ele>
        <time>2019-03-24T11:00:41Z</time>
      </trkpt>
      <trkpt lat="43.20463" lon="6.37548">
        <ele>232.7</ele>
        <time>2019-03-24T11:00:59Z</time>
      </trkpt>
      <trkpt lat="43.20454" lon="6.37551">
        <ele>233.3</ele>
        <time>2019-03-24T11:07:42Z</time>
      </trkpt>
      <trkpt lat="43.20458" lon="6.3754">
        <ele>233.3</ele>
        <time>2019-03-24T11:09:55Z</time>
      </trkpt>
      <trkpt lat="43.20465" lon="6.37549">
        <ele>233.8</ele>
        <time>2019-03-24T11:13:04Z</time>
      </trkpt>
      <trkpt lat="43.20457" lon="6.37543">
        <ele>233.6</ele>
        <time>2019-03-24T11:14:20Z</time>
      </trkpt>
      <trkpt lat="43.20448" lon="6.37548">
        <ele>232.7</ele>
        <time>2019-03-24T11:21:34Z</time>
      </trkpt>
      <trkpt lat="43.20453" lon="6.37559">
        <ele>232.8</ele>
        <time>2019-03-24T11:22:44Z</time>
      </trkpt>
      <trkpt lat="43.20455" lon="6.37547">
        <ele>233.8</ele>
        <time>2019-03-24T11:28:21Z</time>
      </trkpt>
      <trkpt lat="43.20459" lon="6.37535">
        <ele>233.8</ele>
        <time>2019-03-24T11:29:16Z</time>
      </trkpt>
      <trkpt lat="43.20456" lon="6.37548">
        <ele>233.6</ele>
        <time>2019-03-24T11:30:02Z</time>
      </trkpt>
      <trkpt lat="43.20452" lon="6.37559">
        <ele>233.7</ele>
        <time>2019-03-24T11:30:45Z</time>
      </trkpt>
      <trkpt lat="43.20456" lon="6.37548">
        <ele>231.6</ele>
        <time>2019-03-24T11:31:33Z</time>
      </trkpt>
      <trkpt lat="43.20453" lon="6.3756">
        <ele>232.9</ele>
        <time>2019-03-24T11:34:00Z</time>
      </trkpt>
      <trkpt lat="43.20456" lon="6.37548">
        <ele>233.6</ele>
        <time>2019-03-24T11:35:23Z</time>
      </trkpt>
      <trkpt lat="43.20459" lon="6.37536">
        <ele>234.1</ele>
        <time>2019-03-24T11:36:22Z</time>
      </trkpt>
      <trkpt lat="43.20458" lon="6.37548">
        <ele>234.4</ele>
        <time>2019-03-24T11:51:37Z</time>
      </trkpt>
      <trkpt lat="43.20466" lon="6.37556">
        <ele>234.9</ele>
        <time>2019-03-24T11:54:47Z</time>
      </trkpt>
      <trkpt lat="43.20474" lon="6.37563">
        <ele>235.5</ele>
        <time>2019-03-24T11:54:58Z</time>
      </trkpt>
      <trkpt lat="43.20483" lon="6.37567">
        <ele>235.8</ele>
        <time>2019-03-24T11:55:07Z</time>
      </trkpt>
      <trkpt lat="43.20489" lon="6.37577">
        <ele>236.3</ele>
        <time>2019-03-24T11:55:18Z</time>
      </trkpt>
      <trkpt lat="43.20487" lon="6.37589">
        <ele>237</ele>
        <time>2019-03-24T11:55:43Z</time>
      </trkpt>
      <trkpt lat="43.20485" lon="6.37601">
        <ele>237.1</ele>
        <time>2019-03-24T11:56:01Z</time>
      </trkpt>
      <trkpt lat="43.20482" lon="6.37614">
        <ele>237.2</ele>
        <time>2019-03-24T11:56:09Z</time>
      </trkpt>
      <trkpt lat="43.20481" lon="6.37626">
        <ele>237.6</ele>
        <time>2019-03-24T11:57:33Z</time>
      </trkpt>
      <trkpt lat="43.20489" lon="6.37633">
        <ele>237.6</ele>
        <time>2019-03-24T11:57:44Z</time>
      </trkpt>
      <trkpt lat="43.20498" lon="6.37638">
        <ele>238</ele>
        <time>2019-03-24T11:58:00Z</time>
      </trkpt>
      <trkpt lat="43.20507" lon="6.37643">
        <ele>238.8</ele>
        <time>2019-03-24T11:58:11Z</time>
      </trkpt>
      <trkpt lat="43.20498" lon="6.37641">
        <ele>240.7</ele>
        <time>2019-03-24T11:58:34Z</time>
      </trkpt>
      <trkpt lat="43.20489" lon="6.37637">
        <ele>241.4</ele>
        <time>2019-03-24T11:58:45Z</time>
      </trkpt>
      <trkpt lat="43.20479" lon="6.37639">
        <ele>242.4</ele>
        <time>2019-03-24T11:58:59Z</time>
      </trkpt>
      <trkpt lat="43.2047" lon="6.37636">
        <ele>243.4</ele>
        <time>2019-03-24T11:59:12Z</time>
      </trkpt>
      <trkpt lat="43.20461" lon="6.37638">
        <ele>244.2</ele>
        <time>2019-03-24T11:59:23Z</time>
      </trkpt>
      <trkpt lat="43.20459" lon="6.3765">
        <ele>244.7</ele>
        <time>2019-03-24T11:59:33Z</time>
      </trkpt>
      <trkpt lat="43.20468" lon="6.37658">
        <ele>245.1</ele>
        <time>2019-03-24T11:59:44Z</time>
      </trkpt>
      <trkpt lat="43.20477" lon="6.37662">
        <ele>245.9</ele>
        <time>2019-03-24T11:59:53Z</time>
      </trkpt>
      <trkpt lat="43.20485" lon="6.37668">
        <ele>246.8</ele>
        <time>2019-03-24T12:00:05Z</time>
      </trkpt>
      <trkpt lat="43.20493" lon="6.37673">
        <ele>247.4</ele>
        <time>2019-03-24T12:00:15Z</time>
      </trkpt>
      <trkpt lat="43.20502" lon="6.37676">
        <ele>248.2</ele>
        <time>2019-03-24T12:00:24Z</time>
      </trkpt>
      <trkpt lat="43.20511" lon="6.37679">
        <ele>249.3</ele>
        <time>2019-03-24T12:00:34Z</time>
      </trkpt>
      <trkpt lat="43.20518" lon="6.37687">
        <ele>250.9</ele>
        <time>2019-03-24T12:00:48Z</time>
      </trkpt>
      <trkpt lat="43.20526" lon="6.37694">
        <ele>251.9</ele>
        <time>2019-03-24T12:01:01Z</time>
      </trkpt>
      <trkpt lat="43.20534" lon="6.377">
        <ele>252.6</ele>
        <time>2019-03-24T12:01:13Z</time>
      </trkpt>
      <trkpt lat="43.20543" lon="6.37705">
        <ele>253.4</ele>
        <time>2019-03-24T12:01:24Z</time>
      </trkpt>
      <trkpt lat="43.20549" lon="6.37715">
        <ele>254</ele>
        <time>2019-03-24T12:01:36Z</time>
      </trkpt>
      <trkpt lat="43.20549" lon="6.37727">
        <ele>255</ele>
        <time>2019-03-24T12:01:49Z</time>
      </trkpt>
      <trkpt lat="43.20542" lon="6.37735">
        <ele>255.8</ele>
        <time>2019-03-24T12:01:59Z</time>
      </trkpt>
      <trkpt lat="43.20535" lon="6.37743">
        <ele>256.9</ele>
        <time>2019-03-24T12:02:13Z</time>
      </trkpt>
      <trkpt lat="43.20529" lon="6.37753">
        <ele>257.4</ele>
        <time>2019-03-24T12:02:23Z</time>
      </trkpt>
      <trkpt lat="43.20524" lon="6.37764">
        <ele>257.8</ele>
        <time>2019-03-24T12:02:33Z</time>
      </trkpt>
      <trkpt lat="43.20528" lon="6.37775">
        <ele>258.6</ele>
        <time>2019-03-24T12:02:48Z</time>
      </trkpt>
      <trkpt lat="43.20525" lon="6.37787">
        <ele>259.6</ele>
        <time>2019-03-24T12:03:45Z</time>
      </trkpt>
      <trkpt lat="43.20523" lon="6.378">
        <ele>260</ele>
        <time>2019-03-24T12:03:56Z</time>
      </trkpt>
      <trkpt lat="43.20521" lon="6.37812">
        <ele>261.1</ele>
        <time>2019-03-24T12:04:15Z</time>
      </trkpt>
      <trkpt lat="43.20522" lon="6.37824">
        <ele>261.6</ele>
        <time>2019-03-24T12:04:26Z</time>
      </trkpt>
      <trkpt lat="43.2052" lon="6.37838">
        <ele>262.6</ele>
        <time>2019-03-24T12:04:39Z</time>
      </trkpt>
      <trkpt lat="43.20519" lon="6.3785">
        <ele>263.4</ele>
        <time>2019-03-24T12:04:54Z</time>
      </trkpt>
      <trkpt lat="43.20519" lon="6.37863">
        <ele>264.1</ele>
        <time>2019-03-24T12:05:08Z</time>
      </trkpt>
      <trkpt lat="43.20524" lon="6.37874">
        <ele>264.4</ele>
        <time>2019-03-24T12:05:20Z</time>
      </trkpt>
      <trkpt lat="43.2053" lon="6.37883">
        <ele>265.1</ele>
        <time>2019-03-24T12:05:32Z</time>
      </trkpt>
      <trkpt lat="43.20534" lon="6.37895">
        <ele>265.6</ele>
        <time>2019-03-24T12:05:44Z</time>
      </trkpt>
      <trkpt lat="43.20539" lon="6.37906">
        <ele>266</ele>
        <time>2019-03-24T12:05:56Z</time>
      </trkpt>
      <trkpt lat="43.20546" lon="6.37899">
        <ele>266.3</ele>
        <time>2019-03-24T12:06:26Z</time>
      </trkpt>
      <trkpt lat="43.20538" lon="6.37905">
        <ele>266.4</ele>
        <time>2019-03-24T12:06:50Z</time>
      </trkpt>
      <trkpt lat="43.20547" lon="6.37906">
        <ele>266.7</ele>
        <time>2019-03-24T12:07:17Z</time>
      </trkpt>
      <trkpt lat="43.2055" lon="6.37919">
        <ele>266.9</ele>
        <time>2019-03-24T12:07:29Z</time>
      </trkpt>
      <trkpt lat="43.20554" lon="6.37931">
        <ele>267.4</ele>
        <time>2019-03-24T12:07:38Z</time>
      </trkpt>
      <trkpt lat="43.20557" lon="6.37944">
        <ele>267.9</ele>
        <time>2019-03-24T12:07:46Z</time>
      </trkpt>
      <trkpt lat="43.2056" lon="6.37956">
        <ele>268.7</ele>
        <time>2019-03-24T12:07:56Z</time>
      </trkpt>
      <trkpt lat="43.20561" lon="6.37969">
        <ele>269.5</ele>
        <time>2019-03-24T12:08:03Z</time>
      </trkpt>
      <trkpt lat="43.20566" lon="6.3798">
        <ele>270.8</ele>
        <time>2019-03-24T12:08:18Z</time>
      </trkpt>
      <trkpt lat="43.2057" lon="6.37991">
        <ele>271.3</ele>
        <time>2019-03-24T12:08:26Z</time>
      </trkpt>
      <trkpt lat="43.20578" lon="6.37999">
        <ele>272.6</ele>
        <time>2019-03-24T12:08:37Z</time>
      </trkpt>
      <trkpt lat="43.20584" lon="6.38009">
        <ele>273.5</ele>
        <time>2019-03-24T12:08:47Z</time>
      </trkpt>
      <trkpt lat="43.20584" lon="6.38022">
        <ele>274.1</ele>
        <time>2019-03-24T12:08:56Z</time>
      </trkpt>
      <trkpt lat="43.20582" lon="6.38035">
        <ele>274.7</ele>
        <time>2019-03-24T12:09:05Z</time>
      </trkpt>
      <trkpt lat="43.20581" lon="6.38048">
        <ele>275.5</ele>
        <time>2019-03-24T12:09:15Z</time>
      </trkpt>
      <trkpt lat="43.20581" lon="6.38061">
        <ele>276</ele>
        <time>2019-03-24T12:09:21Z</time>
      </trkpt>
      <trkpt lat="43.20579" lon="6.38074">
        <ele>276.7</ele>
        <time>2019-03-24T12:09:31Z</time>
      </trkpt>
      <trkpt lat="43.20579" lon="6.38086">
        <ele>277.2</ele>
        <time>2019-03-24T12:09:40Z</time>
      </trkpt>
      <trkpt lat="43.20576" lon="6.38099">
        <ele>278.2</ele>
        <time>2019-03-24T12:09:50Z</time>
      </trkpt>
      <trkpt lat="43.20571" lon="6.38111">
        <ele>279.1</ele>
        <time>2019-03-24T12:10:00Z</time>
      </trkpt>
      <trkpt lat="43.20567" lon="6.38122">
        <ele>279.9</ele>
        <time>2019-03-24T12:10:11Z</time>
      </trkpt>
      <trkpt lat="43.20561" lon="6.38133">
        <ele>280.7</ele>
        <time>2019-03-24T12:10:22Z</time>
      </trkpt>
      <trkpt lat="43.20557" lon="6.38144">
        <ele>281.3</ele>
        <time>2019-03-24T12:10:31Z</time>
      </trkpt>
      <trkpt lat="43.20553" lon="6.38156">
        <ele>282</ele>
        <time>2019-03-24T12:10:41Z</time>
      </trkpt>
      <trkpt lat="43.20549" lon="6.38168">
        <ele>282.5</ele>
        <time>2019-03-24T12:10:50Z</time>
      </trkpt>
      <trkpt lat="43.20545" lon="6.38179">
        <ele>283.3</ele>
        <time>2019-03-24T12:10:58Z</time>
      </trkpt>
      <trkpt lat="43.20545" lon="6.38192">
        <ele>284.3</ele>
        <time>2019-03-24T12:11:08Z</time>
      </trkpt>
      <trkpt lat="43.20546" lon="6.38205">
        <ele>285.2</ele>
        <time>2019-03-24T12:11:18Z</time>
      </trkpt>
      <trkpt lat="43.20545" lon="6.38217">
        <ele>286</ele>
        <time>2019-03-24T12:11:29Z</time>
      </trkpt>
      <trkpt lat="43.20545" lon="6.3823">
        <ele>286.7</ele>
        <time>2019-03-24T12:11:38Z</time>
      </trkpt>
      <trkpt lat="43.20544" lon="6.38243">
        <ele>287.5</ele>
        <time>2019-03-24T12:11:46Z</time>
      </trkpt>
      <trkpt lat="43.20545" lon="6.38256">
        <ele>288.3</ele>
        <time>2019-03-24T12:11:55Z</time>
      </trkpt>
      <trkpt lat="43.20546" lon="6.3827">
        <ele>289.2</ele>
        <time>2019-03-24T12:12:06Z</time>
      </trkpt>
      <trkpt lat="43.20547" lon="6.38282">
        <ele>289.8</ele>
        <time>2019-03-24T12:12:14Z</time>
      </trkpt>
      <trkpt lat="43.20549" lon="6.38294">
        <ele>290.5</ele>
        <time>2019-03-24T12:12:35Z</time>
      </trkpt>
      <trkpt lat="43.20556" lon="6.38303">
        <ele>289</ele>
        <time>2019-03-24T12:18:25Z</time>
      </trkpt>
      <trkpt lat="43.20565" lon="6.38308">
        <ele>288.8</ele>
        <time>2019-03-24T12:18:43Z</time>
      </trkpt>
      <trkpt lat="43.20574" lon="6.38311">
        <ele>288.7</ele>
        <time>2019-03-24T12:18:53Z</time>
      </trkpt>
      <trkpt lat="43.20583" lon="6.38314">
        <ele>288.7</ele>
        <time>2019-03-24T12:19:03Z</time>
      </trkpt>
      <trkpt lat="43.20591" lon="6.38321">
        <ele>288.6</ele>
        <time>2019-03-24T12:19:13Z</time>
      </trkpt>
      <trkpt lat="43.20599" lon="6.3833">
        <ele>288.5</ele>
        <time>2019-03-24T12:19:23Z</time>
      </trkpt>
      <trkpt lat="43.20604" lon="6.38341">
        <ele>288.2</ele>
        <time>2019-03-24T12:19:35Z</time>
      </trkpt>
      <trkpt lat="43.20605" lon="6.38354">
        <ele>287.8</ele>
        <time>2019-03-24T12:19:47Z</time>
      </trkpt>
      <trkpt lat="43.20606" lon="6.38366">
        <ele>287.5</ele>
        <time>2019-03-24T12:19:56Z</time>
      </trkpt>
      <trkpt lat="43.20608" lon="6.38379">
        <ele>287.2</ele>
        <time>2019-03-24T12:20:05Z</time>
      </trkpt>
      <trkpt lat="43.20611" lon="6.38392">
        <ele>286.8</ele>
        <time>2019-03-24T12:20:20Z</time>
      </trkpt>
      <trkpt lat="43.20618" lon="6.384">
        <ele>286.6</ele>
        <time>2019-03-24T12:20:29Z</time>
      </trkpt>
      <trkpt lat="43.20626" lon="6.38407">
        <ele>286.6</ele>
        <time>2019-03-24T12:20:39Z</time>
      </trkpt>
      <trkpt lat="43.20635" lon="6.38412">
        <ele>286.9</ele>
        <time>2019-03-24T12:20:48Z</time>
      </trkpt>
      <trkpt lat="43.20643" lon="6.38417">
        <ele>287.2</ele>
        <time>2019-03-24T12:20:57Z</time>
      </trkpt>
      <trkpt lat="43.20652" lon="6.38422">
        <ele>287.6</ele>
        <time>2019-03-24T12:21:05Z</time>
      </trkpt>
      <trkpt lat="43.20661" lon="6.38424">
        <ele>288.1</ele>
        <time>2019-03-24T12:21:13Z</time>
      </trkpt>
      <trkpt lat="43.2067" lon="6.38427">
        <ele>288.6</ele>
        <time>2019-03-24T12:21:22Z</time>
      </trkpt>
      <trkpt lat="43.20679" lon="6.38434">
        <ele>289.1</ele>
        <time>2019-03-24T12:21:31Z</time>
      </trkpt>
      <trkpt lat="43.20686" lon="6.38443">
        <ele>289.3</ele>
        <time>2019-03-24T12:21:40Z</time>
      </trkpt>
      <trkpt lat="43.20693" lon="6.38451">
        <ele>290</ele>
        <time>2019-03-24T12:21:52Z</time>
      </trkpt>
      <trkpt lat="43.20701" lon="6.38458">
        <ele>290.8</ele>
        <time>2019-03-24T12:22:02Z</time>
      </trkpt>
      <trkpt lat="43.20708" lon="6.38468">
        <ele>291.1</ele>
        <time>2019-03-24T12:22:12Z</time>
      </trkpt>
      <trkpt lat="43.20713" lon="6.38479">
        <ele>291.3</ele>
        <time>2019-03-24T12:22:21Z</time>
      </trkpt>
      <trkpt lat="43.20718" lon="6.38489">
        <ele>291.3</ele>
        <time>2019-03-24T12:22:29Z</time>
      </trkpt>
      <trkpt lat="43.20723" lon="6.385">
        <ele>291.3</ele>
        <time>2019-03-24T12:22:37Z</time>
      </trkpt>
      <trkpt lat="43.20729" lon="6.3851">
        <ele>291.3</ele>
        <time>2019-03-24T12:22:45Z</time>
      </trkpt>
      <trkpt lat="43.20736" lon="6.38519">
        <ele>291.2</ele>
        <time>2019-03-24T12:22:53Z</time>
      </trkpt>
      <trkpt lat="43.20743" lon="6.38529">
        <ele>291.2</ele>
        <time>2019-03-24T12:23:02Z</time>
      </trkpt>
      <trkpt lat="43.2075" lon="6.38537">
        <ele>291.3</ele>
        <time>2019-03-24T12:23:10Z</time>
      </trkpt>
      <trkpt lat="43.20759" lon="6.38543">
        <ele>291.4</ele>
        <time>2019-03-24T12:23:18Z</time>
      </trkpt>
      <trkpt lat="43.20767" lon="6.38548">
        <ele>291.5</ele>
        <time>2019-03-24T12:23:26Z</time>
      </trkpt>
      <trkpt lat="43.20774" lon="6.38557">
        <ele>291.4</ele>
        <time>2019-03-24T12:23:38Z</time>
      </trkpt>
      <trkpt lat="43.20777" lon="6.38568">
        <ele>291.5</ele>
        <time>2019-03-24T12:23:46Z</time>
      </trkpt>
      <trkpt lat="43.20781" lon="6.3858">
        <ele>291.8</ele>
        <time>2019-03-24T12:23:56Z</time>
      </trkpt>
      <trkpt lat="43.20786" lon="6.38591">
        <ele>292.4</ele>
        <time>2019-03-24T12:24:06Z</time>
      </trkpt>
      <trkpt lat="43.20787" lon="6.38604">
        <ele>293</ele>
        <time>2019-03-24T12:24:16Z</time>
      </trkpt>
      <trkpt lat="43.20788" lon="6.38617">
        <ele>293.4</ele>
        <time>2019-03-24T12:24:25Z</time>
      </trkpt>
      <trkpt lat="43.20792" lon="6.38628">
        <ele>294.2</ele>
        <time>2019-03-24T12:24:35Z</time>
      </trkpt>
      <trkpt lat="43.20795" lon="6.38641">
        <ele>295</ele>
        <time>2019-03-24T12:24:45Z</time>
      </trkpt>
      <trkpt lat="43.20796" lon="6.38653">
        <ele>295.6</ele>
        <time>2019-03-24T12:24:54Z</time>
      </trkpt>
      <trkpt lat="43.20801" lon="6.38664">
        <ele>296.2</ele>
        <time>2019-03-24T12:25:03Z</time>
      </trkpt>
      <trkpt lat="43.20806" lon="6.38675">
        <ele>296.8</ele>
        <time>2019-03-24T12:25:13Z</time>
      </trkpt>
      <trkpt lat="43.2081" lon="6.38687">
        <ele>297.7</ele>
        <time>2019-03-24T12:25:23Z</time>
      </trkpt>
      <trkpt lat="43.20814" lon="6.38698">
        <ele>298.7</ele>
        <time>2019-03-24T12:25:33Z</time>
      </trkpt>
      <trkpt lat="43.20816" lon="6.3871">
        <ele>299.3</ele>
        <time>2019-03-24T12:25:42Z</time>
      </trkpt>
      <trkpt lat="43.2082" lon="6.38723">
        <ele>299.6</ele>
        <time>2019-03-24T12:25:52Z</time>
      </trkpt>
      <trkpt lat="43.20826" lon="6.38733">
        <ele>300</ele>
        <time>2019-03-24T12:26:01Z</time>
      </trkpt>
      <trkpt lat="43.20832" lon="6.38744">
        <ele>300.9</ele>
        <time>2019-03-24T12:26:11Z</time>
      </trkpt>
      <trkpt lat="43.20838" lon="6.38753">
        <ele>301.6</ele>
        <time>2019-03-24T12:26:22Z</time>
      </trkpt>
      <trkpt lat="43.20845" lon="6.38763">
        <ele>302</ele>
        <time>2019-03-24T12:26:31Z</time>
      </trkpt>
      <trkpt lat="43.2085" lon="6.38774">
        <ele>302.5</ele>
        <time>2019-03-24T12:26:41Z</time>
      </trkpt>
      <trkpt lat="43.20856" lon="6.38784">
        <ele>302.8</ele>
        <time>2019-03-24T12:26:50Z</time>
      </trkpt>
      <trkpt lat="43.20863" lon="6.38793">
        <ele>302.9</ele>
        <time>2019-03-24T12:27:00Z</time>
      </trkpt>
      <trkpt lat="43.20871" lon="6.388">
        <ele>303.1</ele>
        <time>2019-03-24T12:27:09Z</time>
      </trkpt>
      <trkpt lat="43.20879" lon="6.38808">
        <ele>303.5</ele>
        <time>2019-03-24T12:27:19Z</time>
      </trkpt>
      <trkpt lat="43.20886" lon="6.38815">
        <ele>303.9</ele>
        <time>2019-03-24T12:27:26Z</time>
      </trkpt>
      <trkpt lat="43.20894" lon="6.38823">
        <ele>304.3</ele>
        <time>2019-03-24T12:27:37Z</time>
      </trkpt>
      <trkpt lat="43.20901" lon="6.38833">
        <ele>304.9</ele>
        <time>2019-03-24T12:27:48Z</time>
      </trkpt>
      <trkpt lat="43.20909" lon="6.38841">
        <ele>305.6</ele>
        <time>2019-03-24T12:27:57Z</time>
      </trkpt>
      <trkpt lat="43.20917" lon="6.38846">
        <ele>306.3</ele>
        <time>2019-03-24T12:28:06Z</time>
      </trkpt>
      <trkpt lat="43.20923" lon="6.38857">
        <ele>306.8</ele>
        <time>2019-03-24T12:28:15Z</time>
      </trkpt>
      <trkpt lat="43.20929" lon="6.38866">
        <ele>307.3</ele>
        <time>2019-03-24T12:28:24Z</time>
      </trkpt>
      <trkpt lat="43.20934" lon="6.38878">
        <ele>307.9</ele>
        <time>2019-03-24T12:28:35Z</time>
      </trkpt>
      <trkpt lat="43.20936" lon="6.38891">
        <ele>308.6</ele>
        <time>2019-03-24T12:28:44Z</time>
      </trkpt>
      <trkpt lat="43.20939" lon="6.38903">
        <ele>309.5</ele>
        <time>2019-03-24T12:28:53Z</time>
      </trkpt>
      <trkpt lat="43.2094" lon="6.38916">
        <ele>310.2</ele>
        <time>2019-03-24T12:29:03Z</time>
      </trkpt>
      <trkpt lat="43.20946" lon="6.38927">
        <ele>310.6</ele>
        <time>2019-03-24T12:29:13Z</time>
      </trkpt>
      <trkpt lat="43.2095" lon="6.38939">
        <ele>311.1</ele>
        <time>2019-03-24T12:29:23Z</time>
      </trkpt>
      <trkpt lat="43.20955" lon="6.3895">
        <ele>311.8</ele>
        <time>2019-03-24T12:29:33Z</time>
      </trkpt>
      <trkpt lat="43.2096" lon="6.38962">
        <ele>312.4</ele>
        <time>2019-03-24T12:29:43Z</time>
      </trkpt>
      <trkpt lat="43.20964" lon="6.38974">
        <ele>313.2</ele>
        <time>2019-03-24T12:29:54Z</time>
      </trkpt>
      <trkpt lat="43.2097" lon="6.38985">
        <ele>313.5</ele>
        <time>2019-03-24T12:30:04Z</time>
      </trkpt>
      <trkpt lat="43.20974" lon="6.38996">
        <ele>313.7</ele>
        <time>2019-03-24T12:30:12Z</time>
      </trkpt>
      <trkpt lat="43.20979" lon="6.39007">
        <ele>314</ele>
        <time>2019-03-24T12:30:22Z</time>
      </trkpt>
      <trkpt lat="43.20983" lon="6.39019">
        <ele>314.5</ele>
        <time>2019-03-24T12:30:32Z</time>
      </trkpt>
      <trkpt lat="43.20987" lon="6.39032">
        <ele>315.2</ele>
        <time>2019-03-24T12:30:42Z</time>
      </trkpt>
      <trkpt lat="43.20993" lon="6.39043">
        <ele>315.9</ele>
        <time>2019-03-24T12:30:52Z</time>
      </trkpt>
      <trkpt lat="43.20996" lon="6.39054">
        <ele>316.4</ele>
        <time>2019-03-24T12:31:01Z</time>
      </trkpt>
      <trkpt lat="43.20999" lon="6.39068">
        <ele>316.9</ele>
        <time>2019-03-24T12:31:11Z</time>
      </trkpt>
      <trkpt lat="43.21006" lon="6.39077">
        <ele>317.3</ele>
        <time>2019-03-24T12:31:20Z</time>
      </trkpt>
      <trkpt lat="43.21012" lon="6.39086">
        <ele>317.7</ele>
        <time>2019-03-24T12:31:28Z</time>
      </trkpt>
      <trkpt lat="43.2102" lon="6.39093">
        <ele>318.2</ele>
        <time>2019-03-24T12:31:37Z</time>
      </trkpt>
      <trkpt lat="43.21028" lon="6.39099">
        <ele>318.6</ele>
        <time>2019-03-24T12:31:48Z</time>
      </trkpt>
      <trkpt lat="43.21033" lon="6.3911">
        <ele>319.1</ele>
        <time>2019-03-24T12:32:00Z</time>
      </trkpt>
      <trkpt lat="43.21039" lon="6.39121">
        <ele>319.8</ele>
        <time>2019-03-24T12:32:10Z</time>
      </trkpt>
      <trkpt lat="43.21043" lon="6.39131">
        <ele>320.5</ele>
        <time>2019-03-24T12:32:20Z</time>
      </trkpt>
      <trkpt lat="43.21048" lon="6.39143">
        <ele>321.2</ele>
        <time>2019-03-24T12:32:29Z</time>
      </trkpt>
      <trkpt lat="43.21053" lon="6.39154">
        <ele>321.9</ele>
        <time>2019-03-24T12:32:39Z</time>
      </trkpt>
      <trkpt lat="43.2106" lon="6.39163">
        <ele>322.6</ele>
        <time>2019-03-24T12:32:49Z</time>
      </trkpt>
      <trkpt lat="43.21066" lon="6.39172">
        <ele>323.3</ele>
        <time>2019-03-24T12:33:00Z</time>
      </trkpt>
      <trkpt lat="43.21072" lon="6.39183">
        <ele>323.9</ele>
        <time>2019-03-24T12:33:10Z</time>
      </trkpt>
      <trkpt lat="43.21079" lon="6.39193">
        <ele>324.7</ele>
        <time>2019-03-24T12:33:20Z</time>
      </trkpt>
      <trkpt lat="43.21086" lon="6.39202">
        <ele>325.7</ele>
        <time>2019-03-24T12:33:30Z</time>
      </trkpt>
      <trkpt lat="43.21093" lon="6.39211">
        <ele>326.3</ele>
        <time>2019-03-24T12:33:40Z</time>
      </trkpt>
      <trkpt lat="43.21101" lon="6.39216">
        <ele>326.7</ele>
        <time>2019-03-24T12:33:50Z</time>
      </trkpt>
      <trkpt lat="43.21111" lon="6.39219">
        <ele>327.4</ele>
        <time>2019-03-24T12:34:01Z</time>
      </trkpt>
      <trkpt lat="43.2112" lon="6.39222">
        <ele>328.2</ele>
        <time>2019-03-24T12:34:12Z</time>
      </trkpt>
      <trkpt lat="43.21129" lon="6.39224">
        <ele>328.9</ele>
        <time>2019-03-24T12:34:21Z</time>
      </trkpt>
      <trkpt lat="43.21139" lon="6.39224">
        <ele>329.3</ele>
        <time>2019-03-24T12:34:30Z</time>
      </trkpt>
      <trkpt lat="43.21148" lon="6.39226">
        <ele>329.9</ele>
        <time>2019-03-24T12:34:39Z</time>
      </trkpt>
      <trkpt lat="43.21157" lon="6.39227">
        <ele>330.4</ele>
        <time>2019-03-24T12:34:49Z</time>
      </trkpt>
      <trkpt lat="43.21166" lon="6.39231">
        <ele>331.1</ele>
        <time>2019-03-24T12:34:59Z</time>
      </trkpt>
      <trkpt lat="43.21175" lon="6.39234">
        <ele>332</ele>
        <time>2019-03-24T12:35:10Z</time>
      </trkpt>
      <trkpt lat="43.21185" lon="6.39236">
        <ele>332.5</ele>
        <time>2019-03-24T12:35:22Z</time>
      </trkpt>
      <trkpt lat="43.21192" lon="6.39244">
        <ele>333.1</ele>
        <time>2019-03-24T12:35:34Z</time>
      </trkpt>
      <trkpt lat="43.21201" lon="6.39239">
        <ele>334.8</ele>
        <time>2019-03-24T12:36:36Z</time>
      </trkpt>
      <trkpt lat="43.21202" lon="6.39252">
        <ele>336.2</ele>
        <time>2019-03-24T12:41:30Z</time>
      </trkpt>
      <trkpt lat="43.21206" lon="6.39263">
        <ele>336.3</ele>
        <time>2019-03-24T12:41:38Z</time>
      </trkpt>
      <trkpt lat="43.21214" lon="6.3927">
        <ele>336.3</ele>
        <time>2019-03-24T12:41:47Z</time>
      </trkpt>
      <trkpt lat="43.21221" lon="6.39278">
        <ele>336.7</ele>
        <time>2019-03-24T12:41:56Z</time>
      </trkpt>
      <trkpt lat="43.2123" lon="6.39284">
        <ele>337</ele>
        <time>2019-03-24T12:42:05Z</time>
      </trkpt>
      <trkpt lat="43.21237" lon="6.39293">
        <ele>337.5</ele>
        <time>2019-03-24T12:42:14Z</time>
      </trkpt>
      <trkpt lat="43.21246" lon="6.39297">
        <ele>338.1</ele>
        <time>2019-03-24T12:42:24Z</time>
      </trkpt>
      <trkpt lat="43.21256" lon="6.39302">
        <ele>338.5</ele>
        <time>2019-03-24T12:42:33Z</time>
      </trkpt>
      <trkpt lat="43.21265" lon="6.39306">
        <ele>338.9</ele>
        <time>2019-03-24T12:42:42Z</time>
      </trkpt>
      <trkpt lat="43.21273" lon="6.39312">
        <ele>340</ele>
        <time>2019-03-24T12:42:52Z</time>
      </trkpt>
      <trkpt lat="43.2128" lon="6.39322">
        <ele>340.7</ele>
        <time>2019-03-24T12:43:03Z</time>
      </trkpt>
      <trkpt lat="43.21287" lon="6.3933">
        <ele>341.2</ele>
        <time>2019-03-24T12:43:13Z</time>
      </trkpt>
      <trkpt lat="43.21293" lon="6.39339">
        <ele>341.6</ele>
        <time>2019-03-24T12:43:22Z</time>
      </trkpt>
      <trkpt lat="43.21301" lon="6.39349">
        <ele>342.2</ele>
        <time>2019-03-24T12:43:33Z</time>
      </trkpt>
      <trkpt lat="43.21308" lon="6.39357">
        <ele>342.7</ele>
        <time>2019-03-24T12:43:43Z</time>
      </trkpt>
      <trkpt lat="43.21316" lon="6.39364">
        <ele>343.6</ele>
        <time>2019-03-24T12:43:54Z</time>
      </trkpt>
      <trkpt lat="43.21323" lon="6.39372">
        <ele>344.5</ele>
        <time>2019-03-24T12:44:05Z</time>
      </trkpt>
      <trkpt lat="43.21332" lon="6.39378">
        <ele>345.1</ele>
        <time>2019-03-24T12:44:16Z</time>
      </trkpt>
      <trkpt lat="43.21341" lon="6.39383">
        <ele>346.1</ele>
        <time>2019-03-24T12:44:27Z</time>
      </trkpt>
      <trkpt lat="43.21349" lon="6.3939">
        <ele>346.8</ele>
        <time>2019-03-24T12:44:36Z</time>
      </trkpt>
      <trkpt lat="43.21358" lon="6.39394">
        <ele>347.5</ele>
        <time>2019-03-24T12:44:46Z</time>
      </trkpt>
      <trkpt lat="43.21367" lon="6.39397">
        <ele>348.1</ele>
        <time>2019-03-24T12:44:56Z</time>
      </trkpt>
      <trkpt lat="43.21376" lon="6.39401">
        <ele>348.8</ele>
        <time>2019-03-24T12:45:06Z</time>
      </trkpt>
      <trkpt lat="43.21385" lon="6.39407">
        <ele>349.4</ele>
        <time>2019-03-24T12:45:18Z</time>
      </trkpt>
      <trkpt lat="43.21394" lon="6.39411">
        <ele>349.8</ele>
        <time>2019-03-24T12:45:28Z</time>
      </trkpt>
      <trkpt lat="43.21404" lon="6.39411">
        <ele>350.3</ele>
        <time>2019-03-24T12:45:38Z</time>
      </trkpt>
      <trkpt lat="43.21414" lon="6.39412">
        <ele>350.6</ele>
        <time>2019-03-24T12:45:47Z</time>
      </trkpt>
      <trkpt lat="43.21424" lon="6.39412">
        <ele>350.9</ele>
        <time>2019-03-24T12:45:57Z</time>
      </trkpt>
      <trkpt lat="43.21433" lon="6.39415">
        <ele>351.1</ele>
        <time>2019-03-24T12:46:07Z</time>
      </trkpt>
      <trkpt lat="43.21442" lon="6.39414">
        <ele>351.2</ele>
        <time>2019-03-24T12:46:18Z</time>
      </trkpt>
      <trkpt lat="43.21452" lon="6.39412">
        <ele>351.5</ele>
        <time>2019-03-24T12:46:29Z</time>
      </trkpt>
      <trkpt lat="43.2146" lon="6.39408">
        <ele>353.4</ele>
        <time>2019-03-24T12:47:32Z</time>
      </trkpt>
      <trkpt lat="43.21469" lon="6.39409">
        <ele>354.2</ele>
        <time>2019-03-24T12:50:23Z</time>
      </trkpt>
      <trkpt lat="43.21478" lon="6.39405">
        <ele>354.7</ele>
        <time>2019-03-24T12:50:32Z</time>
      </trkpt>
      <trkpt lat="43.21487" lon="6.394">
        <ele>355</ele>
        <time>2019-03-24T12:50:41Z</time>
      </trkpt>
      <trkpt lat="43.21497" lon="6.394">
        <ele>355.4</ele>
        <time>2019-03-24T12:50:50Z</time>
      </trkpt>
      <trkpt lat="43.21507" lon="6.39396">
        <ele>356</ele>
        <time>2019-03-24T12:50:58Z</time>
      </trkpt>
      <trkpt lat="43.21514" lon="6.39389">
        <ele>356.5</ele>
        <time>2019-03-24T12:51:06Z</time>
      </trkpt>
      <trkpt lat="43.2152" lon="6.3938">
        <ele>357.4</ele>
        <time>2019-03-24T12:51:16Z</time>
      </trkpt>
      <trkpt lat="43.2153" lon="6.39375">
        <ele>358.7</ele>
        <time>2019-03-24T12:51:28Z</time>
      </trkpt>
      <trkpt lat="43.21538" lon="6.39368">
        <ele>359.6</ele>
        <time>2019-03-24T12:51:36Z</time>
      </trkpt>
      <trkpt lat="43.21541" lon="6.39381">
        <ele>361.3</ele>
        <time>2019-03-24T12:51:54Z</time>
      </trkpt>
      <trkpt lat="43.21537" lon="6.39393">
        <ele>361.9</ele>
        <time>2019-03-24T12:52:03Z</time>
      </trkpt>
      <trkpt lat="43.21533" lon="6.39405">
        <ele>362.9</ele>
        <time>2019-03-24T12:52:13Z</time>
      </trkpt>
      <trkpt lat="43.21528" lon="6.39417">
        <ele>364</ele>
        <time>2019-03-24T12:52:23Z</time>
      </trkpt>
      <trkpt lat="43.21526" lon="6.39431">
        <ele>365.4</ele>
        <time>2019-03-24T12:52:35Z</time>
      </trkpt>
      <trkpt lat="43.21529" lon="6.39444">
        <ele>366.3</ele>
        <time>2019-03-24T12:52:44Z</time>
      </trkpt>
      <trkpt lat="43.21529" lon="6.39457">
        <ele>367.2</ele>
        <time>2019-03-24T12:52:53Z</time>
      </trkpt>
      <trkpt lat="43.21528" lon="6.39471">
        <ele>368.4</ele>
        <time>2019-03-24T12:53:02Z</time>
      </trkpt>
      <trkpt lat="43.21528" lon="6.39484">
        <ele>369</ele>
        <time>2019-03-24T12:53:10Z</time>
      </trkpt>
      <trkpt lat="43.21531" lon="6.39496">
        <ele>369.6</ele>
        <time>2019-03-24T12:53:19Z</time>
      </trkpt>
      <trkpt lat="43.21537" lon="6.39507">
        <ele>370.3</ele>
        <time>2019-03-24T12:53:28Z</time>
      </trkpt>
      <trkpt lat="43.21543" lon="6.39517">
        <ele>371</ele>
        <time>2019-03-24T12:53:37Z</time>
      </trkpt>
      <trkpt lat="43.21551" lon="6.39526">
        <ele>371.9</ele>
        <time>2019-03-24T12:53:47Z</time>
      </trkpt>
      <trkpt lat="43.21559" lon="6.39533">
        <ele>372.5</ele>
        <time>2019-03-24T12:53:56Z</time>
      </trkpt>
      <trkpt lat="43.21566" lon="6.3954">
        <ele>373</ele>
        <time>2019-03-24T12:54:05Z</time>
      </trkpt>
      <trkpt lat="43.21574" lon="6.39547">
        <ele>373.3</ele>
        <time>2019-03-24T12:54:14Z</time>
      </trkpt>
      <trkpt lat="43.21582" lon="6.39554">
        <ele>373.8</ele>
        <time>2019-03-24T12:54:24Z</time>
      </trkpt>
      <trkpt lat="43.21588" lon="6.39564">
        <ele>374.4</ele>
        <time>2019-03-24T12:54:33Z</time>
      </trkpt>
      <trkpt lat="43.21596" lon="6.39571">
        <ele>375</ele>
        <time>2019-03-24T12:54:42Z</time>
      </trkpt>
      <trkpt lat="43.21604" lon="6.39578">
        <ele>375.8</ele>
        <time>2019-03-24T12:54:51Z</time>
      </trkpt>
      <trkpt lat="43.21612" lon="6.39586">
        <ele>376.5</ele>
        <time>2019-03-24T12:54:59Z</time>
      </trkpt>
      <trkpt lat="43.2162" lon="6.39594">
        <ele>377.7</ele>
        <time>2019-03-24T12:55:10Z</time>
      </trkpt>
      <trkpt lat="43.21628" lon="6.396">
        <ele>378.3</ele>
        <time>2019-03-24T12:55:19Z</time>
      </trkpt>
      <trkpt lat="43.21638" lon="6.39605">
        <ele>378.8</ele>
        <time>2019-03-24T12:55:27Z</time>
      </trkpt>
      <trkpt lat="43.21648" lon="6.39609">
        <ele>379.5</ele>
        <time>2019-03-24T12:55:36Z</time>
      </trkpt>
      <trkpt lat="43.21657" lon="6.39611">
        <ele>380</ele>
        <time>2019-03-24T12:55:44Z</time>
      </trkpt>
      <trkpt lat="43.21668" lon="6.39611">
        <ele>380.8</ele>
        <time>2019-03-24T12:55:53Z</time>
      </trkpt>
      <trkpt lat="43.21677" lon="6.39613">
        <ele>381.5</ele>
        <time>2019-03-24T12:56:02Z</time>
      </trkpt>
      <trkpt lat="43.21686" lon="6.39613">
        <ele>382.1</ele>
        <time>2019-03-24T12:56:11Z</time>
      </trkpt>
      <trkpt lat="43.21696" lon="6.39614">
        <ele>382.7</ele>
        <time>2019-03-24T12:56:20Z</time>
      </trkpt>
      <trkpt lat="43.21705" lon="6.39614">
        <ele>383.2</ele>
        <time>2019-03-24T12:56:29Z</time>
      </trkpt>
      <trkpt lat="43.21715" lon="6.39614">
        <ele>384</ele>
        <time>2019-03-24T12:56:38Z</time>
      </trkpt>
      <trkpt lat="43.21723" lon="6.3961">
        <ele>384.8</ele>
        <time>2019-03-24T12:56:47Z</time>
      </trkpt>
      <trkpt lat="43.21733" lon="6.39606">
        <ele>385.8</ele>
        <time>2019-03-24T12:56:56Z</time>
      </trkpt>
      <trkpt lat="43.21743" lon="6.39604">
        <ele>386.4</ele>
        <time>2019-03-24T12:57:05Z</time>
      </trkpt>
      <trkpt lat="43.21751" lon="6.39609">
        <ele>387</ele>
        <time>2019-03-24T12:57:14Z</time>
      </trkpt>
      <trkpt lat="43.21759" lon="6.39619">
        <ele>388.1</ele>
        <time>2019-03-24T12:57:25Z</time>
      </trkpt>
      <trkpt lat="43.21767" lon="6.39625">
        <ele>388.9</ele>
        <time>2019-03-24T12:57:35Z</time>
      </trkpt>
      <trkpt lat="43.21775" lon="6.39632">
        <ele>389.5</ele>
        <time>2019-03-24T12:57:44Z</time>
      </trkpt>
      <trkpt lat="43.21783" lon="6.39639">
        <ele>389.9</ele>
        <time>2019-03-24T12:57:53Z</time>
      </trkpt>
      <trkpt lat="43.21791" lon="6.39646">
        <ele>390.3</ele>
        <time>2019-03-24T12:58:03Z</time>
      </trkpt>
      <trkpt lat="43.21799" lon="6.39651">
        <ele>391</ele>
        <time>2019-03-24T12:58:13Z</time>
      </trkpt>
      <trkpt lat="43.21808" lon="6.39655">
        <ele>391.9</ele>
        <time>2019-03-24T12:58:22Z</time>
      </trkpt>
      <trkpt lat="43.21818" lon="6.39656">
        <ele>392.5</ele>
        <time>2019-03-24T12:58:31Z</time>
      </trkpt>
      <trkpt lat="43.21827" lon="6.3966">
        <ele>393.3</ele>
        <time>2019-03-24T12:58:40Z</time>
      </trkpt>
      <trkpt lat="43.21836" lon="6.39663">
        <ele>394</ele>
        <time>2019-03-24T12:58:48Z</time>
      </trkpt>
      <trkpt lat="43.21844" lon="6.39671">
        <ele>394.7</ele>
        <time>2019-03-24T12:58:57Z</time>
      </trkpt>
      <trkpt lat="43.21853" lon="6.39674">
        <ele>395.2</ele>
        <time>2019-03-24T12:59:07Z</time>
      </trkpt>
      <trkpt lat="43.2186" lon="6.39683">
        <ele>395.6</ele>
        <time>2019-03-24T12:59:16Z</time>
      </trkpt>
      <trkpt lat="43.21867" lon="6.39691">
        <ele>396.4</ele>
        <time>2019-03-24T12:59:27Z</time>
      </trkpt>
      <trkpt lat="43.21875" lon="6.39698">
        <ele>397.3</ele>
        <time>2019-03-24T12:59:36Z</time>
      </trkpt>
      <trkpt lat="43.21883" lon="6.39704">
        <ele>398.1</ele>
        <time>2019-03-24T12:59:45Z</time>
      </trkpt>
      <trkpt lat="43.21889" lon="6.39714">
        <ele>399.6</ele>
        <time>2019-03-24T13:00:06Z</time>
      </trkpt>
      <trkpt lat="43.21897" lon="6.3972">
        <ele>401.1</ele>
        <time>2019-03-24T13:01:50Z</time>
      </trkpt>
      <trkpt lat="43.21904" lon="6.39729">
        <ele>401.6</ele>
        <time>2019-03-24T13:02:02Z</time>
      </trkpt>
      <trkpt lat="43.21906" lon="6.39741">
        <ele>402.2</ele>
        <time>2019-03-24T13:02:15Z</time>
      </trkpt>
      <trkpt lat="43.2191" lon="6.39753">
        <ele>403</ele>
        <time>2019-03-24T13:02:28Z</time>
      </trkpt>
      <trkpt lat="43.21912" lon="6.39766">
        <ele>403.6</ele>
        <time>2019-03-24T13:02:40Z</time>
      </trkpt>
      <trkpt lat="43.21916" lon="6.39778">
        <ele>404.3</ele>
        <time>2019-03-24T13:02:54Z</time>
      </trkpt>
      <trkpt lat="43.21919" lon="6.3979">
        <ele>404.8</ele>
        <time>2019-03-24T13:03:05Z</time>
      </trkpt>
      <trkpt lat="43.2192" lon="6.39803">
        <ele>405.2</ele>
        <time>2019-03-24T13:03:15Z</time>
      </trkpt>
      <trkpt lat="43.21925" lon="6.39814">
        <ele>405.8</ele>
        <time>2019-03-24T13:03:25Z</time>
      </trkpt>
      <trkpt lat="43.2193" lon="6.39825">
        <ele>406.4</ele>
        <time>2019-03-24T13:03:36Z</time>
      </trkpt>
      <trkpt lat="43.21934" lon="6.39837">
        <ele>406.8</ele>
        <time>2019-03-24T13:03:45Z</time>
      </trkpt>
      <trkpt lat="43.21938" lon="6.3985">
        <ele>407.5</ele>
        <time>2019-03-24T13:03:56Z</time>
      </trkpt>
      <trkpt lat="43.21942" lon="6.39862">
        <ele>408.5</ele>
        <time>2019-03-24T13:04:06Z</time>
      </trkpt>
      <trkpt lat="43.21951" lon="6.39869">
        <ele>409.4</ele>
        <time>2019-03-24T13:04:16Z</time>
      </trkpt>
      <trkpt lat="43.2196" lon="6.39873">
        <ele>410.3</ele>
        <time>2019-03-24T13:04:25Z</time>
      </trkpt>
      <trkpt lat="43.21969" lon="6.3987">
        <ele>411</ele>
        <time>2019-03-24T13:04:34Z</time>
      </trkpt>
      <trkpt lat="43.21978" lon="6.39867">
        <ele>411.5</ele>
        <time>2019-03-24T13:04:43Z</time>
      </trkpt>
      <trkpt lat="43.21986" lon="6.39862">
        <ele>412.1</ele>
        <time>2019-03-24T13:04:52Z</time>
      </trkpt>
      <trkpt lat="43.21996" lon="6.39864">
        <ele>413</ele>
        <time>2019-03-24T13:05:03Z</time>
      </trkpt>
      <trkpt lat="43.22004" lon="6.39871">
        <ele>413.7</ele>
        <time>2019-03-24T13:05:14Z</time>
      </trkpt>
      <trkpt lat="43.22013" lon="6.39876">
        <ele>414.7</ele>
        <time>2019-03-24T13:05:24Z</time>
      </trkpt>
      <trkpt lat="43.22023" lon="6.39876">
        <ele>415.3</ele>
        <time>2019-03-24T13:05:34Z</time>
      </trkpt>
      <trkpt lat="43.22032" lon="6.39873">
        <ele>416</ele>
        <time>2019-03-24T13:05:44Z</time>
      </trkpt>
      <trkpt lat="43.2204" lon="6.39865">
        <ele>416.8</ele>
        <time>2019-03-24T13:05:53Z</time>
      </trkpt>
      <trkpt lat="43.22048" lon="6.39858">
        <ele>417.5</ele>
        <time>2019-03-24T13:06:03Z</time>
      </trkpt>
      <trkpt lat="43.22055" lon="6.3985">
        <ele>418.1</ele>
        <time>2019-03-24T13:06:12Z</time>
      </trkpt>
      <trkpt lat="43.22063" lon="6.39841">
        <ele>418.6</ele>
        <time>2019-03-24T13:06:21Z</time>
      </trkpt>
      <trkpt lat="43.2207" lon="6.39833">
        <ele>419.3</ele>
        <time>2019-03-24T13:06:31Z</time>
      </trkpt>
      <trkpt lat="43.22078" lon="6.39826">
        <ele>419.8</ele>
        <time>2019-03-24T13:06:39Z</time>
      </trkpt>
      <trkpt lat="43.22086" lon="6.39819">
        <ele>420.6</ele>
        <time>2019-03-24T13:06:49Z</time>
      </trkpt>
      <trkpt lat="43.22093" lon="6.39812">
        <ele>421.3</ele>
        <time>2019-03-24T13:07:00Z</time>
      </trkpt>
      <trkpt lat="43.22102" lon="6.39806">
        <ele>422</ele>
        <time>2019-03-24T13:07:10Z</time>
      </trkpt>
      <trkpt lat="43.2211" lon="6.39799">
        <ele>423</ele>
        <time>2019-03-24T13:07:21Z</time>
      </trkpt>
      <trkpt lat="43.22118" lon="6.39794">
        <ele>424.1</ele>
        <time>2019-03-24T13:07:33Z</time>
      </trkpt>
      <trkpt lat="43.22127" lon="6.39797">
        <ele>425.1</ele>
        <time>2019-03-24T13:07:42Z</time>
      </trkpt>
      <trkpt lat="43.22137" lon="6.39797">
        <ele>425.8</ele>
        <time>2019-03-24T13:07:53Z</time>
      </trkpt>
      <trkpt lat="43.22144" lon="6.3979">
        <ele>426.4</ele>
        <time>2019-03-24T13:08:04Z</time>
      </trkpt>
      <trkpt lat="43.22151" lon="6.39781">
        <ele>427.1</ele>
        <time>2019-03-24T13:08:13Z</time>
      </trkpt>
      <trkpt lat="43.2216" lon="6.39775">
        <ele>428.2</ele>
        <time>2019-03-24T13:08:25Z</time>
      </trkpt>
      <trkpt lat="43.22169" lon="6.39769">
        <ele>429.1</ele>
        <time>2019-03-24T13:08:36Z</time>
      </trkpt>
      <trkpt lat="43.22178" lon="6.39768">
        <ele>429.7</ele>
        <time>2019-03-24T13:08:44Z</time>
      </trkpt>
      <trkpt lat="43.22188" lon="6.39765">
        <ele>430.4</ele>
        <time>2019-03-24T13:08:54Z</time>
      </trkpt>
      <trkpt lat="43.22197" lon="6.39763">
        <ele>430.9</ele>
        <time>2019-03-24T13:09:03Z</time>
      </trkpt>
      <trkpt lat="43.22206" lon="6.39758">
        <ele>431.5</ele>
        <time>2019-03-24T13:09:16Z</time>
      </trkpt>
      <trkpt lat="43.22214" lon="6.39765">
        <ele>432.5</ele>
        <time>2019-03-24T13:09:59Z</time>
      </trkpt>
      <trkpt lat="43.2222" lon="6.39774">
        <ele>433.3</ele>
        <time>2019-03-24T13:10:17Z</time>
      </trkpt>
      <trkpt lat="43.22229" lon="6.39778">
        <ele>434.1</ele>
        <time>2019-03-24T13:10:30Z</time>
      </trkpt>
      <trkpt lat="43.22221" lon="6.39784">
        <ele>435.3</ele>
        <time>2019-03-24T13:10:50Z</time>
      </trkpt>
      <trkpt lat="43.22211" lon="6.39786">
        <ele>436.3</ele>
        <time>2019-03-24T13:11:02Z</time>
      </trkpt>
      <trkpt lat="43.22203" lon="6.39794">
        <ele>436.9</ele>
        <time>2019-03-24T13:11:12Z</time>
      </trkpt>
      <trkpt lat="43.22195" lon="6.39802">
        <ele>437.5</ele>
        <time>2019-03-24T13:11:22Z</time>
      </trkpt>
      <trkpt lat="43.22189" lon="6.39812">
        <ele>438.2</ele>
        <time>2019-03-24T13:11:31Z</time>
      </trkpt>
      <trkpt lat="43.22185" lon="6.39823">
        <ele>439.1</ele>
        <time>2019-03-24T13:11:43Z</time>
      </trkpt>
      <trkpt lat="43.22182" lon="6.39836">
        <ele>439.7</ele>
        <time>2019-03-24T13:11:53Z</time>
      </trkpt>
      <trkpt lat="43.22179" lon="6.39848">
        <ele>440.3</ele>
        <time>2019-03-24T13:12:02Z</time>
      </trkpt>
      <trkpt lat="43.22176" lon="6.3986">
        <ele>440.9</ele>
        <time>2019-03-24T13:12:12Z</time>
      </trkpt>
      <trkpt lat="43.22174" lon="6.39872">
        <ele>441.9</ele>
        <time>2019-03-24T13:12:22Z</time>
      </trkpt>
      <trkpt lat="43.22173" lon="6.39885">
        <ele>442.6</ele>
        <time>2019-03-24T13:12:32Z</time>
      </trkpt>
      <trkpt lat="43.22173" lon="6.39898">
        <ele>443.2</ele>
        <time>2019-03-24T13:12:42Z</time>
      </trkpt>
      <trkpt lat="43.22174" lon="6.39911">
        <ele>443.7</ele>
        <time>2019-03-24T13:12:52Z</time>
      </trkpt>
      <trkpt lat="43.22178" lon="6.39923">
        <ele>444.1</ele>
        <time>2019-03-24T13:13:02Z</time>
      </trkpt>
      <trkpt lat="43.22183" lon="6.39933">
        <ele>444.6</ele>
        <time>2019-03-24T13:13:11Z</time>
      </trkpt>
      <trkpt lat="43.2219" lon="6.39942">
        <ele>445.5</ele>
        <time>2019-03-24T13:13:20Z</time>
      </trkpt>
      <trkpt lat="43.22197" lon="6.3995">
        <ele>446.2</ele>
        <time>2019-03-24T13:13:29Z</time>
      </trkpt>
      <trkpt lat="43.22206" lon="6.39953">
        <ele>446.8</ele>
        <time>2019-03-24T13:13:39Z</time>
      </trkpt>
      <trkpt lat="43.22215" lon="6.39957">
        <ele>447.4</ele>
        <time>2019-03-24T13:13:50Z</time>
      </trkpt>
      <trkpt lat="43.22224" lon="6.39963">
        <ele>448.2</ele>
        <time>2019-03-24T13:14:00Z</time>
      </trkpt>
      <trkpt lat="43.22231" lon="6.39971">
        <ele>449</ele>
        <time>2019-03-24T13:14:10Z</time>
      </trkpt>
      <trkpt lat="43.22235" lon="6.39983">
        <ele>449.9</ele>
        <time>2019-03-24T13:14:21Z</time>
      </trkpt>
      <trkpt lat="43.22235" lon="6.39996">
        <ele>450.4</ele>
        <time>2019-03-24T13:14:33Z</time>
      </trkpt>
      <trkpt lat="43.2223" lon="6.40006">
        <ele>451.1</ele>
        <time>2019-03-24T13:14:44Z</time>
      </trkpt>
      <trkpt lat="43.22224" lon="6.40017">
        <ele>451.8</ele>
        <time>2019-03-24T13:14:54Z</time>
      </trkpt>
      <trkpt lat="43.22219" lon="6.40028">
        <ele>452.3</ele>
        <time>2019-03-24T13:15:03Z</time>
      </trkpt>
      <trkpt lat="43.22215" lon="6.4004">
        <ele>453</ele>
        <time>2019-03-24T13:15:12Z</time>
      </trkpt>
      <trkpt lat="43.22214" lon="6.40053">
        <ele>453.7</ele>
        <time>2019-03-24T13:15:23Z</time>
      </trkpt>
      <trkpt lat="43.22215" lon="6.40066">
        <ele>454.4</ele>
        <time>2019-03-24T13:15:34Z</time>
      </trkpt>
      <trkpt lat="43.2222" lon="6.40077">
        <ele>455.3</ele>
        <time>2019-03-24T13:15:44Z</time>
      </trkpt>
      <trkpt lat="43.22225" lon="6.40088">
        <ele>456</ele>
        <time>2019-03-24T13:15:54Z</time>
      </trkpt>
      <trkpt lat="43.22232" lon="6.40097">
        <ele>456.7</ele>
        <time>2019-03-24T13:16:03Z</time>
      </trkpt>
      <trkpt lat="43.2224" lon="6.40104">
        <ele>457.9</ele>
        <time>2019-03-24T13:16:13Z</time>
      </trkpt>
      <trkpt lat="43.22248" lon="6.40111">
        <ele>458.8</ele>
        <time>2019-03-24T13:16:24Z</time>
      </trkpt>
      <trkpt lat="43.22256" lon="6.40117">
        <ele>459.7</ele>
        <time>2019-03-24T13:16:36Z</time>
      </trkpt>
      <trkpt lat="43.22266" lon="6.40121">
        <ele>460.7</ele>
        <time>2019-03-24T13:16:48Z</time>
      </trkpt>
      <trkpt lat="43.22274" lon="6.40128">
        <ele>462.2</ele>
        <time>2019-03-24T13:17:05Z</time>
      </trkpt>
      <trkpt lat="43.2228" lon="6.40138">
        <ele>462.8</ele>
        <time>2019-03-24T13:17:16Z</time>
      </trkpt>
      <trkpt lat="43.2228" lon="6.40151">
        <ele>463.5</ele>
        <time>2019-03-24T13:17:27Z</time>
      </trkpt>
      <trkpt lat="43.22284" lon="6.40163">
        <ele>464.8</ele>
        <time>2019-03-24T13:20:52Z</time>
      </trkpt>
      <trkpt lat="43.22288" lon="6.40175">
        <ele>465.2</ele>
        <time>2019-03-24T13:21:02Z</time>
      </trkpt>
      <trkpt lat="43.22293" lon="6.40187">
        <ele>465.7</ele>
        <time>2019-03-24T13:21:12Z</time>
      </trkpt>
      <trkpt lat="43.22298" lon="6.40198">
        <ele>466.1</ele>
        <time>2019-03-24T13:21:22Z</time>
      </trkpt>
      <trkpt lat="43.22302" lon="6.40209">
        <ele>467</ele>
        <time>2019-03-24T13:21:33Z</time>
      </trkpt>
      <trkpt lat="43.22304" lon="6.40222">
        <ele>467.9</ele>
        <time>2019-03-24T13:21:44Z</time>
      </trkpt>
      <trkpt lat="43.22302" lon="6.40235">
        <ele>468.8</ele>
        <time>2019-03-24T13:21:55Z</time>
      </trkpt>
      <trkpt lat="43.22296" lon="6.40246">
        <ele>469.4</ele>
        <time>2019-03-24T13:22:06Z</time>
      </trkpt>
      <trkpt lat="43.22289" lon="6.40254">
        <ele>469.6</ele>
        <time>2019-03-24T13:22:15Z</time>
      </trkpt>
      <trkpt lat="43.22283" lon="6.40264">
        <ele>469.8</ele>
        <time>2019-03-24T13:22:24Z</time>
      </trkpt>
      <trkpt lat="43.22277" lon="6.40274">
        <ele>470.2</ele>
        <time>2019-03-24T13:22:33Z</time>
      </trkpt>
      <trkpt lat="43.22271" lon="6.40284">
        <ele>471</ele>
        <time>2019-03-24T13:22:44Z</time>
      </trkpt>
      <trkpt lat="43.22267" lon="6.40296">
        <ele>471.4</ele>
        <time>2019-03-24T13:22:54Z</time>
      </trkpt>
      <trkpt lat="43.22265" lon="6.40309">
        <ele>471.7</ele>
        <time>2019-03-24T13:23:04Z</time>
      </trkpt>
      <trkpt lat="43.22263" lon="6.40321">
        <ele>471.9</ele>
        <time>2019-03-24T13:23:14Z</time>
      </trkpt>
      <trkpt lat="43.22262" lon="6.40335">
        <ele>472.2</ele>
        <time>2019-03-24T13:23:25Z</time>
      </trkpt>
      <trkpt lat="43.22263" lon="6.40347">
        <ele>472.8</ele>
        <time>2019-03-24T13:23:35Z</time>
      </trkpt>
      <trkpt lat="43.22264" lon="6.40361">
        <ele>473.4</ele>
        <time>2019-03-24T13:23:45Z</time>
      </trkpt>
      <trkpt lat="43.22265" lon="6.40374">
        <ele>473.9</ele>
        <time>2019-03-24T13:23:55Z</time>
      </trkpt>
      <trkpt lat="43.22266" lon="6.40388">
        <ele>474.7</ele>
        <time>2019-03-24T13:24:05Z</time>
      </trkpt>
      <trkpt lat="43.22268" lon="6.404">
        <ele>476</ele>
        <time>2019-03-24T13:24:19Z</time>
      </trkpt>
      <trkpt lat="43.22269" lon="6.40413">
        <ele>477</ele>
        <time>2019-03-24T13:24:30Z</time>
      </trkpt>
      <trkpt lat="43.22271" lon="6.40425">
        <ele>477.7</ele>
        <time>2019-03-24T13:24:40Z</time>
      </trkpt>
      <trkpt lat="43.22276" lon="6.40437">
        <ele>478.7</ele>
        <time>2019-03-24T13:24:50Z</time>
      </trkpt>
      <trkpt lat="43.22281" lon="6.40448">
        <ele>479.6</ele>
        <time>2019-03-24T13:25:00Z</time>
      </trkpt>
      <trkpt lat="43.22286" lon="6.4046">
        <ele>480.6</ele>
        <time>2019-03-24T13:25:10Z</time>
      </trkpt>
      <trkpt lat="43.22292" lon="6.40469">
        <ele>481.7</ele>
        <time>2019-03-24T13:25:18Z</time>
      </trkpt>
      <trkpt lat="43.22299" lon="6.40478">
        <ele>483.2</ele>
        <time>2019-03-24T13:25:29Z</time>
      </trkpt>
      <trkpt lat="43.22304" lon="6.40489">
        <ele>484.1</ele>
        <time>2019-03-24T13:25:38Z</time>
      </trkpt>
      <trkpt lat="43.2231" lon="6.40499">
        <ele>484.9</ele>
        <time>2019-03-24T13:25:48Z</time>
      </trkpt>
      <trkpt lat="43.22315" lon="6.4051">
        <ele>485.5</ele>
        <time>2019-03-24T13:26:00Z</time>
      </trkpt>
      <trkpt lat="43.22318" lon="6.40522">
        <ele>485.8</ele>
        <time>2019-03-24T13:26:13Z</time>
      </trkpt>
      <trkpt lat="43.2232" lon="6.40534">
        <ele>486</ele>
        <time>2019-03-24T13:26:23Z</time>
      </trkpt>
      <trkpt lat="43.2232" lon="6.40547">
        <ele>486.2</ele>
        <time>2019-03-24T13:26:32Z</time>
      </trkpt>
      <trkpt lat="43.22322" lon="6.4056">
        <ele>486.5</ele>
        <time>2019-03-24T13:26:43Z</time>
      </trkpt>
      <trkpt lat="43.22323" lon="6.40572">
        <ele>487</ele>
        <time>2019-03-24T13:26:52Z</time>
      </trkpt>
      <trkpt lat="43.22325" lon="6.40584">
        <ele>487.5</ele>
        <time>2019-03-24T13:27:01Z</time>
      </trkpt>
      <trkpt lat="43.22329" lon="6.40597">
        <ele>488.4</ele>
        <time>2019-03-24T13:27:11Z</time>
      </trkpt>
      <trkpt lat="43.22333" lon="6.40609">
        <ele>489.2</ele>
        <time>2019-03-24T13:27:21Z</time>
      </trkpt>
      <trkpt lat="43.22338" lon="6.4062">
        <ele>489.9</ele>
        <time>2019-03-24T13:27:30Z</time>
      </trkpt>
      <trkpt lat="43.22344" lon="6.4063">
        <ele>490.9</ele>
        <time>2019-03-24T13:27:47Z</time>
      </trkpt>
      <trkpt lat="43.2235" lon="6.40639">
        <ele>491.6</ele>
        <time>2019-03-24T13:27:56Z</time>
      </trkpt>
      <trkpt lat="43.22357" lon="6.40647">
        <ele>492.6</ele>
        <time>2019-03-24T13:28:07Z</time>
      </trkpt>
      <trkpt lat="43.22364" lon="6.40656">
        <ele>493.4</ele>
        <time>2019-03-24T13:28:19Z</time>
      </trkpt>
      <trkpt lat="43.22373" lon="6.40659">
        <ele>494</ele>
        <time>2019-03-24T13:28:29Z</time>
      </trkpt>
      <trkpt lat="43.22383" lon="6.40662">
        <ele>494.5</ele>
        <time>2019-03-24T13:28:38Z</time>
      </trkpt>
      <trkpt lat="43.22392" lon="6.40666">
        <ele>495.1</ele>
        <time>2019-03-24T13:28:48Z</time>
      </trkpt>
      <trkpt lat="43.22401" lon="6.40669">
        <ele>495.6</ele>
        <time>2019-03-24T13:28:57Z</time>
      </trkpt>
      <trkpt lat="43.2241" lon="6.40675">
        <ele>495.9</ele>
        <time>2019-03-24T13:29:06Z</time>
      </trkpt>
      <trkpt lat="43.22418" lon="6.40683">
        <ele>496.3</ele>
        <time>2019-03-24T13:29:16Z</time>
      </trkpt>
      <trkpt lat="43.22422" lon="6.40693">
        <ele>496.7</ele>
        <time>2019-03-24T13:29:25Z</time>
      </trkpt>
      <trkpt lat="43.22428" lon="6.40702">
        <ele>497.2</ele>
        <time>2019-03-24T13:29:36Z</time>
      </trkpt>
      <trkpt lat="43.22437" lon="6.40705">
        <ele>498.5</ele>
        <time>2019-03-24T13:36:52Z</time>
      </trkpt>
      <trkpt lat="43.22439" lon="6.40718">
        <ele>498.6</ele>
        <time>2019-03-24T13:37:29Z</time>
      </trkpt>
      <trkpt lat="43.22436" lon="6.4073">
        <ele>498.8</ele>
        <time>2019-03-24T13:37:40Z</time>
      </trkpt>
      <trkpt lat="43.22435" lon="6.40743">
        <ele>499</ele>
        <time>2019-03-24T13:37:49Z</time>
      </trkpt>
      <trkpt lat="43.22433" lon="6.40757">
        <ele>499.1</ele>
        <time>2019-03-24T13:37:59Z</time>
      </trkpt>
      <trkpt lat="43.22429" lon="6.40768">
        <ele>499.1</ele>
        <time>2019-03-24T13:38:08Z</time>
      </trkpt>
      <trkpt lat="43.22425" lon="6.4078">
        <ele>499</ele>
        <time>2019-03-24T13:38:19Z</time>
      </trkpt>
      <trkpt lat="43.2242" lon="6.40791">
        <ele>499</ele>
        <time>2019-03-24T13:38:26Z</time>
      </trkpt>
      <trkpt lat="43.2242" lon="6.40805">
        <ele>498.9</ele>
        <time>2019-03-24T13:38:34Z</time>
      </trkpt>
      <trkpt lat="43.22417" lon="6.40818">
        <ele>498.7</ele>
        <time>2019-03-24T13:38:41Z</time>
      </trkpt>
      <trkpt lat="43.22421" lon="6.4083">
        <ele>498.5</ele>
        <time>2019-03-24T13:38:49Z</time>
      </trkpt>
      <trkpt lat="43.2243" lon="6.40833">
        <ele>498.4</ele>
        <time>2019-03-24T13:38:59Z</time>
      </trkpt>
      <trkpt lat="43.2244" lon="6.40829">
        <ele>498.3</ele>
        <time>2019-03-24T13:39:07Z</time>
      </trkpt>
      <trkpt lat="43.22449" lon="6.40824">
        <ele>498.4</ele>
        <time>2019-03-24T13:39:14Z</time>
      </trkpt>
      <trkpt lat="43.22458" lon="6.40824">
        <ele>498.5</ele>
        <time>2019-03-24T13:39:23Z</time>
      </trkpt>
      <trkpt lat="43.22467" lon="6.40824">
        <ele>498.6</ele>
        <time>2019-03-24T13:39:35Z</time>
      </trkpt>
      <trkpt lat="43.22474" lon="6.40833">
        <ele>498.5</ele>
        <time>2019-03-24T13:39:44Z</time>
      </trkpt>
      <trkpt lat="43.22481" lon="6.40842">
        <ele>498.3</ele>
        <time>2019-03-24T13:39:52Z</time>
      </trkpt>
      <trkpt lat="43.22484" lon="6.40854">
        <ele>498.1</ele>
        <time>2019-03-24T13:40:01Z</time>
      </trkpt>
      <trkpt lat="43.2249" lon="6.40864">
        <ele>497.8</ele>
        <time>2019-03-24T13:40:10Z</time>
      </trkpt>
      <trkpt lat="43.22492" lon="6.40876">
        <ele>497.1</ele>
        <time>2019-03-24T13:40:20Z</time>
      </trkpt>
      <trkpt lat="43.22494" lon="6.40889">
        <ele>496.5</ele>
        <time>2019-03-24T13:40:29Z</time>
      </trkpt>
      <trkpt lat="43.22501" lon="6.40897">
        <ele>496</ele>
        <time>2019-03-24T13:40:36Z</time>
      </trkpt>
      <trkpt lat="43.22511" lon="6.40901">
        <ele>495.3</ele>
        <time>2019-03-24T13:40:44Z</time>
      </trkpt>
      <trkpt lat="43.2252" lon="6.40908">
        <ele>494.5</ele>
        <time>2019-03-24T13:40:52Z</time>
      </trkpt>
      <trkpt lat="43.2253" lon="6.4091">
        <ele>493.6</ele>
        <time>2019-03-24T13:41:01Z</time>
      </trkpt>
      <trkpt lat="43.22539" lon="6.40914">
        <ele>492.9</ele>
        <time>2019-03-24T13:41:10Z</time>
      </trkpt>
      <trkpt lat="43.22549" lon="6.40916">
        <ele>492.2</ele>
        <time>2019-03-24T13:41:20Z</time>
      </trkpt>
      <trkpt lat="43.22558" lon="6.40918">
        <ele>491.9</ele>
        <time>2019-03-24T13:41:29Z</time>
      </trkpt>
      <trkpt lat="43.22567" lon="6.40921">
        <ele>491.6</ele>
        <time>2019-03-24T13:41:39Z</time>
      </trkpt>
      <trkpt lat="43.22577" lon="6.40922">
        <ele>491.3</ele>
        <time>2019-03-24T13:41:51Z</time>
      </trkpt>
      <trkpt lat="43.22586" lon="6.40922">
        <ele>490.7</ele>
        <time>2019-03-24T13:42:36Z</time>
      </trkpt>
      <trkpt lat="43.22596" lon="6.40923">
        <ele>490.5</ele>
        <time>2019-03-24T13:44:07Z</time>
      </trkpt>
      <trkpt lat="43.22605" lon="6.40925">
        <ele>490.6</ele>
        <time>2019-03-24T13:44:18Z</time>
      </trkpt>
      <trkpt lat="43.22614" lon="6.40928">
        <ele>490.6</ele>
        <time>2019-03-24T13:44:28Z</time>
      </trkpt>
      <trkpt lat="43.22623" lon="6.40929">
        <ele>490.7</ele>
        <time>2019-03-24T13:44:38Z</time>
      </trkpt>
      <trkpt lat="43.22633" lon="6.4093">
        <ele>491.4</ele>
        <time>2019-03-24T13:45:12Z</time>
      </trkpt>
      <trkpt lat="43.22642" lon="6.40928">
        <ele>490</ele>
        <time>2019-03-24T13:45:49Z</time>
      </trkpt>
      <trkpt lat="43.22651" lon="6.40924">
        <ele>489.5</ele>
        <time>2019-03-24T13:46:01Z</time>
      </trkpt>
      <trkpt lat="43.2266" lon="6.40921">
        <ele>488.8</ele>
        <time>2019-03-24T13:46:11Z</time>
      </trkpt>
      <trkpt lat="43.22669" lon="6.40915">
        <ele>488.4</ele>
        <time>2019-03-24T13:46:20Z</time>
      </trkpt>
      <trkpt lat="43.22678" lon="6.40909">
        <ele>487.8</ele>
        <time>2019-03-24T13:46:28Z</time>
      </trkpt>
      <trkpt lat="43.22685" lon="6.40902">
        <ele>487.1</ele>
        <time>2019-03-24T13:46:38Z</time>
      </trkpt>
      <trkpt lat="43.22693" lon="6.40894">
        <ele>486.4</ele>
        <time>2019-03-24T13:46:48Z</time>
      </trkpt>
      <trkpt lat="43.227" lon="6.40886">
        <ele>485.7</ele>
        <time>2019-03-24T13:46:58Z</time>
      </trkpt>
      <trkpt lat="43.22705" lon="6.40875">
        <ele>484.8</ele>
        <time>2019-03-24T13:47:07Z</time>
      </trkpt>
      <trkpt lat="43.2271" lon="6.40863">
        <ele>483.5</ele>
        <time>2019-03-24T13:47:33Z</time>
      </trkpt>
      <trkpt lat="43.22708" lon="6.40851">
        <ele>483.1</ele>
        <time>2019-03-24T13:47:43Z</time>
      </trkpt>
      <trkpt lat="43.22706" lon="6.40837">
        <ele>482.6</ele>
        <time>2019-03-24T13:47:51Z</time>
      </trkpt>
      <trkpt lat="43.22704" lon="6.40824">
        <ele>482.1</ele>
        <time>2019-03-24T13:48:01Z</time>
      </trkpt>
      <trkpt lat="43.22704" lon="6.4081">
        <ele>481.6</ele>
        <time>2019-03-24T13:48:12Z</time>
      </trkpt>
      <trkpt lat="43.22701" lon="6.40797">
        <ele>481</ele>
        <time>2019-03-24T13:48:20Z</time>
      </trkpt>
      <trkpt lat="43.22702" lon="6.40784">
        <ele>480.3</ele>
        <time>2019-03-24T13:48:29Z</time>
      </trkpt>
      <trkpt lat="43.227" lon="6.40771">
        <ele>479.6</ele>
        <time>2019-03-24T13:48:38Z</time>
      </trkpt>
      <trkpt lat="43.22697" lon="6.40759">
        <ele>479</ele>
        <time>2019-03-24T13:48:50Z</time>
      </trkpt>
      <trkpt lat="43.22694" lon="6.40746">
        <ele>478.3</ele>
        <time>2019-03-24T13:48:58Z</time>
      </trkpt>
      <trkpt lat="43.22694" lon="6.40733">
        <ele>477</ele>
        <time>2019-03-24T13:49:10Z</time>
      </trkpt>
      <trkpt lat="43.22691" lon="6.40721">
        <ele>476.3</ele>
        <time>2019-03-24T13:49:19Z</time>
      </trkpt>
      <trkpt lat="43.22689" lon="6.40708">
        <ele>475.6</ele>
        <time>2019-03-24T13:49:26Z</time>
      </trkpt>
      <trkpt lat="43.2269" lon="6.40695">
        <ele>474.7</ele>
        <time>2019-03-24T13:49:35Z</time>
      </trkpt>
      <trkpt lat="43.22686" lon="6.40683">
        <ele>473.9</ele>
        <time>2019-03-24T13:49:44Z</time>
      </trkpt>
      <trkpt lat="43.22682" lon="6.40671">
        <ele>473.3</ele>
        <time>2019-03-24T13:49:53Z</time>
      </trkpt>
      <trkpt lat="43.22681" lon="6.40659">
        <ele>471.9</ele>
        <time>2019-03-24T13:50:06Z</time>
      </trkpt>
      <trkpt lat="43.22676" lon="6.40647">
        <ele>471.4</ele>
        <time>2019-03-24T13:50:14Z</time>
      </trkpt>
      <trkpt lat="43.22672" lon="6.40634">
        <ele>470.7</ele>
        <time>2019-03-24T13:50:25Z</time>
      </trkpt>
      <trkpt lat="43.22671" lon="6.40622">
        <ele>470.1</ele>
        <time>2019-03-24T13:50:34Z</time>
      </trkpt>
      <trkpt lat="43.2268" lon="6.40621">
        <ele>469.2</ele>
        <time>2019-03-24T13:50:48Z</time>
      </trkpt>
      <trkpt lat="43.22689" lon="6.40627">
        <ele>468.3</ele>
        <time>2019-03-24T13:51:01Z</time>
      </trkpt>
      <trkpt lat="43.22698" lon="6.40625">
        <ele>467.9</ele>
        <time>2019-03-24T13:51:09Z</time>
      </trkpt>
      <trkpt lat="43.22707" lon="6.40621">
        <ele>467.9</ele>
        <time>2019-03-24T13:51:18Z</time>
      </trkpt>
      <trkpt lat="43.22716" lon="6.40621">
        <ele>467.7</ele>
        <time>2019-03-24T13:51:29Z</time>
      </trkpt>
      <trkpt lat="43.22724" lon="6.40626">
        <ele>467.4</ele>
        <time>2019-03-24T13:51:39Z</time>
      </trkpt>
      <trkpt lat="43.22734" lon="6.40624">
        <ele>466.6</ele>
        <time>2019-03-24T13:51:46Z</time>
      </trkpt>
      <trkpt lat="43.22743" lon="6.40625">
        <ele>466.4</ele>
        <time>2019-03-24T13:51:53Z</time>
      </trkpt>
      <trkpt lat="43.22753" lon="6.40625">
        <ele>466.4</ele>
        <time>2019-03-24T13:52:01Z</time>
      </trkpt>
      <trkpt lat="43.22763" lon="6.40627">
        <ele>465.7</ele>
        <time>2019-03-24T13:52:13Z</time>
      </trkpt>
      <trkpt lat="43.22773" lon="6.40627">
        <ele>465.2</ele>
        <time>2019-03-24T13:52:22Z</time>
      </trkpt>
      <trkpt lat="43.22783" lon="6.40627">
        <ele>464.7</ele>
        <time>2019-03-24T13:52:30Z</time>
      </trkpt>
      <trkpt lat="43.22792" lon="6.40632">
        <ele>464.2</ele>
        <time>2019-03-24T13:52:41Z</time>
      </trkpt>
      <trkpt lat="43.22801" lon="6.40635">
        <ele>463.7</ele>
        <time>2019-03-24T13:52:51Z</time>
      </trkpt>
      <trkpt lat="43.22809" lon="6.40641">
        <ele>463.1</ele>
        <time>2019-03-24T13:53:02Z</time>
      </trkpt>
      <trkpt lat="43.22818" lon="6.40646">
        <ele>462.6</ele>
        <time>2019-03-24T13:53:14Z</time>
      </trkpt>
      <trkpt lat="43.22827" lon="6.40651">
        <ele>462.3</ele>
        <time>2019-03-24T13:53:21Z</time>
      </trkpt>
      <trkpt lat="43.22836" lon="6.40651">
        <ele>461.9</ele>
        <time>2019-03-24T13:53:28Z</time>
      </trkpt>
      <trkpt lat="43.22844" lon="6.40658">
        <ele>461.3</ele>
        <time>2019-03-24T13:53:38Z</time>
      </trkpt>
      <trkpt lat="43.22853" lon="6.40659">
        <ele>460.9</ele>
        <time>2019-03-24T13:53:46Z</time>
      </trkpt>
      <trkpt lat="43.22862" lon="6.40662">
        <ele>460.3</ele>
        <time>2019-03-24T13:54:01Z</time>
      </trkpt>
      <trkpt lat="43.22869" lon="6.4067">
        <ele>459.8</ele>
        <time>2019-03-24T13:54:07Z</time>
      </trkpt>
      <trkpt lat="43.22878" lon="6.40675">
        <ele>459.9</ele>
        <time>2019-03-24T13:54:16Z</time>
      </trkpt>
      <trkpt lat="43.22887" lon="6.40674">
        <ele>459.6</ele>
        <time>2019-03-24T13:54:22Z</time>
      </trkpt>
      <trkpt lat="43.22895" lon="6.40681">
        <ele>459</ele>
        <time>2019-03-24T13:54:32Z</time>
      </trkpt>
      <trkpt lat="43.22904" lon="6.40685">
        <ele>458.3</ele>
        <time>2019-03-24T13:54:42Z</time>
      </trkpt>
      <trkpt lat="43.22913" lon="6.40688">
        <ele>457.8</ele>
        <time>2019-03-24T13:54:52Z</time>
      </trkpt>
      <trkpt lat="43.22922" lon="6.40693">
        <ele>457.5</ele>
        <time>2019-03-24T13:55:00Z</time>
      </trkpt>
      <trkpt lat="43.22929" lon="6.40702">
        <ele>457.1</ele>
        <time>2019-03-24T13:55:08Z</time>
      </trkpt>
      <trkpt lat="43.22936" lon="6.4071">
        <ele>456.7</ele>
        <time>2019-03-24T13:55:17Z</time>
      </trkpt>
      <trkpt lat="43.22946" lon="6.40708">
        <ele>456.5</ele>
        <time>2019-03-24T13:55:24Z</time>
      </trkpt>
      <trkpt lat="43.22955" lon="6.40701">
        <ele>456.9</ele>
        <time>2019-03-24T13:55:31Z</time>
      </trkpt>
      <trkpt lat="43.22962" lon="6.40691">
        <ele>457.5</ele>
        <time>2019-03-24T13:55:41Z</time>
      </trkpt>
      <trkpt lat="43.22967" lon="6.40679">
        <ele>457.7</ele>
        <time>2019-03-24T13:55:48Z</time>
      </trkpt>
      <trkpt lat="43.22974" lon="6.40669">
        <ele>458.4</ele>
        <time>2019-03-24T13:55:57Z</time>
      </trkpt>
      <trkpt lat="43.22977" lon="6.40657">
        <ele>458.9</ele>
        <time>2019-03-24T13:56:06Z</time>
      </trkpt>
      <trkpt lat="43.2298" lon="6.40645">
        <ele>459.2</ele>
        <time>2019-03-24T13:56:14Z</time>
      </trkpt>
      <trkpt lat="43.22983" lon="6.40632">
        <ele>459.3</ele>
        <time>2019-03-24T13:56:23Z</time>
      </trkpt>
      <trkpt lat="43.22986" lon="6.40619">
        <ele>460.1</ele>
        <time>2019-03-24T13:56:35Z</time>
      </trkpt>
      <trkpt lat="43.22986" lon="6.40607">
        <ele>460.5</ele>
        <time>2019-03-24T13:56:42Z</time>
      </trkpt>
      <trkpt lat="43.22991" lon="6.40595">
        <ele>460.6</ele>
        <time>2019-03-24T13:56:53Z</time>
      </trkpt>
      <trkpt lat="43.22996" lon="6.40584">
        <ele>460.7</ele>
        <time>2019-03-24T13:57:01Z</time>
      </trkpt>
      <trkpt lat="43.22997" lon="6.4057">
        <ele>461.1</ele>
        <time>2019-03-24T13:57:09Z</time>
      </trkpt>
      <trkpt lat="43.22995" lon="6.40558">
        <ele>461.2</ele>
        <time>2019-03-24T13:57:18Z</time>
      </trkpt>
      <trkpt lat="43.22998" lon="6.40545">
        <ele>462.2</ele>
        <time>2019-03-24T13:57:29Z</time>
      </trkpt>
      <trkpt lat="43.22999" lon="6.40532">
        <ele>462.3</ele>
        <time>2019-03-24T13:57:36Z</time>
      </trkpt>
      <trkpt lat="43.22999" lon="6.40518">
        <ele>462.2</ele>
        <time>2019-03-24T13:57:47Z</time>
      </trkpt>
      <trkpt lat="43.23005" lon="6.40527">
        <ele>462.2</ele>
        <time>2019-03-24T13:58:15Z</time>
      </trkpt>
      <trkpt lat="43.23015" lon="6.40533">
        <ele>462</ele>
        <time>2019-03-24T13:58:27Z</time>
      </trkpt>
      <trkpt lat="43.23021" lon="6.40545">
        <ele>461.1</ele>
        <time>2019-03-24T13:58:40Z</time>
      </trkpt>
      <trkpt lat="43.23029" lon="6.40551">
        <ele>460.4</ele>
        <time>2019-03-24T13:58:49Z</time>
      </trkpt>
      <trkpt lat="43.23034" lon="6.40561">
        <ele>459.6</ele>
        <time>2019-03-24T13:58:57Z</time>
      </trkpt>
      <trkpt lat="43.23039" lon="6.40573">
        <ele>458.5</ele>
        <time>2019-03-24T13:59:06Z</time>
      </trkpt>
      <trkpt lat="43.23044" lon="6.40583">
        <ele>458</ele>
        <time>2019-03-24T13:59:13Z</time>
      </trkpt>
      <trkpt lat="43.23049" lon="6.40594">
        <ele>457.1</ele>
        <time>2019-03-24T13:59:22Z</time>
      </trkpt>
      <trkpt lat="43.23052" lon="6.40606">
        <ele>456.5</ele>
        <time>2019-03-24T13:59:30Z</time>
      </trkpt>
      <trkpt lat="43.23059" lon="6.40616">
        <ele>456</ele>
        <time>2019-03-24T13:59:38Z</time>
      </trkpt>
      <trkpt lat="43.23065" lon="6.40627">
        <ele>455.6</ele>
        <time>2019-03-24T13:59:46Z</time>
      </trkpt>
      <trkpt lat="43.23071" lon="6.40637">
        <ele>455.5</ele>
        <time>2019-03-24T13:59:54Z</time>
      </trkpt>
      <trkpt lat="43.23077" lon="6.40646">
        <ele>455.4</ele>
        <time>2019-03-24T14:00:03Z</time>
      </trkpt>
      <trkpt lat="43.23084" lon="6.40656">
        <ele>455.4</ele>
        <time>2019-03-24T14:00:17Z</time>
      </trkpt>
      <trkpt lat="43.23089" lon="6.40667">
        <ele>455.3</ele>
        <time>2019-03-24T14:00:25Z</time>
      </trkpt>
      <trkpt lat="43.23097" lon="6.40674">
        <ele>455</ele>
        <time>2019-03-24T14:00:32Z</time>
      </trkpt>
      <trkpt lat="43.23106" lon="6.40677">
        <ele>455.1</ele>
        <time>2019-03-24T14:00:40Z</time>
      </trkpt>
      <trkpt lat="43.23114" lon="6.40684">
        <ele>454.9</ele>
        <time>2019-03-24T14:00:48Z</time>
      </trkpt>
      <trkpt lat="43.23122" lon="6.40692">
        <ele>454.9</ele>
        <time>2019-03-24T14:00:58Z</time>
      </trkpt>
      <trkpt lat="43.2313" lon="6.40698">
        <ele>454.7</ele>
        <time>2019-03-24T14:01:07Z</time>
      </trkpt>
      <trkpt lat="43.23138" lon="6.40705">
        <ele>454.6</ele>
        <time>2019-03-24T14:01:17Z</time>
      </trkpt>
      <trkpt lat="43.23144" lon="6.40715">
        <ele>454.4</ele>
        <time>2019-03-24T14:01:26Z</time>
      </trkpt>
      <trkpt lat="43.23154" lon="6.40715">
        <ele>454.4</ele>
        <time>2019-03-24T14:01:34Z</time>
      </trkpt>
      <trkpt lat="43.23163" lon="6.40719">
        <ele>454.1</ele>
        <time>2019-03-24T14:01:43Z</time>
      </trkpt>
      <trkpt lat="43.23172" lon="6.40722">
        <ele>453.6</ele>
        <time>2019-03-24T14:01:54Z</time>
      </trkpt>
      <trkpt lat="43.23179" lon="6.4073">
        <ele>452.7</ele>
        <time>2019-03-24T14:02:12Z</time>
      </trkpt>
      <trkpt lat="43.23182" lon="6.40718">
        <ele>453.3</ele>
        <time>2019-03-24T14:02:44Z</time>
      </trkpt>
      <trkpt lat="43.23189" lon="6.40726">
        <ele>453.3</ele>
        <time>2019-03-24T14:02:56Z</time>
      </trkpt>
      <trkpt lat="43.23197" lon="6.40734">
        <ele>452.8</ele>
        <time>2019-03-24T14:03:20Z</time>
      </trkpt>
      <trkpt lat="43.23202" lon="6.40744">
        <ele>452.2</ele>
        <time>2019-03-24T14:03:28Z</time>
      </trkpt>
      <trkpt lat="43.2321" lon="6.40753">
        <ele>451.7</ele>
        <time>2019-03-24T14:03:40Z</time>
      </trkpt>
      <trkpt lat="43.23215" lon="6.40762">
        <ele>451.6</ele>
        <time>2019-03-24T14:03:50Z</time>
      </trkpt>
      <trkpt lat="43.23222" lon="6.40771">
        <ele>451.4</ele>
        <time>2019-03-24T14:04:00Z</time>
      </trkpt>
      <trkpt lat="43.2323" lon="6.4078">
        <ele>451.1</ele>
        <time>2019-03-24T14:04:11Z</time>
      </trkpt>
      <trkpt lat="43.23235" lon="6.4079">
        <ele>450.5</ele>
        <time>2019-03-24T14:04:20Z</time>
      </trkpt>
      <trkpt lat="43.23241" lon="6.40801">
        <ele>450.1</ele>
        <time>2019-03-24T14:04:29Z</time>
      </trkpt>
      <trkpt lat="43.23249" lon="6.4081">
        <ele>449.6</ele>
        <time>2019-03-24T14:04:40Z</time>
      </trkpt>
      <trkpt lat="43.23254" lon="6.40821">
        <ele>449.4</ele>
        <time>2019-03-24T14:04:50Z</time>
      </trkpt>
      <trkpt lat="43.23259" lon="6.40833">
        <ele>449.1</ele>
        <time>2019-03-24T14:04:59Z</time>
      </trkpt>
      <trkpt lat="43.23264" lon="6.40844">
        <ele>448.7</ele>
        <time>2019-03-24T14:05:08Z</time>
      </trkpt>
      <trkpt lat="43.23271" lon="6.40853">
        <ele>448.5</ele>
        <time>2019-03-24T14:05:17Z</time>
      </trkpt>
      <trkpt lat="43.23274" lon="6.40865">
        <ele>448.3</ele>
        <time>2019-03-24T14:05:25Z</time>
      </trkpt>
      <trkpt lat="43.23277" lon="6.40878">
        <ele>448.3</ele>
        <time>2019-03-24T14:05:33Z</time>
      </trkpt>
      <trkpt lat="43.23285" lon="6.40886">
        <ele>448</ele>
        <time>2019-03-24T14:05:42Z</time>
      </trkpt>
      <trkpt lat="43.23293" lon="6.40895">
        <ele>447.9</ele>
        <time>2019-03-24T14:05:51Z</time>
      </trkpt>
      <trkpt lat="43.233" lon="6.40904">
        <ele>447.4</ele>
        <time>2019-03-24T14:06:02Z</time>
      </trkpt>
      <trkpt lat="43.23306" lon="6.40913">
        <ele>446.5</ele>
        <time>2019-03-24T14:06:11Z</time>
      </trkpt>
      <trkpt lat="43.23315" lon="6.40919">
        <ele>445.9</ele>
        <time>2019-03-24T14:06:20Z</time>
      </trkpt>
      <trkpt lat="43.23323" lon="6.40927">
        <ele>445.4</ele>
        <time>2019-03-24T14:06:28Z</time>
      </trkpt>
      <trkpt lat="43.23331" lon="6.40934">
        <ele>445.5</ele>
        <time>2019-03-24T14:06:36Z</time>
      </trkpt>
      <trkpt lat="43.2334" lon="6.4094">
        <ele>445</ele>
        <time>2019-03-24T14:06:45Z</time>
      </trkpt>
      <trkpt lat="43.2335" lon="6.40943">
        <ele>445.1</ele>
        <time>2019-03-24T14:06:53Z</time>
      </trkpt>
      <trkpt lat="43.2336" lon="6.40943">
        <ele>444.8</ele>
        <time>2019-03-24T14:07:00Z</time>
      </trkpt>
      <trkpt lat="43.23369" lon="6.4094">
        <ele>444.6</ele>
        <time>2019-03-24T14:07:08Z</time>
      </trkpt>
      <trkpt lat="43.23376" lon="6.40932">
        <ele>444.1</ele>
        <time>2019-03-24T14:08:24Z</time>
      </trkpt>
      <trkpt lat="43.23384" lon="6.40927">
        <ele>444.5</ele>
        <time>2019-03-24T14:08:35Z</time>
      </trkpt>
      <trkpt lat="43.23392" lon="6.4092">
        <ele>445</ele>
        <time>2019-03-24T14:08:44Z</time>
      </trkpt>
      <trkpt lat="43.234" lon="6.40915">
        <ele>444.9</ele>
        <time>2019-03-24T14:08:54Z</time>
      </trkpt>
      <trkpt lat="43.23408" lon="6.40907">
        <ele>445</ele>
        <time>2019-03-24T14:09:04Z</time>
      </trkpt>
      <trkpt lat="43.23416" lon="6.40899">
        <ele>444.7</ele>
        <time>2019-03-24T14:09:15Z</time>
      </trkpt>
      <trkpt lat="43.23425" lon="6.40893">
        <ele>444.1</ele>
        <time>2019-03-24T14:09:26Z</time>
      </trkpt>
      <trkpt lat="43.23432" lon="6.40886">
        <ele>443.6</ele>
        <time>2019-03-24T14:11:30Z</time>
      </trkpt>
      <trkpt lat="43.23441" lon="6.40882">
        <ele>443.5</ele>
        <time>2019-03-24T14:11:42Z</time>
      </trkpt>
      <trkpt lat="43.23445" lon="6.4087">
        <ele>443.2</ele>
        <time>2019-03-24T14:11:55Z</time>
      </trkpt>
      <trkpt lat="43.23448" lon="6.40857">
        <ele>442.9</ele>
        <time>2019-03-24T14:12:04Z</time>
      </trkpt>
      <trkpt lat="43.23451" lon="6.40845">
        <ele>442.2</ele>
        <time>2019-03-24T14:12:14Z</time>
      </trkpt>
      <trkpt lat="43.23453" lon="6.40831">
        <ele>441.4</ele>
        <time>2019-03-24T14:12:23Z</time>
      </trkpt>
      <trkpt lat="43.23447" lon="6.40822">
        <ele>440.8</ele>
        <time>2019-03-24T14:12:32Z</time>
      </trkpt>
      <trkpt lat="43.23443" lon="6.4081">
        <ele>440.4</ele>
        <time>2019-03-24T14:12:41Z</time>
      </trkpt>
      <trkpt lat="43.23438" lon="6.40798">
        <ele>440</ele>
        <time>2019-03-24T14:12:51Z</time>
      </trkpt>
      <trkpt lat="43.23435" lon="6.40786">
        <ele>439.9</ele>
        <time>2019-03-24T14:13:01Z</time>
      </trkpt>
      <trkpt lat="43.23431" lon="6.40775">
        <ele>439.3</ele>
        <time>2019-03-24T14:13:10Z</time>
      </trkpt>
      <trkpt lat="43.23426" lon="6.40764">
        <ele>438.8</ele>
        <time>2019-03-24T14:13:19Z</time>
      </trkpt>
      <trkpt lat="43.23425" lon="6.40751">
        <ele>438.5</ele>
        <time>2019-03-24T14:13:27Z</time>
      </trkpt>
      <trkpt lat="43.23418" lon="6.40742">
        <ele>438.3</ele>
        <time>2019-03-24T14:13:36Z</time>
      </trkpt>
      <trkpt lat="43.23413" lon="6.40732">
        <ele>437.9</ele>
        <time>2019-03-24T14:13:45Z</time>
      </trkpt>
      <trkpt lat="43.23407" lon="6.40722">
        <ele>437.5</ele>
        <time>2019-03-24T14:13:53Z</time>
      </trkpt>
      <trkpt lat="43.234" lon="6.40714">
        <ele>437.1</ele>
        <time>2019-03-24T14:14:03Z</time>
      </trkpt>
      <trkpt lat="43.23391" lon="6.40709">
        <ele>437</ele>
        <time>2019-03-24T14:14:13Z</time>
      </trkpt>
      <trkpt lat="43.23383" lon="6.40702">
        <ele>436.7</ele>
        <time>2019-03-24T14:14:22Z</time>
      </trkpt>
      <trkpt lat="43.23375" lon="6.40695">
        <ele>436.4</ele>
        <time>2019-03-24T14:14:29Z</time>
      </trkpt>
      <trkpt lat="43.23366" lon="6.40692">
        <ele>436.2</ele>
        <time>2019-03-24T14:14:36Z</time>
      </trkpt>
      <trkpt lat="43.23358" lon="6.40687">
        <ele>436.1</ele>
        <time>2019-03-24T14:14:44Z</time>
      </trkpt>
      <trkpt lat="43.2335" lon="6.40678">
        <ele>435.7</ele>
        <time>2019-03-24T14:14:53Z</time>
      </trkpt>
      <trkpt lat="43.23342" lon="6.40672">
        <ele>435.5</ele>
        <time>2019-03-24T14:15:04Z</time>
      </trkpt>
      <trkpt lat="43.23334" lon="6.40667">
        <ele>435.4</ele>
        <time>2019-03-24T14:15:13Z</time>
      </trkpt>
      <trkpt lat="43.23329" lon="6.40655">
        <ele>435</ele>
        <time>2019-03-24T14:15:24Z</time>
      </trkpt>
      <trkpt lat="43.23328" lon="6.40642">
        <ele>435.8</ele>
        <time>2019-03-24T14:15:41Z</time>
      </trkpt>
      <trkpt lat="43.23324" lon="6.4063">
        <ele>435.1</ele>
        <time>2019-03-24T14:15:51Z</time>
      </trkpt>
      <trkpt lat="43.23322" lon="6.40617">
        <ele>435</ele>
        <time>2019-03-24T14:16:02Z</time>
      </trkpt>
      <trkpt lat="43.23322" lon="6.40603">
        <ele>434.8</ele>
        <time>2019-03-24T14:16:12Z</time>
      </trkpt>
      <trkpt lat="43.23324" lon="6.4059">
        <ele>434.5</ele>
        <time>2019-03-24T14:16:21Z</time>
      </trkpt>
      <trkpt lat="43.23327" lon="6.40577">
        <ele>434.7</ele>
        <time>2019-03-24T14:16:30Z</time>
      </trkpt>
      <trkpt lat="43.23325" lon="6.40565">
        <ele>435</ele>
        <time>2019-03-24T14:16:39Z</time>
      </trkpt>
      <trkpt lat="43.23323" lon="6.40552">
        <ele>434.9</ele>
        <time>2019-03-24T14:16:50Z</time>
      </trkpt>
      <trkpt lat="43.2332" lon="6.40541">
        <ele>435.8</ele>
        <time>2019-03-24T14:16:59Z</time>
      </trkpt>
      <trkpt lat="43.23323" lon="6.40529">
        <ele>435.7</ele>
        <time>2019-03-24T14:17:07Z</time>
      </trkpt>
      <trkpt lat="43.23322" lon="6.40516">
        <ele>435.7</ele>
        <time>2019-03-24T14:17:14Z</time>
      </trkpt>
      <trkpt lat="43.23316" lon="6.40507">
        <ele>435.9</ele>
        <time>2019-03-24T14:17:31Z</time>
      </trkpt>
      <trkpt lat="43.23322" lon="6.40498">
        <ele>436.2</ele>
        <time>2019-03-24T14:17:43Z</time>
      </trkpt>
      <trkpt lat="43.23327" lon="6.40487">
        <ele>436.6</ele>
        <time>2019-03-24T14:18:01Z</time>
      </trkpt>
      <trkpt lat="43.23331" lon="6.40475">
        <ele>436.6</ele>
        <time>2019-03-24T14:18:10Z</time>
      </trkpt>
      <trkpt lat="43.23337" lon="6.40466">
        <ele>437</ele>
        <time>2019-03-24T14:18:21Z</time>
      </trkpt>
      <trkpt lat="43.23342" lon="6.40454">
        <ele>437.7</ele>
        <time>2019-03-24T14:18:30Z</time>
      </trkpt>
      <trkpt lat="43.23346" lon="6.40442">
        <ele>437.6</ele>
        <time>2019-03-24T14:18:37Z</time>
      </trkpt>
      <trkpt lat="43.23347" lon="6.40428">
        <ele>437.4</ele>
        <time>2019-03-24T14:18:48Z</time>
      </trkpt>
      <trkpt lat="43.23348" lon="6.40415">
        <ele>437.7</ele>
        <time>2019-03-24T14:18:59Z</time>
      </trkpt>
      <trkpt lat="43.23351" lon="6.40403">
        <ele>438</ele>
        <time>2019-03-24T14:19:09Z</time>
      </trkpt>
      <trkpt lat="43.23352" lon="6.4039">
        <ele>438.2</ele>
        <time>2019-03-24T14:19:19Z</time>
      </trkpt>
      <trkpt lat="43.23351" lon="6.40377">
        <ele>438.4</ele>
        <time>2019-03-24T14:19:28Z</time>
      </trkpt>
      <trkpt lat="43.23352" lon="6.40364">
        <ele>438.4</ele>
        <time>2019-03-24T14:19:39Z</time>
      </trkpt>
      <trkpt lat="43.23354" lon="6.40352">
        <ele>439.3</ele>
        <time>2019-03-24T14:19:52Z</time>
      </trkpt>
      <trkpt lat="43.23361" lon="6.40344">
        <ele>439.1</ele>
        <time>2019-03-24T14:20:06Z</time>
      </trkpt>
      <trkpt lat="43.23353" lon="6.40337">
        <ele>439.6</ele>
        <time>2019-03-24T14:20:22Z</time>
      </trkpt>
      <trkpt lat="43.23355" lon="6.40324">
        <ele>439.6</ele>
        <time>2019-03-24T14:20:47Z</time>
      </trkpt>
      <trkpt lat="43.23355" lon="6.40311">
        <ele>439.6</ele>
        <time>2019-03-24T14:20:58Z</time>
      </trkpt>
      <trkpt lat="43.23356" lon="6.40298">
        <ele>439.5</ele>
        <time>2019-03-24T14:21:08Z</time>
      </trkpt>
      <trkpt lat="43.23357" lon="6.40285">
        <ele>439.2</ele>
        <time>2019-03-24T14:21:15Z</time>
      </trkpt>
      <trkpt lat="43.23361" lon="6.40273">
        <ele>438.9</ele>
        <time>2019-03-24T14:21:24Z</time>
      </trkpt>
      <trkpt lat="43.23363" lon="6.40259">
        <ele>438.6</ele>
        <time>2019-03-24T14:21:33Z</time>
      </trkpt>
      <trkpt lat="43.23362" lon="6.40246">
        <ele>437.9</ele>
        <time>2019-03-24T14:21:45Z</time>
      </trkpt>
      <trkpt lat="43.23361" lon="6.40233">
        <ele>437.4</ele>
        <time>2019-03-24T14:21:53Z</time>
      </trkpt>
      <trkpt lat="43.23365" lon="6.40221">
        <ele>436.9</ele>
        <time>2019-03-24T14:22:19Z</time>
      </trkpt>
      <trkpt lat="43.23374" lon="6.40215">
        <ele>435.9</ele>
        <time>2019-03-24T14:22:28Z</time>
      </trkpt>
      <trkpt lat="43.23382" lon="6.40211">
        <ele>434.7</ele>
        <time>2019-03-24T14:22:45Z</time>
      </trkpt>
      <trkpt lat="43.23391" lon="6.40209">
        <ele>434.5</ele>
        <time>2019-03-24T14:22:51Z</time>
      </trkpt>
      <trkpt lat="43.234" lon="6.40205">
        <ele>433.9</ele>
        <time>2019-03-24T14:23:02Z</time>
      </trkpt>
      <trkpt lat="43.23409" lon="6.40201">
        <ele>433.3</ele>
        <time>2019-03-24T14:23:13Z</time>
      </trkpt>
      <trkpt lat="43.23417" lon="6.40194">
        <ele>432.9</ele>
        <time>2019-03-24T14:23:21Z</time>
      </trkpt>
      <trkpt lat="43.23425" lon="6.40187">
        <ele>431.8</ele>
        <time>2019-03-24T14:23:32Z</time>
      </trkpt>
      <trkpt lat="43.23434" lon="6.40185">
        <ele>431.2</ele>
        <time>2019-03-24T14:23:42Z</time>
      </trkpt>
      <trkpt lat="43.23442" lon="6.40178">
        <ele>430</ele>
        <time>2019-03-24T14:23:51Z</time>
      </trkpt>
      <trkpt lat="43.2345" lon="6.40173">
        <ele>429.3</ele>
        <time>2019-03-24T14:23:57Z</time>
      </trkpt>
      <trkpt lat="43.2346" lon="6.40168">
        <ele>428.8</ele>
        <time>2019-03-24T14:24:04Z</time>
      </trkpt>
      <trkpt lat="43.2347" lon="6.40166">
        <ele>428.4</ele>
        <time>2019-03-24T14:24:11Z</time>
      </trkpt>
      <trkpt lat="43.23479" lon="6.4016">
        <ele>427.7</ele>
        <time>2019-03-24T14:24:36Z</time>
      </trkpt>
      <trkpt lat="43.23488" lon="6.40158">
        <ele>427.1</ele>
        <time>2019-03-24T14:24:45Z</time>
      </trkpt>
      <trkpt lat="43.23497" lon="6.40154">
        <ele>426.1</ele>
        <time>2019-03-24T14:24:55Z</time>
      </trkpt>
      <trkpt lat="43.23503" lon="6.40144">
        <ele>426</ele>
        <time>2019-03-24T14:25:03Z</time>
      </trkpt>
      <trkpt lat="43.23504" lon="6.4013">
        <ele>426.4</ele>
        <time>2019-03-24T14:25:12Z</time>
      </trkpt>
      <trkpt lat="43.23502" lon="6.40118">
        <ele>427.8</ele>
        <time>2019-03-24T14:25:29Z</time>
      </trkpt>
      <trkpt lat="43.23498" lon="6.40107">
        <ele>427.6</ele>
        <time>2019-03-24T14:26:08Z</time>
      </trkpt>
      <trkpt lat="43.23504" lon="6.40097">
        <ele>428.8</ele>
        <time>2019-03-24T14:35:35Z</time>
      </trkpt>
      <trkpt lat="43.23504" lon="6.40084">
        <ele>428.8</ele>
        <time>2019-03-24T14:35:46Z</time>
      </trkpt>
      <trkpt lat="43.23505" lon="6.40071">
        <ele>428.4</ele>
        <time>2019-03-24T14:36:12Z</time>
      </trkpt>
      <trkpt lat="43.23502" lon="6.40059">
        <ele>428.5</ele>
        <time>2019-03-24T14:36:22Z</time>
      </trkpt>
      <trkpt lat="43.23501" lon="6.40046">
        <ele>429</ele>
        <time>2019-03-24T14:36:33Z</time>
      </trkpt>
      <trkpt lat="43.23491" lon="6.40043">
        <ele>430.1</ele>
        <time>2019-03-24T14:40:47Z</time>
      </trkpt>
      <trkpt lat="43.23482" lon="6.40043">
        <ele>430.2</ele>
        <time>2019-03-24T14:40:56Z</time>
      </trkpt>
      <trkpt lat="43.23488" lon="6.40034">
        <ele>430</ele>
        <time>2019-03-24T14:41:21Z</time>
      </trkpt>
      <trkpt lat="43.23481" lon="6.40025">
        <ele>430.1</ele>
        <time>2019-03-24T14:41:35Z</time>
      </trkpt>
      <trkpt lat="43.23476" lon="6.40014">
        <ele>430.2</ele>
        <time>2019-03-24T14:41:44Z</time>
      </trkpt>
      <trkpt lat="43.23476" lon="6.40001">
        <ele>430.4</ele>
        <time>2019-03-24T14:41:55Z</time>
      </trkpt>
      <trkpt lat="43.23471" lon="6.39991">
        <ele>430.6</ele>
        <time>2019-03-24T14:42:05Z</time>
      </trkpt>
      <trkpt lat="43.23469" lon="6.39978">
        <ele>429.7</ele>
        <time>2019-03-24T14:42:35Z</time>
      </trkpt>
      <trkpt lat="43.23466" lon="6.39966">
        <ele>429.3</ele>
        <time>2019-03-24T14:42:45Z</time>
      </trkpt>
      <trkpt lat="43.23457" lon="6.3996">
        <ele>429.2</ele>
        <time>2019-03-24T14:42:52Z</time>
      </trkpt>
      <trkpt lat="43.23452" lon="6.39948">
        <ele>428.7</ele>
        <time>2019-03-24T14:42:59Z</time>
      </trkpt>
      <trkpt lat="43.23446" lon="6.39938">
        <ele>428.2</ele>
        <time>2019-03-24T14:43:09Z</time>
      </trkpt>
      <trkpt lat="43.23447" lon="6.39926">
        <ele>427.2</ele>
        <time>2019-03-24T14:43:21Z</time>
      </trkpt>
      <trkpt lat="43.23452" lon="6.39915">
        <ele>426.2</ele>
        <time>2019-03-24T14:43:31Z</time>
      </trkpt>
      <trkpt lat="43.23461" lon="6.39908">
        <ele>425.3</ele>
        <time>2019-03-24T14:43:40Z</time>
      </trkpt>
      <trkpt lat="43.23463" lon="6.39896">
        <ele>424</ele>
        <time>2019-03-24T14:43:53Z</time>
      </trkpt>
      <trkpt lat="43.2347" lon="6.39887">
        <ele>423.3</ele>
        <time>2019-03-24T14:44:01Z</time>
      </trkpt>
      <trkpt lat="43.23478" lon="6.39882">
        <ele>422.8</ele>
        <time>2019-03-24T14:44:23Z</time>
      </trkpt>
      <trkpt lat="43.2348" lon="6.3987">
        <ele>422.5</ele>
        <time>2019-03-24T14:44:34Z</time>
      </trkpt>
      <trkpt lat="43.23482" lon="6.39856">
        <ele>422.5</ele>
        <time>2019-03-24T14:44:43Z</time>
      </trkpt>
      <trkpt lat="43.23482" lon="6.39844">
        <ele>422</ele>
        <time>2019-03-24T14:44:50Z</time>
      </trkpt>
      <trkpt lat="43.23481" lon="6.39831">
        <ele>421.1</ele>
        <time>2019-03-24T14:44:58Z</time>
      </trkpt>
      <trkpt lat="43.23478" lon="6.39818">
        <ele>420.1</ele>
        <time>2019-03-24T14:45:07Z</time>
      </trkpt>
      <trkpt lat="43.23476" lon="6.39805">
        <ele>419.2</ele>
        <time>2019-03-24T14:45:13Z</time>
      </trkpt>
      <trkpt lat="43.23475" lon="6.39793">
        <ele>417.4</ele>
        <time>2019-03-24T14:45:26Z</time>
      </trkpt>
      <trkpt lat="43.23476" lon="6.39805">
        <ele>415.3</ele>
        <time>2019-03-24T14:45:48Z</time>
      </trkpt>
      <trkpt lat="43.23478" lon="6.39818">
        <ele>415.1</ele>
        <time>2019-03-24T14:46:01Z</time>
      </trkpt>
      <trkpt lat="43.23477" lon="6.3983">
        <ele>415.3</ele>
        <time>2019-03-24T14:46:12Z</time>
      </trkpt>
      <trkpt lat="43.23486" lon="6.39835">
        <ele>415.4</ele>
        <time>2019-03-24T14:46:19Z</time>
      </trkpt>
      <trkpt lat="43.23494" lon="6.39843">
        <ele>416</ele>
        <time>2019-03-24T14:46:27Z</time>
      </trkpt>
      <trkpt lat="43.23502" lon="6.39848">
        <ele>415.8</ele>
        <time>2019-03-24T14:46:33Z</time>
      </trkpt>
      <trkpt lat="43.23512" lon="6.39851">
        <ele>415.8</ele>
        <time>2019-03-24T14:46:38Z</time>
      </trkpt>
      <trkpt lat="43.23521" lon="6.39855">
        <ele>415.5</ele>
        <time>2019-03-24T14:46:43Z</time>
      </trkpt>
      <trkpt lat="43.23531" lon="6.3986">
        <ele>415.6</ele>
        <time>2019-03-24T14:46:50Z</time>
      </trkpt>
      <trkpt lat="43.2354" lon="6.39861">
        <ele>416.2</ele>
        <time>2019-03-24T14:47:03Z</time>
      </trkpt>
      <trkpt lat="43.23549" lon="6.39863">
        <ele>416.9</ele>
        <time>2019-03-24T14:47:13Z</time>
      </trkpt>
      <trkpt lat="43.23558" lon="6.39868">
        <ele>417.3</ele>
        <time>2019-03-24T14:47:23Z</time>
      </trkpt>
      <trkpt lat="43.23566" lon="6.39876">
        <ele>417.8</ele>
        <time>2019-03-24T14:47:33Z</time>
      </trkpt>
      <trkpt lat="43.23575" lon="6.39879">
        <ele>418.8</ele>
        <time>2019-03-24T14:48:14Z</time>
      </trkpt>
      <trkpt lat="43.23585" lon="6.3988">
        <ele>419.1</ele>
        <time>2019-03-24T14:48:22Z</time>
      </trkpt>
      <trkpt lat="43.23594" lon="6.39874">
        <ele>420</ele>
        <time>2019-03-24T14:48:30Z</time>
      </trkpt>
      <trkpt lat="43.23603" lon="6.39868">
        <ele>420.1</ele>
        <time>2019-03-24T14:48:37Z</time>
      </trkpt>
      <trkpt lat="43.23611" lon="6.39863">
        <ele>420.1</ele>
        <time>2019-03-24T14:48:44Z</time>
      </trkpt>
      <trkpt lat="43.23618" lon="6.39854">
        <ele>420.5</ele>
        <time>2019-03-24T14:48:52Z</time>
      </trkpt>
      <trkpt lat="43.23627" lon="6.39849">
        <ele>420.8</ele>
        <time>2019-03-24T14:49:00Z</time>
      </trkpt>
      <trkpt lat="43.23634" lon="6.39841">
        <ele>420.8</ele>
        <time>2019-03-24T14:49:06Z</time>
      </trkpt>
      <trkpt lat="43.23634" lon="6.39828">
        <ele>421.4</ele>
        <time>2019-03-24T14:49:15Z</time>
      </trkpt>
      <trkpt lat="43.23637" lon="6.39816">
        <ele>422.1</ele>
        <time>2019-03-24T14:49:32Z</time>
      </trkpt>
      <trkpt lat="43.23647" lon="6.39812">
        <ele>422.9</ele>
        <time>2019-03-24T14:49:45Z</time>
      </trkpt>
      <trkpt lat="43.23655" lon="6.39806">
        <ele>423.6</ele>
        <time>2019-03-24T14:49:53Z</time>
      </trkpt>
      <trkpt lat="43.23663" lon="6.39799">
        <ele>424.1</ele>
        <time>2019-03-24T14:50:01Z</time>
      </trkpt>
      <trkpt lat="43.2367" lon="6.3979">
        <ele>425.1</ele>
        <time>2019-03-24T14:50:11Z</time>
      </trkpt>
      <trkpt lat="43.23674" lon="6.39779">
        <ele>426.4</ele>
        <time>2019-03-24T14:50:44Z</time>
      </trkpt>
      <trkpt lat="43.23682" lon="6.39771">
        <ele>426.3</ele>
        <time>2019-03-24T14:51:20Z</time>
      </trkpt>
      <trkpt lat="43.2369" lon="6.39765">
        <ele>426.6</ele>
        <time>2019-03-24T14:51:57Z</time>
      </trkpt>
      <trkpt lat="43.23694" lon="6.39753">
        <ele>427.5</ele>
        <time>2019-03-24T14:52:50Z</time>
      </trkpt>
      <trkpt lat="43.23701" lon="6.39744">
        <ele>428.2</ele>
        <time>2019-03-24T14:53:01Z</time>
      </trkpt>
      <trkpt lat="43.23709" lon="6.39737">
        <ele>428.4</ele>
        <time>2019-03-24T14:53:10Z</time>
      </trkpt>
      <trkpt lat="43.23717" lon="6.39731">
        <ele>428.6</ele>
        <time>2019-03-24T14:53:18Z</time>
      </trkpt>
      <trkpt lat="43.23724" lon="6.39722">
        <ele>429.5</ele>
        <time>2019-03-24T14:53:27Z</time>
      </trkpt>
      <trkpt lat="43.23732" lon="6.39715">
        <ele>429.8</ele>
        <time>2019-03-24T14:53:36Z</time>
      </trkpt>
      <trkpt lat="43.23741" lon="6.3971">
        <ele>430.4</ele>
        <time>2019-03-24T14:53:45Z</time>
      </trkpt>
      <trkpt lat="43.23749" lon="6.39704">
        <ele>430.6</ele>
        <time>2019-03-24T14:53:54Z</time>
      </trkpt>
      <trkpt lat="43.23757" lon="6.39696">
        <ele>430.8</ele>
        <time>2019-03-24T14:54:08Z</time>
      </trkpt>
      <trkpt lat="43.23766" lon="6.39693">
        <ele>430.9</ele>
        <time>2019-03-24T14:54:21Z</time>
      </trkpt>
      <trkpt lat="43.23776" lon="6.39695">
        <ele>431</ele>
        <time>2019-03-24T14:54:35Z</time>
      </trkpt>
      <trkpt lat="43.23781" lon="6.39684">
        <ele>430.9</ele>
        <time>2019-03-24T14:54:44Z</time>
      </trkpt>
      <trkpt lat="43.23783" lon="6.39672">
        <ele>430.7</ele>
        <time>2019-03-24T14:54:55Z</time>
      </trkpt>
      <trkpt lat="43.23784" lon="6.39659">
        <ele>431.2</ele>
        <time>2019-03-24T14:55:06Z</time>
      </trkpt>
      <trkpt lat="43.23786" lon="6.39645">
        <ele>431.2</ele>
        <time>2019-03-24T14:55:18Z</time>
      </trkpt>
      <trkpt lat="43.23785" lon="6.39633">
        <ele>431.5</ele>
        <time>2019-03-24T14:55:34Z</time>
      </trkpt>
      <trkpt lat="43.23783" lon="6.39634">
        <ele>432.2</ele>
        <time>2019-03-24T14:56:16Z</time>
      </trkpt>
    </trkseg>
  </trk>
</gpx>